<?xml version='1.0' encoding='UTF-8'?><gpx version="1.1" creator="JPX - https://github.com/jenetics/jpx" xmlns="http://www.topografix.com/GPX/1/1"><trk><trkseg><trkpt lat="40.81026922782377" lon="15.70750054763242"><ele>581.0</ele><time>2026-04-04T09:33:08Z</time></trkpt><trkpt lat="40.81020930878921" lon="15.707577045213753"><ele>581.0</ele><time>2026-04-04T09:33:09Z</time></trkpt><trkpt lat="40.810132300078045" lon="15.707648191687559"><ele>581.0</ele><time>2026-04-04T09:33:10Z</time></trkpt><trkpt lat="40.81004487704555" lon="15.707684761118772"><ele>581.0</ele><time>2026-04-04T09:33:11Z</time></trkpt><trkpt lat="40.809951964878366" lon="15.707696176460175"><ele>581.0</ele><time>2026-04-04T09:33:12Z</time></trkpt><trkpt lat="40.809825900211784" lon="15.707683318175253"><ele>583.6666666666666</ele><time>2026-04-04T09:33:13Z</time></trkpt><trkpt lat="40.809678964751264" lon="15.707660509913936"><ele>586.3333333333334</ele><time>2026-04-04T09:33:14Z</time></trkpt><trkpt lat="40.80952047343757" lon="15.707654190624481"><ele>589.0</ele><time>2026-04-04T09:33:15Z</time></trkpt><trkpt lat="40.809355573111844" lon="15.707654877724837"><ele>589.5</ele><time>2026-04-04T09:33:16Z</time></trkpt><trkpt lat="40.809201364143135" lon="15.707645480331156"><ele>590.0</ele><time>2026-04-04T09:33:17Z</time></trkpt><trkpt lat="40.80907397782593" lon="15.707640400548112"><ele>590.5</ele><time>2026-04-04T09:33:18Z</time></trkpt><trkpt lat="40.8089602341264" lon="15.707626160108848"><ele>591.0</ele><time>2026-04-04T09:33:19Z</time></trkpt><trkpt lat="40.80885864320017" lon="15.707597445377274"><ele>591.0</ele><time>2026-04-04T09:33:20Z</time></trkpt><trkpt lat="40.808802352546394" lon="15.70751336269449"><ele>591.0</ele><time>2026-04-04T09:33:21Z</time></trkpt><trkpt lat="40.80883869014984" lon="15.707370903546673"><ele>591.0</ele><time>2026-04-04T09:33:22Z</time></trkpt><trkpt lat="40.80884197641605" lon="15.707255628229422"><ele>591.0</ele><time>2026-04-04T09:33:23Z</time></trkpt><trkpt lat="40.80886024731091" lon="15.70712532306384"><ele>591.0</ele><time>2026-04-04T09:33:24Z</time></trkpt><trkpt lat="40.80887542289713" lon="15.706998128272003"><ele>591.0</ele><time>2026-04-04T09:33:25Z</time></trkpt><trkpt lat="40.80890544387961" lon="15.7069191714907"><ele>591.0</ele><time>2026-04-04T09:33:26Z</time></trkpt><trkpt lat="40.808940147043764" lon="15.706837982953674"><ele>591.0</ele><time>2026-04-04T09:33:27Z</time></trkpt><trkpt lat="40.80903105442672" lon="15.706811020090939"><ele>591.0</ele><time>2026-04-04T09:33:28Z</time></trkpt><trkpt lat="40.80911118759392" lon="15.706812818532358"><ele>591.0</ele><time>2026-04-04T09:33:29Z</time></trkpt><trkpt lat="40.80918615967592" lon="15.70677721067123"><ele>591.0</ele><time>2026-04-04T09:33:30Z</time></trkpt><trkpt lat="40.8092966294666" lon="15.706765956031049"><ele>592.1666666666666</ele><time>2026-04-04T09:33:31Z</time></trkpt><trkpt lat="40.809376699696344" lon="15.706727187170273"><ele>593.3333333333334</ele><time>2026-04-04T09:33:32Z</time></trkpt><trkpt lat="40.80945742810899" lon="15.706730393265872"><ele>594.5</ele><time>2026-04-04T09:33:33Z</time></trkpt><trkpt lat="40.80954196416056" lon="15.706721308997384"><ele>595.6666666666667</ele><time>2026-04-04T09:33:34Z</time></trkpt><trkpt lat="40.80964164557758" lon="15.70665677734053"><ele>596.8333333333334</ele><time>2026-04-04T09:33:36Z</time></trkpt><trkpt lat="40.809697151764375" lon="15.706613235341413"><ele>598.0</ele><time>2026-04-04T09:33:37Z</time></trkpt><trkpt lat="40.809753583392144" lon="15.706554658474428"><ele>598.0</ele><time>2026-04-04T09:33:38Z</time></trkpt><trkpt lat="40.80980458262229" lon="15.706500536315529"><ele>598.0</ele><time>2026-04-04T09:33:39Z</time></trkpt><trkpt lat="40.80985794397587" lon="15.706410048800693"><ele>598.0</ele><time>2026-04-04T09:33:41Z</time></trkpt><trkpt lat="40.809884412534636" lon="15.706329083739119"><ele>598.0</ele><time>2026-04-04T09:33:43Z</time></trkpt><trkpt lat="40.80997445469428" lon="15.7063341558304"><ele>598.0</ele><time>2026-04-04T09:33:45Z</time></trkpt><trkpt lat="40.81005824258905" lon="15.70632935834794"><ele>598.0</ele><time>2026-04-04T09:33:47Z</time></trkpt><trkpt lat="40.81011406866319" lon="15.70644722958685"><ele>597.6</ele><time>2026-04-04T09:33:48Z</time></trkpt><trkpt lat="40.81022451468578" lon="15.706490317339506"><ele>597.1999999999999</ele><time>2026-04-04T09:33:50Z</time></trkpt><trkpt lat="40.81031201082024" lon="15.706452626499283"><ele>596.8</ele><time>2026-04-04T09:33:52Z</time></trkpt><trkpt lat="40.81039772277985" lon="15.706372518886234"><ele>596.4</ele><time>2026-04-04T09:33:55Z</time></trkpt><trkpt lat="40.810495580187066" lon="15.706293703076472"><ele>596.0</ele><time>2026-04-04T09:33:57Z</time></trkpt><trkpt lat="40.81055755235805" lon="15.706258797433554"><ele>596.0</ele><time>2026-04-04T09:33:58Z</time></trkpt><trkpt lat="40.81065548842687" lon="15.706142860772415"><ele>596.0</ele><time>2026-04-04T09:34:00Z</time></trkpt><trkpt lat="40.81072670253602" lon="15.706079205228644"><ele>596.0</ele><time>2026-04-04T09:34:01Z</time></trkpt><trkpt lat="40.810814218421456" lon="15.706050731535509"><ele>596.0</ele><time>2026-04-04T09:34:02Z</time></trkpt><trkpt lat="40.810938155397416" lon="15.705991054250251"><ele>596.0</ele><time>2026-04-04T09:34:03Z</time></trkpt><trkpt lat="40.81105289119447" lon="15.705932881284365"><ele>597.8333333333333</ele><time>2026-04-04T09:34:04Z</time></trkpt><trkpt lat="40.81112814302375" lon="15.705888094416304"><ele>599.6666666666666</ele><time>2026-04-04T09:34:05Z</time></trkpt><trkpt lat="40.81120490801192" lon="15.705844748262912"><ele>601.5</ele><time>2026-04-04T09:34:06Z</time></trkpt><trkpt lat="40.81127484954845" lon="15.705777020835873"><ele>603.3333333333334</ele><time>2026-04-04T09:34:07Z</time></trkpt><trkpt lat="40.81134305544507" lon="15.705708249792712"><ele>605.1666666666667</ele><time>2026-04-04T09:34:08Z</time></trkpt><trkpt lat="40.81142525663195" lon="15.705625499793143"><ele>607.0</ele><time>2026-04-04T09:34:09Z</time></trkpt><trkpt lat="40.811510101844895" lon="15.705546667073294"><ele>607.0</ele><time>2026-04-04T09:34:10Z</time></trkpt><trkpt lat="40.81159237910829" lon="15.705485909266065"><ele>607.0</ele><time>2026-04-04T09:34:11Z</time></trkpt><trkpt lat="40.81167013718753" lon="15.705415266584916"><ele>607.0</ele><time>2026-04-04T09:34:12Z</time></trkpt><trkpt lat="40.81173951443127" lon="15.705353153459605"><ele>607.0</ele><time>2026-04-04T09:34:13Z</time></trkpt><trkpt lat="40.81179524491149" lon="15.705309190095441"><ele>607.0</ele><time>2026-04-04T09:34:14Z</time></trkpt><trkpt lat="40.811892819353346" lon="15.705209709325173"><ele>606.5</ele><time>2026-04-04T09:34:16Z</time></trkpt><trkpt lat="40.811964553827366" lon="15.705177090153496"><ele>606.0</ele><time>2026-04-04T09:34:17Z</time></trkpt><trkpt lat="40.81203770404452" lon="15.705119672535572"><ele>605.5</ele><time>2026-04-04T09:34:18Z</time></trkpt><trkpt lat="40.81211016924594" lon="15.705059982871457"><ele>605.0</ele><time>2026-04-04T09:34:19Z</time></trkpt><trkpt lat="40.812189986820144" lon="15.704994237077791"><ele>604.5</ele><time>2026-04-04T09:34:20Z</time></trkpt><trkpt lat="40.8122637069828" lon="15.704933513774108"><ele>604.0</ele><time>2026-04-04T09:34:21Z</time></trkpt><trkpt lat="40.81232977190593" lon="15.704880334308221"><ele>604.0</ele><time>2026-04-04T09:34:22Z</time></trkpt><trkpt lat="40.812401778245906" lon="15.704826014998993"><ele>604.0</ele><time>2026-04-04T09:34:23Z</time></trkpt><trkpt lat="40.81248026381327" lon="15.704772139156034"><ele>604.0</ele><time>2026-04-04T09:34:24Z</time></trkpt><trkpt lat="40.81258082338603" lon="15.704706350391206"><ele>604.0</ele><time>2026-04-04T09:34:25Z</time></trkpt><trkpt lat="40.812706451267644" lon="15.704626047323519"><ele>604.0</ele><time>2026-04-04T09:34:26Z</time></trkpt><trkpt lat="40.812817651131006" lon="15.70455754568728"><ele>600.75</ele><time>2026-04-04T09:34:27Z</time></trkpt><trkpt lat="40.81291750586268" lon="15.704493690302364"><ele>597.5</ele><time>2026-04-04T09:34:28Z</time></trkpt><trkpt lat="40.81298101480827" lon="15.70445132929542"><ele>594.25</ele><time>2026-04-04T09:34:29Z</time></trkpt><trkpt lat="40.81307559687008" lon="15.70437089391617"><ele>591.0</ele><time>2026-04-04T09:34:31Z</time></trkpt><trkpt lat="40.81317666473383" lon="15.704587999674773"><ele>591.0</ele><time>2026-04-04T09:34:33Z</time></trkpt><trkpt lat="40.81321695201412" lon="15.70474497855245"><ele>591.0</ele><time>2026-04-04T09:34:34Z</time></trkpt><trkpt lat="40.81325429483582" lon="15.7049182064439"><ele>591.0</ele><time>2026-04-04T09:34:35Z</time></trkpt><trkpt lat="40.81330324461143" lon="15.705104788923622"><ele>591.0</ele><time>2026-04-04T09:34:36Z</time></trkpt><trkpt lat="40.81334125739093" lon="15.705297361799786"><ele>590.5</ele><time>2026-04-04T09:34:37Z</time></trkpt><trkpt lat="40.813364235630225" lon="15.70548059879422"><ele>590.0</ele><time>2026-04-04T09:34:38Z</time></trkpt><trkpt lat="40.813350805640546" lon="15.705639694309236"><ele>589.5</ele><time>2026-04-04T09:34:39Z</time></trkpt><trkpt lat="40.813276720422415" lon="15.70575941704703"><ele>589.0</ele><time>2026-04-04T09:34:40Z</time></trkpt><trkpt lat="40.81319034614389" lon="15.705874015421317"><ele>589.0</ele><time>2026-04-04T09:34:41Z</time></trkpt><trkpt lat="40.81306037027793" lon="15.705969423218853"><ele>589.0</ele><time>2026-04-04T09:34:42Z</time></trkpt><trkpt lat="40.81290627548442" lon="15.706065952398317"><ele>589.0</ele><time>2026-04-04T09:34:43Z</time></trkpt><trkpt lat="40.812734746794455" lon="15.706168755688802"><ele>587.3333333333334</ele><time>2026-04-04T09:34:44Z</time></trkpt><trkpt lat="40.81255689911559" lon="15.706292055489739"><ele>585.6666666666666</ele><time>2026-04-04T09:34:45Z</time></trkpt><trkpt lat="40.812359673373784" lon="15.706408116101926"><ele>584.0</ele><time>2026-04-04T09:34:46Z</time></trkpt><trkpt lat="40.81215200053885" lon="15.70651929422391"><ele>584.0</ele><time>2026-04-04T09:34:47Z</time></trkpt><trkpt lat="40.811964816148446" lon="15.706643960253075"><ele>584.0</ele><time>2026-04-04T09:34:48Z</time></trkpt><trkpt lat="40.8118155846837" lon="15.706747403489997"><ele>584.0</ele><time>2026-04-04T09:34:49Z</time></trkpt><trkpt lat="40.81170214564586" lon="15.706827149540228"><ele>582.6</ele><time>2026-04-04T09:34:50Z</time></trkpt><trkpt lat="40.811615529582944" lon="15.706888038606573"><ele>581.2</ele><time>2026-04-04T09:34:51Z</time></trkpt><trkpt lat="40.81153946713333" lon="15.706931070149539"><ele>579.8000000000001</ele><time>2026-04-04T09:34:52Z</time></trkpt><trkpt lat="40.811432605427534" lon="15.706986690910439"><ele>578.4</ele><time>2026-04-04T09:34:53Z</time></trkpt><trkpt lat="40.81131242668959" lon="15.707031364971174"><ele>577.0</ele><time>2026-04-04T09:34:54Z</time></trkpt><trkpt lat="40.81116598043178" lon="15.70705847930933"><ele>577.0</ele><time>2026-04-04T09:34:55Z</time></trkpt><trkpt lat="40.81100524688171" lon="15.707062808174207"><ele>577.0</ele><time>2026-04-04T09:34:56Z</time></trkpt><trkpt lat="40.81083234240517" lon="15.70707308524357"><ele>577.0</ele><time>2026-04-04T09:34:57Z</time></trkpt><trkpt lat="40.81067275872393" lon="15.70711829618988"><ele>578.3333333333334</ele><time>2026-04-04T09:34:58Z</time></trkpt><trkpt lat="40.81054271615999" lon="15.707238979135598"><ele>579.6666666666666</ele><time>2026-04-04T09:34:59Z</time></trkpt><trkpt lat="40.810405432431494" lon="15.707340345627724"><ele>581.0</ele><time>2026-04-04T09:35:00Z</time></trkpt><trkpt lat="40.81029164261349" lon="15.707442398469757"><ele>581.0</ele><time>2026-04-04T09:35:01Z</time></trkpt><trkpt lat="40.810198526831485" lon="15.707523604986717"><ele>581.0</ele><time>2026-04-04T09:35:02Z</time></trkpt><trkpt lat="40.81011280177223" lon="15.707596627069421"><ele>581.0</ele><time>2026-04-04T09:35:03Z</time></trkpt><trkpt lat="40.81003560571331" lon="15.707662384148588"><ele>581.0</ele><time>2026-04-04T09:35:04Z</time></trkpt><trkpt lat="40.80992939004532" lon="15.70771661710099"><ele>581.0</ele><time>2026-04-04T09:35:06Z</time></trkpt><trkpt lat="40.809915569232814" lon="15.70780541426964"><ele>581.0</ele><time>2026-04-04T09:35:07Z</time></trkpt><trkpt lat="40.80992131826732" lon="15.707895719691903"><ele>581.0</ele><time>2026-04-04T09:35:08Z</time></trkpt><trkpt lat="40.80990973536715" lon="15.708025251525386"><ele>581.0</ele><time>2026-04-04T09:35:09Z</time></trkpt><trkpt lat="40.809947686300234" lon="15.70818528802998"><ele>581.0</ele><time>2026-04-04T09:35:10Z</time></trkpt><trkpt lat="40.8099474754701" lon="15.708375956522383"><ele>581.0</ele><time>2026-04-04T09:35:11Z</time></trkpt><trkpt lat="40.80999777333742" lon="15.708545970179769"><ele>580.8</ele><time>2026-04-04T09:35:12Z</time></trkpt><trkpt lat="40.810040979473946" lon="15.708684364525173"><ele>580.6</ele><time>2026-04-04T09:35:13Z</time></trkpt><trkpt lat="40.81008085371929" lon="15.708790904870174"><ele>580.4</ele><time>2026-04-04T09:35:14Z</time></trkpt><trkpt lat="40.81012854784107" lon="15.708900945640885"><ele>580.2</ele><time>2026-04-04T09:35:15Z</time></trkpt><trkpt lat="40.81019933684464" lon="15.709016816047734"><ele>580.0</ele><time>2026-04-04T09:35:16Z</time></trkpt><trkpt lat="40.81030882333087" lon="15.709162652726908"><ele>580.0</ele><time>2026-04-04T09:35:17Z</time></trkpt><trkpt lat="40.81040126334715" lon="15.709310470706493"><ele>580.0</ele><time>2026-04-04T09:35:18Z</time></trkpt><trkpt lat="40.81049338767374" lon="15.70947619060897"><ele>580.0</ele><time>2026-04-04T09:35:19Z</time></trkpt><trkpt lat="40.81058425234144" lon="15.709619291713135"><ele>580.0</ele><time>2026-04-04T09:35:20Z</time></trkpt><trkpt lat="40.81066332321243" lon="15.709731490582495"><ele>580.6666666666667</ele><time>2026-04-04T09:35:21Z</time></trkpt><trkpt lat="40.81074413381476" lon="15.709821074548328"><ele>581.3333333333334</ele><time>2026-04-04T09:35:22Z</time></trkpt><trkpt lat="40.81081388097254" lon="15.709883203395563"><ele>582.0</ele><time>2026-04-04T09:35:23Z</time></trkpt><trkpt lat="40.81088648706418" lon="15.709969807867074"><ele>582.6666666666666</ele><time>2026-04-04T09:35:25Z</time></trkpt><trkpt lat="40.81096052646266" lon="15.71002886716656"><ele>583.3333333333333</ele><time>2026-04-04T09:35:27Z</time></trkpt><trkpt lat="40.811003091005155" lon="15.710100694226872"><ele>584.0</ele><time>2026-04-04T09:35:28Z</time></trkpt><trkpt lat="40.81107303422837" lon="15.710202684342908"><ele>585.75</ele><time>2026-04-04T09:35:29Z</time></trkpt><trkpt lat="40.81114372975992" lon="15.71033530642677"><ele>587.5</ele><time>2026-04-04T09:35:30Z</time></trkpt><trkpt lat="40.811218706576646" lon="15.710495074094247"><ele>589.25</ele><time>2026-04-04T09:35:31Z</time></trkpt><trkpt lat="40.81128986776984" lon="15.710616147980234"><ele>591.0</ele><time>2026-04-04T09:35:32Z</time></trkpt><trkpt lat="40.81135330247848" lon="15.710731334549546"><ele>591.0</ele><time>2026-04-04T09:35:33Z</time></trkpt><trkpt lat="40.81140715870149" lon="15.710850941190216"><ele>591.0</ele><time>2026-04-04T09:35:34Z</time></trkpt><trkpt lat="40.81148580673709" lon="15.710976563318892"><ele>591.0</ele><time>2026-04-04T09:35:35Z</time></trkpt><trkpt lat="40.81158822820955" lon="15.711085464975476"><ele>591.0</ele><time>2026-04-04T09:35:36Z</time></trkpt><trkpt lat="40.81170012029575" lon="15.711174834005526"><ele>592.25</ele><time>2026-04-04T09:35:37Z</time></trkpt><trkpt lat="40.811818175454945" lon="15.71123598685695"><ele>593.5</ele><time>2026-04-04T09:35:38Z</time></trkpt><trkpt lat="40.81193111533289" lon="15.711283801239123"><ele>594.75</ele><time>2026-04-04T09:35:39Z</time></trkpt><trkpt lat="40.812039893812596" lon="15.711337438445035"><ele>596.0</ele><time>2026-04-04T09:35:40Z</time></trkpt><trkpt lat="40.812138678184944" lon="15.711400866253298"><ele>596.0</ele><time>2026-04-04T09:35:41Z</time></trkpt><trkpt lat="40.81223791305041" lon="15.711462052621155"><ele>596.0</ele><time>2026-04-04T09:35:42Z</time></trkpt><trkpt lat="40.8123366709338" lon="15.71152618017263"><ele>596.0</ele><time>2026-04-04T09:35:43Z</time></trkpt><trkpt lat="40.81244097667731" lon="15.711598241527287"><ele>596.0</ele><time>2026-04-04T09:35:44Z</time></trkpt><trkpt lat="40.812542737369476" lon="15.711673922885254"><ele>596.0</ele><time>2026-04-04T09:35:45Z</time></trkpt><trkpt lat="40.81264201505697" lon="15.71176851262389"><ele>596.0</ele><time>2026-04-04T09:35:46Z</time></trkpt><trkpt lat="40.81274739961345" lon="15.7118924601918"><ele>596.0</ele><time>2026-04-04T09:35:47Z</time></trkpt><trkpt lat="40.81285130629064" lon="15.712049818048584"><ele>596.0</ele><time>2026-04-04T09:35:48Z</time></trkpt><trkpt lat="40.81296151893431" lon="15.712231491564713"><ele>595.3333333333333</ele><time>2026-04-04T09:35:49Z</time></trkpt><trkpt lat="40.813071166018624" lon="15.712433980868035"><ele>594.6666666666666</ele><time>2026-04-04T09:35:50Z</time></trkpt><trkpt lat="40.81316936004872" lon="15.712649075961973"><ele>594.0</ele><time>2026-04-04T09:35:51Z</time></trkpt><trkpt lat="40.813246901485" lon="15.712846532888184"><ele>595.5</ele><time>2026-04-04T09:35:52Z</time></trkpt><trkpt lat="40.81331286009103" lon="15.713036017578762"><ele>597.0</ele><time>2026-04-04T09:35:53Z</time></trkpt><trkpt lat="40.81335204606346" lon="15.713211152589812"><ele>598.5</ele><time>2026-04-04T09:35:54Z</time></trkpt><trkpt lat="40.81337843571056" lon="15.713381374987467"><ele>600.0</ele><time>2026-04-04T09:35:55Z</time></trkpt><trkpt lat="40.81341311774951" lon="15.713533894127954"><ele>600.2</ele><time>2026-04-04T09:35:56Z</time></trkpt><trkpt lat="40.81341012531791" lon="15.71368266727217"><ele>600.4</ele><time>2026-04-04T09:35:57Z</time></trkpt><trkpt lat="40.81339781405932" lon="15.71381899700723"><ele>600.6</ele><time>2026-04-04T09:35:58Z</time></trkpt><trkpt lat="40.813377030719124" lon="15.71394457069607"><ele>600.8</ele><time>2026-04-04T09:35:59Z</time></trkpt><trkpt lat="40.813318543259406" lon="15.71404997381523"><ele>601.0</ele><time>2026-04-04T09:36:00Z</time></trkpt><trkpt lat="40.81327778084634" lon="15.714178781631922"><ele>601.0</ele><time>2026-04-04T09:36:01Z</time></trkpt><trkpt lat="40.813211525879126" lon="15.714333768067302"><ele>601.0</ele><time>2026-04-04T09:36:02Z</time></trkpt><trkpt lat="40.813135063104156" lon="15.714479540440077"><ele>601.0</ele><time>2026-04-04T09:36:03Z</time></trkpt><trkpt lat="40.813058247383466" lon="15.714595426790742"><ele>601.0</ele><time>2026-04-04T09:36:04Z</time></trkpt><trkpt lat="40.81297706526607" lon="15.714703624371795"><ele>601.5</ele><time>2026-04-04T09:36:05Z</time></trkpt><trkpt lat="40.81289303238608" lon="15.714810146939293"><ele>602.0</ele><time>2026-04-04T09:36:06Z</time></trkpt><trkpt lat="40.81279354320229" lon="15.71491805001823"><ele>602.5</ele><time>2026-04-04T09:36:07Z</time></trkpt><trkpt lat="40.812685807449775" lon="15.715051622160475"><ele>603.0</ele><time>2026-04-04T09:36:08Z</time></trkpt><trkpt lat="40.81258219174153" lon="15.715189091245273"><ele>600.75</ele><time>2026-04-04T09:36:09Z</time></trkpt><trkpt lat="40.812495504076495" lon="15.715309922964977"><ele>598.5</ele><time>2026-04-04T09:36:10Z</time></trkpt><trkpt lat="40.812414755860736" lon="15.715425787613585"><ele>596.25</ele><time>2026-04-04T09:36:11Z</time></trkpt><trkpt lat="40.81234300236421" lon="15.715537893233535"><ele>594.0</ele><time>2026-04-04T09:36:12Z</time></trkpt><trkpt lat="40.8122808193221" lon="15.715645580776968"><ele>594.0</ele><time>2026-04-04T09:36:13Z</time></trkpt><trkpt lat="40.81222553217892" lon="15.71576614306442"><ele>594.0</ele><time>2026-04-04T09:36:14Z</time></trkpt><trkpt lat="40.812173847531255" lon="15.715920725395641"><ele>594.0</ele><time>2026-04-04T09:36:15Z</time></trkpt><trkpt lat="40.81211818312877" lon="15.716099305437629"><ele>594.0</ele><time>2026-04-04T09:36:16Z</time></trkpt><trkpt lat="40.81206944168943" lon="15.71626582388438"><ele>591.75</ele><time>2026-04-04T09:36:17Z</time></trkpt><trkpt lat="40.81202314635971" lon="15.716424283943859"><ele>589.5</ele><time>2026-04-04T09:36:18Z</time></trkpt><trkpt lat="40.81199245415027" lon="15.716571864616222"><ele>587.25</ele><time>2026-04-04T09:36:19Z</time></trkpt><trkpt lat="40.81195257270237" lon="15.716699801271577"><ele>585.0</ele><time>2026-04-04T09:36:20Z</time></trkpt><trkpt lat="40.811924660203125" lon="15.7168313928791"><ele>583.5</ele><time>2026-04-04T09:36:21Z</time></trkpt><trkpt lat="40.81189113691072" lon="15.716967836667157"><ele>582.0</ele><time>2026-04-04T09:36:22Z</time></trkpt><trkpt lat="40.81187672681862" lon="15.717130629562265"><ele>580.5</ele><time>2026-04-04T09:36:23Z</time></trkpt><trkpt lat="40.81184540848901" lon="15.717286155775698"><ele>579.0</ele><time>2026-04-04T09:36:24Z</time></trkpt><trkpt lat="40.81181773301913" lon="15.717434154107936"><ele>579.8</ele><time>2026-04-04T09:36:25Z</time></trkpt><trkpt lat="40.81179794697729" lon="15.717578404752762"><ele>580.5999999999999</ele><time>2026-04-04T09:36:26Z</time></trkpt><trkpt lat="40.81175474090849" lon="15.717700559890595"><ele>581.4</ele><time>2026-04-04T09:36:27Z</time></trkpt><trkpt lat="40.81171754583796" lon="15.717818690483574"><ele>582.1999999999999</ele><time>2026-04-04T09:36:28Z</time></trkpt><trkpt lat="40.81166988157047" lon="15.71792142249333"><ele>583.0</ele><time>2026-04-04T09:36:29Z</time></trkpt><trkpt lat="40.811616441594644" lon="15.718012217917149"><ele>583.0</ele><time>2026-04-04T09:36:30Z</time></trkpt><trkpt lat="40.811556751278005" lon="15.718094663161597"><ele>583.0</ele><time>2026-04-04T09:36:31Z</time></trkpt><trkpt lat="40.81149651102417" lon="15.718172173377727"><ele>583.0</ele><time>2026-04-04T09:36:32Z</time></trkpt><trkpt lat="40.81143994598992" lon="15.718240192288505"><ele>583.0</ele><time>2026-04-04T09:36:33Z</time></trkpt><trkpt lat="40.81138067061592" lon="15.718307152944409"><ele>583.0</ele><time>2026-04-04T09:36:34Z</time></trkpt><trkpt lat="40.81133849108012" lon="15.71839474453985"><ele>583.0</ele><time>2026-04-04T09:36:35Z</time></trkpt><trkpt lat="40.81128759841079" lon="15.718449599543769"><ele>583.0000000000001</ele><time>2026-04-04T09:36:36Z</time></trkpt><trkpt lat="40.81123149254611" lon="15.71849768358222"><ele>583.0</ele><time>2026-04-04T09:36:38Z</time></trkpt><trkpt lat="40.81119277783414" lon="15.718588187637637"><ele>583.0</ele><time>2026-04-04T09:37:32Z</time></trkpt><trkpt lat="40.81114132165528" lon="15.718638172666774"><ele>583.0</ele><time>2026-04-04T09:37:34Z</time></trkpt><trkpt lat="40.811061116403735" lon="15.718638420282183"><ele>583.0</ele><time>2026-04-04T09:37:37Z</time></trkpt><trkpt lat="40.810992676058845" lon="15.718680558186023"><ele>583.0000000000001</ele><time>2026-04-04T09:37:41Z</time></trkpt><trkpt lat="40.81092434554975" lon="15.7187055989472"><ele>583.0</ele><time>2026-04-04T09:37:44Z</time></trkpt><trkpt lat="40.81093669434346" lon="15.718787979217327"><ele>581.3333333333334</ele><time>2026-04-04T09:37:47Z</time></trkpt><trkpt lat="40.81102971674329" lon="15.718762040227972"><ele>579.6666666666667</ele><time>2026-04-04T09:37:49Z</time></trkpt><trkpt lat="40.811102609199146" lon="15.718735908107345"><ele>578.0</ele><time>2026-04-04T09:37:51Z</time></trkpt><trkpt lat="40.81116237249968" lon="15.718784509237194"><ele>576.3333333333334</ele><time>2026-04-04T09:37:54Z</time></trkpt><trkpt lat="40.8111748622035" lon="15.718891284386533"><ele>574.6666666666666</ele><time>2026-04-04T09:37:56Z</time></trkpt><trkpt lat="40.81113351209449" lon="15.719000424005579"><ele>573.0</ele><time>2026-04-04T09:37:58Z</time></trkpt><trkpt lat="40.81108638024775" lon="15.719132867533672"><ele>573.0</ele><time>2026-04-04T09:38:00Z</time></trkpt><trkpt lat="40.81104763423992" lon="15.719262772008577"><ele>573.0</ele><time>2026-04-04T09:38:02Z</time></trkpt><trkpt lat="40.81105265453294" lon="15.719409824071683"><ele>573.0</ele><time>2026-04-04T09:38:04Z</time></trkpt><trkpt lat="40.81108143866185" lon="15.719497085436767"><ele>573.0</ele><time>2026-04-04T09:38:05Z</time></trkpt><trkpt lat="40.81116711022179" lon="15.719555610609065"><ele>573.0</ele><time>2026-04-04T09:38:06Z</time></trkpt><trkpt lat="40.81124400525682" lon="15.719564454042665"><ele>573.0</ele><time>2026-04-04T09:38:07Z</time></trkpt><trkpt lat="40.81130699040696" lon="15.719546025411194"><ele>573.0</ele><time>2026-04-04T09:38:08Z</time></trkpt><trkpt lat="40.81138228727841" lon="15.71953875936048"><ele>573.0</ele><time>2026-04-04T09:38:09Z</time></trkpt><trkpt lat="40.81147453589632" lon="15.71951547620756"><ele>573.0</ele><time>2026-04-04T09:38:10Z</time></trkpt><trkpt lat="40.811589273830634" lon="15.719443291297532"><ele>573.0</ele><time>2026-04-04T09:38:11Z</time></trkpt><trkpt lat="40.81169550726794" lon="15.719392820508071"><ele>573.0</ele><time>2026-04-04T09:38:12Z</time></trkpt><trkpt lat="40.8117918260379" lon="15.71935723155396"><ele>573.0</ele><time>2026-04-04T09:38:13Z</time></trkpt><trkpt lat="40.81188878492551" lon="15.719326933102463"><ele>573.0</ele><time>2026-04-04T09:38:14Z</time></trkpt><trkpt lat="40.811990676328605" lon="15.71929610780583"><ele>573.0</ele><time>2026-04-04T09:38:15Z</time></trkpt><trkpt lat="40.81208244609764" lon="15.719255307083714"><ele>573.0</ele><time>2026-04-04T09:38:16Z</time></trkpt><trkpt lat="40.812173510536326" lon="15.719232593284156"><ele>571.5</ele><time>2026-04-04T09:38:17Z</time></trkpt><trkpt lat="40.812262614069006" lon="15.71920997226571"><ele>570.0</ele><time>2026-04-04T09:38:18Z</time></trkpt><trkpt lat="40.81235276685147" lon="15.719212391480239"><ele>568.5</ele><time>2026-04-04T09:38:19Z</time></trkpt><trkpt lat="40.81244181780651" lon="15.719212427608625"><ele>567.0</ele><time>2026-04-04T09:38:20Z</time></trkpt><trkpt lat="40.81252347323448" lon="15.719237646236607"><ele>565.5</ele><time>2026-04-04T09:38:21Z</time></trkpt><trkpt lat="40.8126020759671" lon="15.719273079866065"><ele>564.0</ele><time>2026-04-04T09:38:22Z</time></trkpt><trkpt lat="40.81267265956779" lon="15.719308415189893"><ele>563.5</ele><time>2026-04-04T09:38:23Z</time></trkpt><trkpt lat="40.81273716680109" lon="15.719358806766019"><ele>563.0</ele><time>2026-04-04T09:38:24Z</time></trkpt><trkpt lat="40.812809897555276" lon="15.719410814503924"><ele>562.5</ele><time>2026-04-04T09:38:25Z</time></trkpt><trkpt lat="40.81290152592553" lon="15.719464076976484"><ele>562.0</ele><time>2026-04-04T09:38:26Z</time></trkpt><trkpt lat="40.81297965509627" lon="15.719518453487591"><ele>561.5</ele><time>2026-04-04T09:38:27Z</time></trkpt><trkpt lat="40.81304843049481" lon="15.719563250300201"><ele>561.0</ele><time>2026-04-04T09:38:28Z</time></trkpt><trkpt lat="40.81312542236603" lon="15.719595682209098"><ele>562.8333333333334</ele><time>2026-04-04T09:38:29Z</time></trkpt><trkpt lat="40.813194943162394" lon="15.719613202166983"><ele>564.6666666666666</ele><time>2026-04-04T09:38:30Z</time></trkpt><trkpt lat="40.813264885949856" lon="15.719620793826975"><ele>566.5</ele><time>2026-04-04T09:38:31Z</time></trkpt><trkpt lat="40.81333441377303" lon="15.719631993584178"><ele>568.3333333333333</ele><time>2026-04-04T09:38:32Z</time></trkpt><trkpt lat="40.813409722666144" lon="15.719655061125197"><ele>570.1666666666666</ele><time>2026-04-04T09:38:33Z</time></trkpt><trkpt lat="40.81348725769091" lon="15.71973447581121"><ele>572.0</ele><time>2026-04-04T09:38:34Z</time></trkpt><trkpt lat="40.81357425190418" lon="15.719797947263578"><ele>572.8571428571428</ele><time>2026-04-04T09:38:35Z</time></trkpt><trkpt lat="40.81365422589084" lon="15.71982305853182"><ele>573.7142857142857</ele><time>2026-04-04T09:38:36Z</time></trkpt><trkpt lat="40.81372697510818" lon="15.719859412532097"><ele>574.5714285714286</ele><time>2026-04-04T09:38:37Z</time></trkpt><trkpt lat="40.81379212585999" lon="15.71988544685734"><ele>575.4285714285713</ele><time>2026-04-04T09:38:38Z</time></trkpt><trkpt lat="40.81385660326963" lon="15.719911569027493"><ele>576.2857142857142</ele><time>2026-04-04T09:38:39Z</time></trkpt><trkpt lat="40.81392965161298" lon="15.719932906629243"><ele>577.1428571428571</ele><time>2026-04-04T09:38:40Z</time></trkpt><trkpt lat="40.813998940098415" lon="15.71997352449706"><ele>578.0</ele><time>2026-04-04T09:38:41Z</time></trkpt><trkpt lat="40.81406256261594" lon="15.720020886454245"><ele>578.0</ele><time>2026-04-04T09:38:42Z</time></trkpt><trkpt lat="40.81411022180901" lon="15.720089697511465"><ele>578.0</ele><time>2026-04-04T09:38:43Z</time></trkpt><trkpt lat="40.814155788124715" lon="15.720168900954981"><ele>578.0</ele><time>2026-04-04T09:38:44Z</time></trkpt><trkpt lat="40.814200874164946" lon="15.720247380887058"><ele>578.0</ele><time>2026-04-04T09:38:45Z</time></trkpt><trkpt lat="40.81422704993598" lon="15.72033464610447"><ele>578.0</ele><time>2026-04-04T09:38:46Z</time></trkpt><trkpt lat="40.81430531297394" lon="15.720432129905019"><ele>578.0</ele><time>2026-04-04T09:38:48Z</time></trkpt><trkpt lat="40.81435864340555" lon="15.720497773260766"><ele>578.1666666666666</ele><time>2026-04-04T09:38:50Z</time></trkpt><trkpt lat="40.814417350286554" lon="15.720558078916028"><ele>578.3333333333333</ele><time>2026-04-04T09:38:53Z</time></trkpt><trkpt lat="40.814487724589846" lon="15.720596324785712"><ele>578.5</ele><time>2026-04-04T09:38:56Z</time></trkpt><trkpt lat="40.814549310149424" lon="15.7206830165178"><ele>578.6666666666666</ele><time>2026-04-04T09:38:59Z</time></trkpt><trkpt lat="40.81452372653942" lon="15.720820342578731"><ele>578.8333333333334</ele><time>2026-04-04T09:39:01Z</time></trkpt><trkpt lat="40.81451196972058" lon="15.720921263078612"><ele>579.0</ele><time>2026-04-04T09:39:02Z</time></trkpt><trkpt lat="40.81447835196557" lon="15.721074546333803"><ele>578.6</ele><time>2026-04-04T09:39:04Z</time></trkpt><trkpt lat="40.814421059354686" lon="15.721118010006247"><ele>578.2</ele><time>2026-04-04T09:39:05Z</time></trkpt><trkpt lat="40.81435543456443" lon="15.72123874991279"><ele>577.8000000000001</ele><time>2026-04-04T09:39:07Z</time></trkpt><trkpt lat="40.81429549765553" lon="15.721357311964741"><ele>577.4</ele><time>2026-04-04T09:39:09Z</time></trkpt><trkpt lat="40.814227561139916" lon="15.721479074568006"><ele>577.0</ele><time>2026-04-04T09:39:11Z</time></trkpt><trkpt lat="40.8141717111692" lon="15.721561514084929"><ele>578.5</ele><time>2026-04-04T09:39:12Z</time></trkpt><trkpt lat="40.814094423681546" lon="15.721650263065522"><ele>580.0</ele><time>2026-04-04T09:39:13Z</time></trkpt><trkpt lat="40.81403717027515" lon="15.721722002976728"><ele>581.5</ele><time>2026-04-04T09:39:14Z</time></trkpt><trkpt lat="40.81399173893134" lon="15.721783211223034"><ele>583.0</ele><time>2026-04-04T09:39:15Z</time></trkpt><trkpt lat="40.81393490355385" lon="15.721875742376572"><ele>584.5</ele><time>2026-04-04T09:39:17Z</time></trkpt><trkpt lat="40.813890656316396" lon="15.721949316858371"><ele>586.0</ele><time>2026-04-04T09:39:19Z</time></trkpt><trkpt lat="40.81383998820524" lon="15.722031803494312"><ele>586.2857142857142</ele><time>2026-04-04T09:39:21Z</time></trkpt><trkpt lat="40.81377752193894" lon="15.722130121300944"><ele>586.5714285714286</ele><time>2026-04-04T09:39:23Z</time></trkpt><trkpt lat="40.813734587023575" lon="15.72219507581138"><ele>586.8571428571429</ele><time>2026-04-04T09:39:24Z</time></trkpt><trkpt lat="40.81368675173935" lon="15.722262415628965"><ele>587.1428571428571</ele><time>2026-04-04T09:39:25Z</time></trkpt><trkpt lat="40.813636084705614" lon="15.72232862395188"><ele>587.4285714285714</ele><time>2026-04-04T09:39:26Z</time></trkpt><trkpt lat="40.813583073828156" lon="15.72239242573369"><ele>587.7142857142857</ele><time>2026-04-04T09:39:27Z</time></trkpt><trkpt lat="40.813526165479594" lon="15.722455126445418"><ele>588.0</ele><time>2026-04-04T09:39:28Z</time></trkpt><trkpt lat="40.81347358189484" lon="15.722508860776605"><ele>589.6</ele><time>2026-04-04T09:39:29Z</time></trkpt><trkpt lat="40.81338334394744" lon="15.72260197513362"><ele>591.1999999999999</ele><time>2026-04-04T09:39:31Z</time></trkpt><trkpt lat="40.813298655323315" lon="15.72269128527504"><ele>592.8</ele><time>2026-04-04T09:39:33Z</time></trkpt><trkpt lat="40.81321318915274" lon="15.722783222912934"><ele>594.4</ele><time>2026-04-04T09:39:35Z</time></trkpt><trkpt lat="40.813158658182694" lon="15.722842920349743"><ele>596.0</ele><time>2026-04-04T09:39:36Z</time></trkpt><trkpt lat="40.81310148371455" lon="15.722907052311472"><ele>596.8333333333333</ele><time>2026-04-04T09:39:37Z</time></trkpt><trkpt lat="40.81304481870219" lon="15.722970613060877"><ele>597.6666666666666</ele><time>2026-04-04T09:39:38Z</time></trkpt><trkpt lat="40.812994053912284" lon="15.723025324144908"><ele>598.5</ele><time>2026-04-04T09:39:39Z</time></trkpt><trkpt lat="40.81290499527374" lon="15.723114882390306"><ele>599.3333333333334</ele><time>2026-04-04T09:39:41Z</time></trkpt><trkpt lat="40.81282800127459" lon="15.72318922134098"><ele>600.1666666666667</ele><time>2026-04-04T09:39:43Z</time></trkpt><trkpt lat="40.81275136161226" lon="15.723256865650743"><ele>601.0</ele><time>2026-04-04T09:39:45Z</time></trkpt><trkpt lat="40.812685666218485" lon="15.723308159519041"><ele>602.8</ele><time>2026-04-04T09:39:48Z</time></trkpt><trkpt lat="40.812619911142406" lon="15.723343647462032"><ele>604.6</ele><time>2026-04-04T09:39:50Z</time></trkpt><trkpt lat="40.81256191216966" lon="15.723376372442395"><ele>606.4</ele><time>2026-04-04T09:39:52Z</time></trkpt><trkpt lat="40.812482066952036" lon="15.723421164306009"><ele>608.2</ele><time>2026-04-04T09:39:55Z</time></trkpt><trkpt lat="40.812514421663096" lon="15.723582745800941"><ele>610.0</ele><time>2026-04-04T09:39:56Z</time></trkpt><trkpt lat="40.812564340649644" lon="15.723701275671065"><ele>608.5</ele><time>2026-04-04T09:39:57Z</time></trkpt><trkpt lat="40.81261538776441" lon="15.72384480518264"><ele>607.0</ele><time>2026-04-04T09:39:58Z</time></trkpt><trkpt lat="40.812668385026164" lon="15.724008078343312"><ele>605.5</ele><time>2026-04-04T09:39:59Z</time></trkpt><trkpt lat="40.81272658234686" lon="15.724192873832635"><ele>604.0</ele><time>2026-04-04T09:40:00Z</time></trkpt><trkpt lat="40.8127718472924" lon="15.724392426687904"><ele>605.75</ele><time>2026-04-04T09:40:01Z</time></trkpt><trkpt lat="40.8128258250402" lon="15.72460020140135"><ele>607.5</ele><time>2026-04-04T09:40:02Z</time></trkpt><trkpt lat="40.812901015960115" lon="15.724757472984235"><ele>609.25</ele><time>2026-04-04T09:40:03Z</time></trkpt><trkpt lat="40.81297273378528" lon="15.724894793520251"><ele>611.0</ele><time>2026-04-04T09:40:04Z</time></trkpt><trkpt lat="40.81303851519526" lon="15.725043311496735"><ele>611.0</ele><time>2026-04-04T09:40:05Z</time></trkpt><trkpt lat="40.81307833914483" lon="15.725213059831908"><ele>611.0</ele><time>2026-04-04T09:40:06Z</time></trkpt><trkpt lat="40.81309552361967" lon="15.725380537482593"><ele>611.0</ele><time>2026-04-04T09:40:07Z</time></trkpt><trkpt lat="40.813104266522636" lon="15.725541294755319"><ele>611.0</ele><time>2026-04-04T09:40:08Z</time></trkpt><trkpt lat="40.813120892887035" lon="15.725701861842968"><ele>613.0</ele><time>2026-04-04T09:40:09Z</time></trkpt><trkpt lat="40.81315274176554" lon="15.725865583150282"><ele>615.0</ele><time>2026-04-04T09:40:10Z</time></trkpt><trkpt lat="40.81319913358489" lon="15.72602516395453"><ele>617.0</ele><time>2026-04-04T09:40:11Z</time></trkpt><trkpt lat="40.81326028290794" lon="15.726192393699606"><ele>619.0</ele><time>2026-04-04T09:40:12Z</time></trkpt><trkpt lat="40.813322740386496" lon="15.726346318050995"><ele>620.0</ele><time>2026-04-04T09:40:13Z</time></trkpt><trkpt lat="40.81336950242251" lon="15.726490902366965"><ele>621.0</ele><time>2026-04-04T09:40:14Z</time></trkpt><trkpt lat="40.81342421785188" lon="15.72663021656411"><ele>622.0</ele><time>2026-04-04T09:40:15Z</time></trkpt><trkpt lat="40.81348327554329" lon="15.726769440687404"><ele>623.0</ele><time>2026-04-04T09:40:16Z</time></trkpt><trkpt lat="40.81353460575223" lon="15.72690562781345"><ele>623.0</ele><time>2026-04-04T09:40:17Z</time></trkpt><trkpt lat="40.81357789843226" lon="15.727032697979094"><ele>623.0</ele><time>2026-04-04T09:40:18Z</time></trkpt><trkpt lat="40.81362094275482" lon="15.727162117401962"><ele>623.0</ele><time>2026-04-04T09:40:19Z</time></trkpt><trkpt lat="40.81367862794291" lon="15.727326662556425"><ele>623.0</ele><time>2026-04-04T09:40:20Z</time></trkpt><trkpt lat="40.81374559659011" lon="15.727510311051772"><ele>623.0</ele><time>2026-04-04T09:40:21Z</time></trkpt><trkpt lat="40.813808289433304" lon="15.727717284893584"><ele>623.0</ele><time>2026-04-04T09:40:22Z</time></trkpt><trkpt lat="40.813869066501724" lon="15.7279389893591"><ele>623.0</ele><time>2026-04-04T09:40:23Z</time></trkpt><trkpt lat="40.813946028847504" lon="15.728164474207446"><ele>625.0</ele><time>2026-04-04T09:40:24Z</time></trkpt><trkpt lat="40.81400556017751" lon="15.728408062597932"><ele>627.0</ele><time>2026-04-04T09:40:25Z</time></trkpt><trkpt lat="40.81407980721824" lon="15.728656705134068"><ele>629.0</ele><time>2026-04-04T09:40:26Z</time></trkpt><trkpt lat="40.81415173051785" lon="15.728896306212045"><ele>630.5</ele><time>2026-04-04T09:40:27Z</time></trkpt><trkpt lat="40.81421046409862" lon="15.729091760776306"><ele>632.0</ele><time>2026-04-04T09:40:28Z</time></trkpt><trkpt lat="40.81426314953013" lon="15.729260043721693"><ele>633.5</ele><time>2026-04-04T09:40:29Z</time></trkpt><trkpt lat="40.81425466957809" lon="15.72943686659114"><ele>635.0</ele><time>2026-04-04T09:40:30Z</time></trkpt><trkpt lat="40.814192705647656" lon="15.72960261769964"><ele>635.0</ele><time>2026-04-04T09:40:31Z</time></trkpt><trkpt lat="40.81410571006131" lon="15.729786227321943"><ele>635.0</ele><time>2026-04-04T09:40:32Z</time></trkpt><trkpt lat="40.814009049381454" lon="15.729979087179338"><ele>635.0</ele><time>2026-04-04T09:40:33Z</time></trkpt><trkpt lat="40.81390162165416" lon="15.730187593539128"><ele>634.0</ele><time>2026-04-04T09:40:34Z</time></trkpt><trkpt lat="40.813793379712784" lon="15.730407140127497"><ele>633.0</ele><time>2026-04-04T09:40:35Z</time></trkpt><trkpt lat="40.81369066475329" lon="15.73061567976377"><ele>632.0</ele><time>2026-04-04T09:40:36Z</time></trkpt><trkpt lat="40.81360586422551" lon="15.730780797138193"><ele>632.0</ele><time>2026-04-04T09:40:37Z</time></trkpt><trkpt lat="40.81353300484588" lon="15.730911828936756"><ele>632.0</ele><time>2026-04-04T09:40:38Z</time></trkpt><trkpt lat="40.8134647159983" lon="15.731016110298134"><ele>632.0</ele><time>2026-04-04T09:40:39Z</time></trkpt><trkpt lat="40.81339174103568" lon="15.731082102335552"><ele>632.0</ele><time>2026-04-04T09:40:40Z</time></trkpt><trkpt lat="40.81330285600212" lon="15.731120804671034"><ele>632.0</ele><time>2026-04-04T09:40:41Z</time></trkpt><trkpt lat="40.813193790235196" lon="15.73111633637192"><ele>634.2</ele><time>2026-04-04T09:40:42Z</time></trkpt><trkpt lat="40.8130808616464" lon="15.731082149817214"><ele>636.4000000000001</ele><time>2026-04-04T09:40:43Z</time></trkpt><trkpt lat="40.81297953736804" lon="15.731009523578756"><ele>638.5999999999999</ele><time>2026-04-04T09:40:44Z</time></trkpt><trkpt lat="40.812905545057326" lon="15.730917573035962"><ele>640.8</ele><time>2026-04-04T09:40:45Z</time></trkpt><trkpt lat="40.81285747080714" lon="15.730798305130284"><ele>643.0</ele><time>2026-04-04T09:40:46Z</time></trkpt><trkpt lat="40.812865327586564" lon="15.730641581982937"><ele>643.0</ele><time>2026-04-04T09:40:47Z</time></trkpt><trkpt lat="40.812883507434385" lon="15.730471056263987"><ele>643.0</ele><time>2026-04-04T09:40:48Z</time></trkpt><trkpt lat="40.81291783734057" lon="15.730282756211286"><ele>643.0</ele><time>2026-04-04T09:40:49Z</time></trkpt><trkpt lat="40.812956267771646" lon="15.730077166023978"><ele>643.0</ele><time>2026-04-04T09:40:50Z</time></trkpt><trkpt lat="40.812981779623435" lon="15.729852587032335"><ele>644.3333333333334</ele><time>2026-04-04T09:40:51Z</time></trkpt><trkpt lat="40.813005660428416" lon="15.729634195139482"><ele>645.6666666666666</ele><time>2026-04-04T09:40:52Z</time></trkpt><trkpt lat="40.813027137351696" lon="15.729420707905952"><ele>647.0</ele><time>2026-04-04T09:40:53Z</time></trkpt><trkpt lat="40.81303148341965" lon="15.72919612413987"><ele>647.0</ele><time>2026-04-04T09:40:54Z</time></trkpt><trkpt lat="40.81300908608601" lon="15.72897383454302"><ele>647.0</ele><time>2026-04-04T09:40:55Z</time></trkpt><trkpt lat="40.81295743031" lon="15.728761751861875"><ele>647.0</ele><time>2026-04-04T09:40:56Z</time></trkpt><trkpt lat="40.81287806111029" lon="15.728580729527664"><ele>645.0</ele><time>2026-04-04T09:40:57Z</time></trkpt><trkpt lat="40.81279151329039" lon="15.728411419134236"><ele>643.0</ele><time>2026-04-04T09:40:58Z</time></trkpt><trkpt lat="40.812698365797594" lon="15.728261656226943"><ele>641.0</ele><time>2026-04-04T09:40:59Z</time></trkpt><trkpt lat="40.81261496927674" lon="15.728113856584697"><ele>639.0</ele><time>2026-04-04T09:41:00Z</time></trkpt><trkpt lat="40.81254256765626" lon="15.727966987000249"><ele>643.25</ele><time>2026-04-04T09:41:01Z</time></trkpt><trkpt lat="40.81245977503433" lon="15.727829601719375"><ele>647.5</ele><time>2026-04-04T09:41:02Z</time></trkpt><trkpt lat="40.812399726686934" lon="15.72768959439283"><ele>651.75</ele><time>2026-04-04T09:41:03Z</time></trkpt><trkpt lat="40.81234384924121" lon="15.727556357925616"><ele>656.0</ele><time>2026-04-04T09:41:04Z</time></trkpt><trkpt lat="40.81230017226948" lon="15.727442496101272"><ele>656.0</ele><time>2026-04-04T09:41:05Z</time></trkpt><trkpt lat="40.81225541230031" lon="15.727333818907132"><ele>656.0</ele><time>2026-04-04T09:41:06Z</time></trkpt><trkpt lat="40.81221186288384" lon="15.727239929615292"><ele>656.0</ele><time>2026-04-04T09:41:07Z</time></trkpt><trkpt lat="40.81216205871023" lon="15.72716311026681"><ele>656.0</ele><time>2026-04-04T09:41:08Z</time></trkpt><trkpt lat="40.81211153258508" lon="15.72710403015945"><ele>656.0</ele><time>2026-04-04T09:41:09Z</time></trkpt><trkpt lat="40.812039918014605" lon="15.72704198882806"><ele>656.0</ele><time>2026-04-04T09:41:10Z</time></trkpt><trkpt lat="40.811974542339904" lon="15.726966721423228"><ele>656.0</ele><time>2026-04-04T09:41:11Z</time></trkpt><trkpt lat="40.81191773037189" lon="15.726927115331522"><ele>656.0</ele><time>2026-04-04T09:41:12Z</time></trkpt><trkpt lat="40.81181840783394" lon="15.726866536452821"><ele>656.0</ele><time>2026-04-04T09:41:14Z</time></trkpt><trkpt lat="40.81171127261078" lon="15.726810364850687"><ele>656.0</ele><time>2026-04-04T09:41:16Z</time></trkpt><trkpt lat="40.8115950932473" lon="15.726758386196204"><ele>656.0</ele><time>2026-04-04T09:41:18Z</time></trkpt><trkpt lat="40.81152038020027" lon="15.726731773000722"><ele>657.4</ele><time>2026-04-04T09:41:19Z</time></trkpt><trkpt lat="40.81143257305157" lon="15.726709232009702"><ele>658.8</ele><time>2026-04-04T09:41:20Z</time></trkpt><trkpt lat="40.811333669943586" lon="15.726699216272507"><ele>660.1999999999999</ele><time>2026-04-04T09:41:21Z</time></trkpt><trkpt lat="40.811217823381725" lon="15.72672503503004"><ele>661.5999999999999</ele><time>2026-04-04T09:41:22Z</time></trkpt><trkpt lat="40.811086242871454" lon="15.726798107938109"><ele>663.0</ele><time>2026-04-04T09:41:23Z</time></trkpt><trkpt lat="40.81096369415588" lon="15.726910533904698"><ele>670.0</ele><time>2026-04-04T09:41:24Z</time></trkpt><trkpt lat="40.81084358702472" lon="15.7270518963622"><ele>677.0</ele><time>2026-04-04T09:41:25Z</time></trkpt><trkpt lat="40.81072006538764" lon="15.727208062008357"><ele>684.0</ele><time>2026-04-04T09:41:26Z</time></trkpt><trkpt lat="40.8105863426153" lon="15.72735126491876"><ele>684.0</ele><time>2026-04-04T09:41:27Z</time></trkpt><trkpt lat="40.81043603810236" lon="15.727470292483865"><ele>684.0</ele><time>2026-04-04T09:41:28Z</time></trkpt><trkpt lat="40.81029686865926" lon="15.727563272356925"><ele>684.0</ele><time>2026-04-04T09:41:29Z</time></trkpt><trkpt lat="40.81014981276863" lon="15.72761040123722"><ele>683.0</ele><time>2026-04-04T09:41:30Z</time></trkpt><trkpt lat="40.80999576985419" lon="15.727599708116523"><ele>682.0</ele><time>2026-04-04T09:41:31Z</time></trkpt><trkpt lat="40.80982463700516" lon="15.7275563094999"><ele>681.0</ele><time>2026-04-04T09:41:32Z</time></trkpt><trkpt lat="40.80964579046651" lon="15.727489723698447"><ele>681.0</ele><time>2026-04-04T09:41:33Z</time></trkpt><trkpt lat="40.80946534631777" lon="15.72741966544014"><ele>681.0</ele><time>2026-04-04T09:41:34Z</time></trkpt><trkpt lat="40.80927929361099" lon="15.727345029036384"><ele>681.0</ele><time>2026-04-04T09:41:35Z</time></trkpt><trkpt lat="40.80908041191207" lon="15.727264505637022"><ele>682.3333333333334</ele><time>2026-04-04T09:41:36Z</time></trkpt><trkpt lat="40.80887567876736" lon="15.727185241411542"><ele>683.6666666666667</ele><time>2026-04-04T09:41:37Z</time></trkpt><trkpt lat="40.80866603184009" lon="15.727105485100328"><ele>685.0</ele><time>2026-04-04T09:41:38Z</time></trkpt><trkpt lat="40.80845817039688" lon="15.727026408066623"><ele>684.3333333333334</ele><time>2026-04-04T09:41:39Z</time></trkpt><trkpt lat="40.80824231742096" lon="15.726944290748115"><ele>683.6666666666666</ele><time>2026-04-04T09:41:40Z</time></trkpt><trkpt lat="40.80802656711119" lon="15.72686221256171"><ele>683.0</ele><time>2026-04-04T09:41:41Z</time></trkpt><trkpt lat="40.80780637414005" lon="15.726778444132265"><ele>688.0</ele><time>2026-04-04T09:41:42Z</time></trkpt><trkpt lat="40.807585850321054" lon="15.726694549949327"><ele>693.0</ele><time>2026-04-04T09:41:43Z</time></trkpt><trkpt lat="40.80736296321402" lon="15.726609809857472"><ele>693.0</ele><time>2026-04-04T09:41:44Z</time></trkpt><trkpt lat="40.80715142442705" lon="15.726529388395022"><ele>693.0</ele><time>2026-04-04T09:41:45Z</time></trkpt><trkpt lat="40.80695805989521" lon="15.726456713853967"><ele>693.0</ele><time>2026-04-04T09:41:46Z</time></trkpt><trkpt lat="40.806773255676006" lon="15.726388817308564"><ele>695.6666666666666</ele><time>2026-04-04T09:41:47Z</time></trkpt><trkpt lat="40.80660819029405" lon="15.72632307682516"><ele>698.3333333333333</ele><time>2026-04-04T09:41:48Z</time></trkpt><trkpt lat="40.806446546263174" lon="15.726242290844514"><ele>701.0</ele><time>2026-04-04T09:41:49Z</time></trkpt><trkpt lat="40.80629777389812" lon="15.726138983707443"><ele>697.6666666666666</ele><time>2026-04-04T09:41:50Z</time></trkpt><trkpt lat="40.80617238629932" lon="15.726002849939489"><ele>694.3333333333334</ele><time>2026-04-04T09:41:51Z</time></trkpt><trkpt lat="40.80608700883223" lon="15.7258106372981"><ele>691.0</ele><time>2026-04-04T09:41:52Z</time></trkpt><trkpt lat="40.80604355743553" lon="15.725580537421903"><ele>691.0</ele><time>2026-04-04T09:41:53Z</time></trkpt><trkpt lat="40.806003745029685" lon="15.7253343336206"><ele>691.0</ele><time>2026-04-04T09:41:54Z</time></trkpt><trkpt lat="40.80595703913984" lon="15.72508348372807"><ele>691.0</ele><time>2026-04-04T09:41:55Z</time></trkpt><trkpt lat="40.80590689149164" lon="15.724821188605887"><ele>695.6666666666667</ele><time>2026-04-04T09:41:56Z</time></trkpt><trkpt lat="40.80583734332084" lon="15.724560773685834"><ele>700.3333333333334</ele><time>2026-04-04T09:41:57Z</time></trkpt><trkpt lat="40.805750593187824" lon="15.724302946322023"><ele>705.0</ele><time>2026-04-04T09:41:58Z</time></trkpt><trkpt lat="40.80563739671391" lon="15.724064970612426"><ele>705.0</ele><time>2026-04-04T09:41:59Z</time></trkpt><trkpt lat="40.805541277502336" lon="15.72385932472988"><ele>705.0</ele><time>2026-04-04T09:42:00Z</time></trkpt><trkpt lat="40.805462859902114" lon="15.723660854414206"><ele>705.0</ele><time>2026-04-04T09:42:01Z</time></trkpt><trkpt lat="40.805419761609826" lon="15.723451950538164"><ele>703.6666666666666</ele><time>2026-04-04T09:42:02Z</time></trkpt><trkpt lat="40.80540995725762" lon="15.723221628035018"><ele>702.3333333333333</ele><time>2026-04-04T09:42:03Z</time></trkpt><trkpt lat="40.80543608060307" lon="15.722978702434478"><ele>701.0</ele><time>2026-04-04T09:42:04Z</time></trkpt><trkpt lat="40.80545690216726" lon="15.722722662902607"><ele>701.0</ele><time>2026-04-04T09:42:05Z</time></trkpt><trkpt lat="40.805476553789795" lon="15.722462881240055"><ele>701.0</ele><time>2026-04-04T09:42:06Z</time></trkpt><trkpt lat="40.80544264140714" lon="15.722220634382959"><ele>701.0</ele><time>2026-04-04T09:42:07Z</time></trkpt><trkpt lat="40.805389655533" lon="15.722003588051841"><ele>700.0</ele><time>2026-04-04T09:42:08Z</time></trkpt><trkpt lat="40.80534338492591" lon="15.721814694425921"><ele>699.0</ele><time>2026-04-04T09:42:09Z</time></trkpt><trkpt lat="40.80530246005788" lon="15.721668256684659"><ele>698.0</ele><time>2026-04-04T09:42:10Z</time></trkpt><trkpt lat="40.80523904541019" lon="15.721576139370475"><ele>697.0</ele><time>2026-04-04T09:42:11Z</time></trkpt><trkpt lat="40.805144730277505" lon="15.721550961910971"><ele>700.75</ele><time>2026-04-04T09:42:12Z</time></trkpt><trkpt lat="40.80503961541113" lon="15.72156678312531"><ele>704.5</ele><time>2026-04-04T09:42:13Z</time></trkpt><trkpt lat="40.80495402733129" lon="15.721674724901261"><ele>708.25</ele><time>2026-04-04T09:42:14Z</time></trkpt><trkpt lat="40.8049254682733" lon="15.721852250772177"><ele>712.0</ele><time>2026-04-04T09:42:15Z</time></trkpt><trkpt lat="40.804936777852056" lon="15.72204318593159"><ele>715.3333333333334</ele><time>2026-04-04T09:42:16Z</time></trkpt><trkpt lat="40.804922626273026" lon="15.722255228983643"><ele>718.6666666666666</ele><time>2026-04-04T09:42:17Z</time></trkpt><trkpt lat="40.804873214565134" lon="15.722453393191081"><ele>722.0</ele><time>2026-04-04T09:42:18Z</time></trkpt><trkpt lat="40.804783569429034" lon="15.722636473225034"><ele>724.0</ele><time>2026-04-04T09:42:19Z</time></trkpt><trkpt lat="40.804672588046124" lon="15.72282983021761"><ele>726.0</ele><time>2026-04-04T09:42:20Z</time></trkpt><trkpt lat="40.804550538347456" lon="15.723024271514408"><ele>728.0</ele><time>2026-04-04T09:42:21Z</time></trkpt><trkpt lat="40.804407564961025" lon="15.723191083984354"><ele>727.6666666666666</ele><time>2026-04-04T09:42:22Z</time></trkpt><trkpt lat="40.804241151079324" lon="15.723346010480627"><ele>727.3333333333334</ele><time>2026-04-04T09:42:23Z</time></trkpt><trkpt lat="40.804064158361534" lon="15.723505399112577"><ele>727.0</ele><time>2026-04-04T09:42:24Z</time></trkpt><trkpt lat="40.80389189794695" lon="15.723688058237562"><ele>729.3333333333334</ele><time>2026-04-04T09:42:25Z</time></trkpt><trkpt lat="40.803736963822914" lon="15.723903861959078"><ele>731.6666666666666</ele><time>2026-04-04T09:42:26Z</time></trkpt><trkpt lat="40.80356908034065" lon="15.724096465010756"><ele>734.0</ele><time>2026-04-04T09:42:27Z</time></trkpt><trkpt lat="40.8033876930184" lon="15.724267858144493"><ele>738.0</ele><time>2026-04-04T09:42:28Z</time></trkpt><trkpt lat="40.80322675947965" lon="15.724414258480103"><ele>742.0</ele><time>2026-04-04T09:42:29Z</time></trkpt><trkpt lat="40.803097321670265" lon="15.724541342628388"><ele>746.0</ele><time>2026-04-04T09:42:30Z</time></trkpt><trkpt lat="40.80300546101962" lon="15.724695093185906"><ele>746.0</ele><time>2026-04-04T09:42:31Z</time></trkpt><trkpt lat="40.80297384066424" lon="15.724878634712315"><ele>746.0</ele><time>2026-04-04T09:42:32Z</time></trkpt><trkpt lat="40.802974582821996" lon="15.725074466648866"><ele>746.0</ele><time>2026-04-04T09:42:33Z</time></trkpt><trkpt lat="40.8030148052077" lon="15.725287801777434"><ele>744.0</ele><time>2026-04-04T09:42:34Z</time></trkpt><trkpt lat="40.80307861871109" lon="15.725507429043077"><ele>742.0</ele><time>2026-04-04T09:42:35Z</time></trkpt><trkpt lat="40.803154469616494" lon="15.725737588146075"><ele>740.0</ele><time>2026-04-04T09:42:36Z</time></trkpt><trkpt lat="40.80322566206709" lon="15.725975947368012"><ele>740.3333333333333</ele><time>2026-04-04T09:42:37Z</time></trkpt><trkpt lat="40.803306114112075" lon="15.726215500027962"><ele>740.6666666666666</ele><time>2026-04-04T09:42:38Z</time></trkpt><trkpt lat="40.80333882758807" lon="15.7264789314153"><ele>741.0</ele><time>2026-04-04T09:42:39Z</time></trkpt><trkpt lat="40.80333004267719" lon="15.726733079335503"><ele>742.3333333333334</ele><time>2026-04-04T09:42:40Z</time></trkpt><trkpt lat="40.803266025610334" lon="15.72698961265022"><ele>743.6666666666667</ele><time>2026-04-04T09:42:41Z</time></trkpt><trkpt lat="40.80318548418157" lon="15.727251334087137"><ele>745.0</ele><time>2026-04-04T09:42:42Z</time></trkpt><trkpt lat="40.80309633803922" lon="15.727517137246538"><ele>745.6666666666667</ele><time>2026-04-04T09:42:43Z</time></trkpt><trkpt lat="40.802990634590934" lon="15.727767459802571"><ele>746.3333333333334</ele><time>2026-04-04T09:42:44Z</time></trkpt><trkpt lat="40.80285777646299" lon="15.72799510562117"><ele>747.0</ele><time>2026-04-04T09:42:45Z</time></trkpt><trkpt lat="40.802682286816726" lon="15.728167065508186"><ele>748.0</ele><time>2026-04-04T09:42:46Z</time></trkpt><trkpt lat="40.80247934593567" lon="15.728273653485125"><ele>749.0</ele><time>2026-04-04T09:42:47Z</time></trkpt><trkpt lat="40.80226338977896" lon="15.728382676265237"><ele>749.0</ele><time>2026-04-04T09:42:48Z</time></trkpt><trkpt lat="40.8020505206939" lon="15.728490140431589"><ele>749.0</ele><time>2026-04-04T09:42:49Z</time></trkpt><trkpt lat="40.80186027694659" lon="15.72858301809847"><ele>749.0</ele><time>2026-04-04T09:42:50Z</time></trkpt><trkpt lat="40.80170861081689" lon="15.72865655967687"><ele>750.4000000000001</ele><time>2026-04-04T09:42:51Z</time></trkpt><trkpt lat="40.80159287999765" lon="15.728727996833804"><ele>751.8</ele><time>2026-04-04T09:42:52Z</time></trkpt><trkpt lat="40.80150916160723" lon="15.728809970715863"><ele>753.2</ele><time>2026-04-04T09:42:53Z</time></trkpt><trkpt lat="40.801463002017506" lon="15.728918707535753"><ele>754.5999999999999</ele><time>2026-04-04T09:42:54Z</time></trkpt><trkpt lat="40.80144138266923" lon="15.729030246672119"><ele>756.0</ele><time>2026-04-04T09:42:55Z</time></trkpt><trkpt lat="40.80147932672596" lon="15.729142515135242"><ele>756.0</ele><time>2026-04-04T09:42:56Z</time></trkpt><trkpt lat="40.80157268743803" lon="15.729239539192127"><ele>756.0</ele><time>2026-04-04T09:42:57Z</time></trkpt><trkpt lat="40.801699798468086" lon="15.729300219817691"><ele>756.0</ele><time>2026-04-04T09:42:58Z</time></trkpt><trkpt lat="40.801835131072586" lon="15.729368350102348"><ele>756.0</ele><time>2026-04-04T09:42:59Z</time></trkpt><trkpt lat="40.801976318031855" lon="15.729448360015404"><ele>758.0</ele><time>2026-04-04T09:43:00Z</time></trkpt><trkpt lat="40.80212907264505" lon="15.72953240080557"><ele>760.0</ele><time>2026-04-04T09:43:01Z</time></trkpt><trkpt lat="40.80227992529743" lon="15.72964736098129"><ele>762.0</ele><time>2026-04-04T09:43:02Z</time></trkpt><trkpt lat="40.802413517392445" lon="15.729811549897022"><ele>762.0</ele><time>2026-04-04T09:43:03Z</time></trkpt><trkpt lat="40.802535229161016" lon="15.730010092804607"><ele>762.0</ele><time>2026-04-04T09:43:04Z</time></trkpt><trkpt lat="40.80265017308807" lon="15.73022625727131"><ele>762.0</ele><time>2026-04-04T09:43:05Z</time></trkpt><trkpt lat="40.80276591954521" lon="15.73043897468918"><ele>762.3333333333334</ele><time>2026-04-04T09:43:06Z</time></trkpt><trkpt lat="40.802875030694665" lon="15.730640691910041"><ele>762.6666666666667</ele><time>2026-04-04T09:43:07Z</time></trkpt><trkpt lat="40.80297644887479" lon="15.73084136685002"><ele>763.0</ele><time>2026-04-04T09:43:08Z</time></trkpt><trkpt lat="40.80307635720286" lon="15.731038425153855"><ele>765.3333333333334</ele><time>2026-04-04T09:43:09Z</time></trkpt><trkpt lat="40.803175390154145" lon="15.731226757846036"><ele>767.6666666666667</ele><time>2026-04-04T09:43:10Z</time></trkpt><trkpt lat="40.803277557375914" lon="15.731405716774297"><ele>770.0</ele><time>2026-04-04T09:43:11Z</time></trkpt><trkpt lat="40.80337768306799" lon="15.731583936045945"><ele>770.0</ele><time>2026-04-04T09:43:12Z</time></trkpt><trkpt lat="40.80347586924508" lon="15.73176361251613"><ele>770.0</ele><time>2026-04-04T09:43:13Z</time></trkpt><trkpt lat="40.803571801356874" lon="15.731940327152154"><ele>770.0</ele><time>2026-04-04T09:43:14Z</time></trkpt><trkpt lat="40.803671143639725" lon="15.732101400723527"><ele>770.5</ele><time>2026-04-04T09:43:15Z</time></trkpt><trkpt lat="40.80374090282888" lon="15.732270646374992"><ele>771.0</ele><time>2026-04-04T09:43:16Z</time></trkpt><trkpt lat="40.803786074245856" lon="15.732427553822097"><ele>771.5</ele><time>2026-04-04T09:43:17Z</time></trkpt><trkpt lat="40.803803651242454" lon="15.732581350715071"><ele>772.0</ele><time>2026-04-04T09:43:18Z</time></trkpt><trkpt lat="40.803802423699395" lon="15.732725112900257"><ele>772.1666666666666</ele><time>2026-04-04T09:43:19Z</time></trkpt><trkpt lat="40.80378388063493" lon="15.732852900836825"><ele>772.3333333333333</ele><time>2026-04-04T09:43:20Z</time></trkpt><trkpt lat="40.803754620101934" lon="15.732973210613467"><ele>772.5</ele><time>2026-04-04T09:43:21Z</time></trkpt><trkpt lat="40.80371653345767" lon="15.733070819733001"><ele>772.6666666666667</ele><time>2026-04-04T09:43:22Z</time></trkpt><trkpt lat="40.803667572664985" lon="15.733149490264177"><ele>772.8333333333334</ele><time>2026-04-04T09:43:23Z</time></trkpt><trkpt lat="40.80360216709853" lon="15.733228982395147"><ele>773.0</ele><time>2026-04-04T09:43:24Z</time></trkpt><trkpt lat="40.80352278241149" lon="15.733286960612872"><ele>773.0</ele><time>2026-04-04T09:43:25Z</time></trkpt><trkpt lat="40.80342429061851" lon="15.73335202238143"><ele>773.0</ele><time>2026-04-04T09:43:26Z</time></trkpt><trkpt lat="40.803296903187984" lon="15.733425912755777"><ele>773.0</ele><time>2026-04-04T09:43:27Z</time></trkpt><trkpt lat="40.8031609175863" lon="15.733498801217335"><ele>773.0</ele><time>2026-04-04T09:43:28Z</time></trkpt><trkpt lat="40.80303213971251" lon="15.733566556977227"><ele>772.25</ele><time>2026-04-04T09:43:29Z</time></trkpt><trkpt lat="40.80291185844864" lon="15.733628447735686"><ele>771.5</ele><time>2026-04-04T09:43:30Z</time></trkpt><trkpt lat="40.80279778749208" lon="15.733687666788846"><ele>770.75</ele><time>2026-04-04T09:43:31Z</time></trkpt><trkpt lat="40.80268486531764" lon="15.73374481398408"><ele>770.0</ele><time>2026-04-04T09:43:32Z</time></trkpt><trkpt lat="40.80257317207049" lon="15.733801443172098"><ele>770.0</ele><time>2026-04-04T09:43:33Z</time></trkpt><trkpt lat="40.802467287307024" lon="15.733854157909779"><ele>770.0</ele><time>2026-04-04T09:43:34Z</time></trkpt><trkpt lat="40.802356256579735" lon="15.73390940378273"><ele>770.0</ele><time>2026-04-04T09:43:35Z</time></trkpt><trkpt lat="40.80222017521844" lon="15.733978826271626"><ele>770.0</ele><time>2026-04-04T09:43:36Z</time></trkpt><trkpt lat="40.80206696963424" lon="15.734059330181974"><ele>770.0</ele><time>2026-04-04T09:43:37Z</time></trkpt><trkpt lat="40.801901133927245" lon="15.734148804717444"><ele>770.0</ele><time>2026-04-04T09:43:38Z</time></trkpt><trkpt lat="40.80172407062204" lon="15.734241928447847"><ele>770.0</ele><time>2026-04-04T09:43:39Z</time></trkpt><trkpt lat="40.80153692554712" lon="15.734340151180481"><ele>769.6666666666667</ele><time>2026-04-04T09:43:40Z</time></trkpt><trkpt lat="40.80133557409565" lon="15.734445637204832"><ele>769.3333333333333</ele><time>2026-04-04T09:43:41Z</time></trkpt><trkpt lat="40.801128434635544" lon="15.734553974021154"><ele>769.0</ele><time>2026-04-04T09:43:42Z</time></trkpt><trkpt lat="40.80091286043952" lon="15.734664538836597"><ele>769.0</ele><time>2026-04-04T09:43:43Z</time></trkpt><trkpt lat="40.80069011464681" lon="15.734778435052116"><ele>769.0</ele><time>2026-04-04T09:43:44Z</time></trkpt><trkpt lat="40.800461803419246" lon="15.734895176991115"><ele>769.0</ele><time>2026-04-04T09:43:45Z</time></trkpt><trkpt lat="40.800240087161846" lon="15.735009404143417"><ele>769.0</ele><time>2026-04-04T09:43:46Z</time></trkpt><trkpt lat="40.80003245232598" lon="15.735117026424918"><ele>769.3333333333333</ele><time>2026-04-04T09:43:47Z</time></trkpt><trkpt lat="40.799837858928804" lon="15.735216153726238"><ele>769.6666666666667</ele><time>2026-04-04T09:43:48Z</time></trkpt><trkpt lat="40.79966199383146" lon="15.735305862224363"><ele>770.0</ele><time>2026-04-04T09:43:49Z</time></trkpt><trkpt lat="40.79949383954995" lon="15.735399880334187"><ele>768.6666666666667</ele><time>2026-04-04T09:43:50Z</time></trkpt><trkpt lat="40.79933031860145" lon="15.735503493316456"><ele>767.3333333333334</ele><time>2026-04-04T09:43:51Z</time></trkpt><trkpt lat="40.7991747129017" lon="15.735661996414064"><ele>766.0</ele><time>2026-04-04T09:43:52Z</time></trkpt><trkpt lat="40.7990456152892" lon="15.735864916438164"><ele>764.6666666666667</ele><time>2026-04-04T09:43:53Z</time></trkpt><trkpt lat="40.79893527142827" lon="15.73609406756689"><ele>763.3333333333334</ele><time>2026-04-04T09:43:54Z</time></trkpt><trkpt lat="40.79885115990271" lon="15.736351084225092"><ele>762.0</ele><time>2026-04-04T09:43:55Z</time></trkpt><trkpt lat="40.79880833489162" lon="15.736622416040069"><ele>761.3333333333334</ele><time>2026-04-04T09:43:56Z</time></trkpt><trkpt lat="40.79875920924343" lon="15.736906579303277"><ele>760.6666666666667</ele><time>2026-04-04T09:43:57Z</time></trkpt><trkpt lat="40.79869200575846" lon="15.73718014281369"><ele>760.0</ele><time>2026-04-04T09:43:58Z</time></trkpt><trkpt lat="40.798631116130174" lon="15.737443949798239"><ele>760.0</ele><time>2026-04-04T09:43:59Z</time></trkpt><trkpt lat="40.79855071778053" lon="15.737685063425786"><ele>760.0</ele><time>2026-04-04T09:44:00Z</time></trkpt><trkpt lat="40.79845321370084" lon="15.737919512010208"><ele>760.0</ele><time>2026-04-04T09:44:01Z</time></trkpt><trkpt lat="40.798335544155016" lon="15.738125178373883"><ele>760.3333333333334</ele><time>2026-04-04T09:44:02Z</time></trkpt><trkpt lat="40.79819765648059" lon="15.738323046756886"><ele>760.6666666666666</ele><time>2026-04-04T09:44:03Z</time></trkpt><trkpt lat="40.79804259254466" lon="15.738522687215195"><ele>761.0</ele><time>2026-04-04T09:44:04Z</time></trkpt><trkpt lat="40.79787029799607" lon="15.738714395903566"><ele>762.5</ele><time>2026-04-04T09:44:05Z</time></trkpt><trkpt lat="40.79768561801935" lon="15.73890069833146"><ele>764.0</ele><time>2026-04-04T09:44:06Z</time></trkpt><trkpt lat="40.797491844748166" lon="15.739085026792097"><ele>764.0</ele><time>2026-04-04T09:44:07Z</time></trkpt><trkpt lat="40.797291104458544" lon="15.739255666134206"><ele>764.0</ele><time>2026-04-04T09:44:08Z</time></trkpt><trkpt lat="40.79709919656227" lon="15.739409004785639"><ele>762.6666666666666</ele><time>2026-04-04T09:44:09Z</time></trkpt><trkpt lat="40.79691559899419" lon="15.73955534119743"><ele>761.3333333333334</ele><time>2026-04-04T09:44:10Z</time></trkpt><trkpt lat="40.796769707551874" lon="15.739759002616065"><ele>760.0</ele><time>2026-04-04T09:44:11Z</time></trkpt><trkpt lat="40.796603787990016" lon="15.739880337734416"><ele>760.0</ele><time>2026-04-04T09:44:12Z</time></trkpt><trkpt lat="40.796458328704894" lon="15.739988969843216"><ele>760.0</ele><time>2026-04-04T09:44:13Z</time></trkpt><trkpt lat="40.79632515249016" lon="15.740082867608445"><ele>760.0</ele><time>2026-04-04T09:44:14Z</time></trkpt><trkpt lat="40.796194929315504" lon="15.740121590030869"><ele>760.0</ele><time>2026-04-04T09:44:15Z</time></trkpt><trkpt lat="40.7961042754964" lon="15.74021360363181"><ele>760.0</ele><time>2026-04-04T09:44:16Z</time></trkpt><trkpt lat="40.79603862922763" lon="15.740333012229245"><ele>760.0</ele><time>2026-04-04T09:44:17Z</time></trkpt><trkpt lat="40.79600810219006" lon="15.740496311464872"><ele>760.0</ele><time>2026-04-04T09:44:18Z</time></trkpt><trkpt lat="40.796042913582845" lon="15.740683989675244"><ele>758.6666666666667</ele><time>2026-04-04T09:44:19Z</time></trkpt><trkpt lat="40.796103695996145" lon="15.740875922419443"><ele>757.3333333333334</ele><time>2026-04-04T09:44:20Z</time></trkpt><trkpt lat="40.79617705775747" lon="15.74107604763122"><ele>756.0</ele><time>2026-04-04T09:44:21Z</time></trkpt><trkpt lat="40.79623314347525" lon="15.741298869112482"><ele>756.0</ele><time>2026-04-04T09:44:22Z</time></trkpt><trkpt lat="40.79625574574137" lon="15.74154874050865"><ele>756.0</ele><time>2026-04-04T09:44:23Z</time></trkpt><trkpt lat="40.79626948717092" lon="15.741809363840364"><ele>756.0</ele><time>2026-04-04T09:44:24Z</time></trkpt><trkpt lat="40.796255387307376" lon="15.742078844491914"><ele>755.6666666666666</ele><time>2026-04-04T09:44:25Z</time></trkpt><trkpt lat="40.79621789965827" lon="15.74234122410631"><ele>755.3333333333333</ele><time>2026-04-04T09:44:26Z</time></trkpt><trkpt lat="40.79617865542255" lon="15.742576250084857"><ele>755.0</ele><time>2026-04-04T09:44:27Z</time></trkpt><trkpt lat="40.79613554479549" lon="15.742788362125713"><ele>753.6666666666666</ele><time>2026-04-04T09:44:28Z</time></trkpt><trkpt lat="40.79606726392184" lon="15.742970380786417"><ele>752.3333333333334</ele><time>2026-04-04T09:44:29Z</time></trkpt><trkpt lat="40.79596251571098" lon="15.743116877116178"><ele>751.0</ele><time>2026-04-04T09:44:30Z</time></trkpt><trkpt lat="40.795822433327224" lon="15.743256401062983"><ele>749.6666666666667</ele><time>2026-04-04T09:44:31Z</time></trkpt><trkpt lat="40.795658482862514" lon="15.743391512390044"><ele>748.3333333333334</ele><time>2026-04-04T09:44:32Z</time></trkpt><trkpt lat="40.79550769191696" lon="15.74351664582539"><ele>747.0</ele><time>2026-04-04T09:44:33Z</time></trkpt><trkpt lat="40.79536484000913" lon="15.743635191073095"><ele>747.0</ele><time>2026-04-04T09:44:34Z</time></trkpt><trkpt lat="40.79523806609793" lon="15.743740394042327"><ele>747.0</ele><time>2026-04-04T09:44:35Z</time></trkpt><trkpt lat="40.79515943895134" lon="15.743897885254865"><ele>747.0</ele><time>2026-04-04T09:44:36Z</time></trkpt><trkpt lat="40.79506072192858" lon="15.743976237615929"><ele>747.0</ele><time>2026-04-04T09:44:37Z</time></trkpt><trkpt lat="40.794962385423766" lon="15.744043323148832"><ele>749.2</ele><time>2026-04-04T09:44:38Z</time></trkpt><trkpt lat="40.79486504469271" lon="15.744089351037784"><ele>751.4000000000001</ele><time>2026-04-04T09:44:39Z</time></trkpt><trkpt lat="40.79476335423344" lon="15.74412717871127"><ele>753.5999999999999</ele><time>2026-04-04T09:44:40Z</time></trkpt><trkpt lat="40.79465591237044" lon="15.744154195715929"><ele>755.8</ele><time>2026-04-04T09:44:41Z</time></trkpt><trkpt lat="40.794529477383705" lon="15.744148149577912"><ele>758.0</ele><time>2026-04-04T09:44:42Z</time></trkpt><trkpt lat="40.794391904536035" lon="15.744113647521711"><ele>759.2</ele><time>2026-04-04T09:44:43Z</time></trkpt><trkpt lat="40.79427097067339" lon="15.744058294874492"><ele>760.4</ele><time>2026-04-04T09:44:44Z</time></trkpt><trkpt lat="40.79417481702124" lon="15.744006365740479"><ele>761.6</ele><time>2026-04-04T09:44:45Z</time></trkpt><trkpt lat="40.7941068317004" lon="15.743984054512763"><ele>762.8000000000001</ele><time>2026-04-04T09:44:46Z</time></trkpt><trkpt lat="40.79404018156379" lon="15.744006276499054"><ele>764.0</ele><time>2026-04-04T09:44:47Z</time></trkpt><trkpt lat="40.79396030364922" lon="15.744135693831568"><ele>764.0</ele><time>2026-04-04T09:44:49Z</time></trkpt><trkpt lat="40.79392696059889" lon="15.744238643887064"><ele>764.0</ele><time>2026-04-04T09:44:50Z</time></trkpt><trkpt lat="40.793941820803056" lon="15.744370174684962"><ele>764.0</ele><time>2026-04-04T09:44:51Z</time></trkpt><trkpt lat="40.79400800418054" lon="15.74450166715723"><ele>764.0</ele><time>2026-04-04T09:44:52Z</time></trkpt><trkpt lat="40.794108928124814" lon="15.74462979975576"><ele>764.0</ele><time>2026-04-04T09:44:53Z</time></trkpt><trkpt lat="40.79420451097063" lon="15.744786022340843"><ele>764.6666666666666</ele><time>2026-04-04T09:44:54Z</time></trkpt><trkpt lat="40.79429682701473" lon="15.744972659560435"><ele>765.3333333333334</ele><time>2026-04-04T09:44:55Z</time></trkpt><trkpt lat="40.79439848220173" lon="15.74516886838491"><ele>766.0</ele><time>2026-04-04T09:44:56Z</time></trkpt><trkpt lat="40.79447573462411" lon="15.745376743006137"><ele>763.0</ele><time>2026-04-04T09:44:57Z</time></trkpt><trkpt lat="40.79452459126625" lon="15.745579040364454"><ele>760.0</ele><time>2026-04-04T09:44:58Z</time></trkpt><trkpt lat="40.79454158260714" lon="15.74579383913703"><ele>757.0</ele><time>2026-04-04T09:44:59Z</time></trkpt><trkpt lat="40.79452509555276" lon="15.746004157847667"><ele>757.5</ele><time>2026-04-04T09:45:00Z</time></trkpt><trkpt lat="40.79449513821242" lon="15.746212363728798"><ele>758.0</ele><time>2026-04-04T09:45:01Z</time></trkpt><trkpt lat="40.79446249988408" lon="15.746399087313995"><ele>758.5</ele><time>2026-04-04T09:45:02Z</time></trkpt><trkpt lat="40.79443071092253" lon="15.746546956810944"><ele>759.0</ele><time>2026-04-04T09:45:03Z</time></trkpt><trkpt lat="40.79440099422925" lon="15.746668555172715"><ele>759.0</ele><time>2026-04-04T09:45:04Z</time></trkpt><trkpt lat="40.7943996992165" lon="15.746752178492137"><ele>759.0</ele><time>2026-04-04T09:45:05Z</time></trkpt><trkpt lat="40.79452134724303" lon="15.746872433691548"><ele>759.0</ele><time>2026-04-04T09:45:07Z</time></trkpt><trkpt lat="40.79463596920303" lon="15.746889998069758"><ele>759.0</ele><time>2026-04-04T09:45:08Z</time></trkpt><trkpt lat="40.79477493653184" lon="15.746923129460912"><ele>758.0</ele><time>2026-04-04T09:45:09Z</time></trkpt><trkpt lat="40.79493031654031" lon="15.746977041890892"><ele>757.0</ele><time>2026-04-04T09:45:10Z</time></trkpt><trkpt lat="40.79510058499625" lon="15.747031131483233"><ele>756.0</ele><time>2026-04-04T09:45:11Z</time></trkpt><trkpt lat="40.795283974962466" lon="15.747091319142122"><ele>754.0</ele><time>2026-04-04T09:45:12Z</time></trkpt><trkpt lat="40.795484230637456" lon="15.747160851749225"><ele>752.0</ele><time>2026-04-04T09:45:13Z</time></trkpt><trkpt lat="40.795692453084484" lon="15.747226809086966"><ele>750.0</ele><time>2026-04-04T09:45:14Z</time></trkpt><trkpt lat="40.79588654942221" lon="15.74728886744615"><ele>748.6666666666666</ele><time>2026-04-04T09:45:15Z</time></trkpt><trkpt lat="40.796073142776955" lon="15.747355567126094"><ele>747.3333333333333</ele><time>2026-04-04T09:45:16Z</time></trkpt><trkpt lat="40.79625296485899" lon="15.747417191126031"><ele>746.0</ele><time>2026-04-04T09:45:17Z</time></trkpt><trkpt lat="40.79642440126136" lon="15.747475167532766"><ele>746.0</ele><time>2026-04-04T09:45:18Z</time></trkpt><trkpt lat="40.79658782748796" lon="15.7475286574102"><ele>746.0</ele><time>2026-04-04T09:45:19Z</time></trkpt><trkpt lat="40.79674300654928" lon="15.747585687000557"><ele>746.0</ele><time>2026-04-04T09:45:20Z</time></trkpt><trkpt lat="40.796889187286936" lon="15.747639360216246"><ele>745.0</ele><time>2026-04-04T09:45:21Z</time></trkpt><trkpt lat="40.797039779025624" lon="15.74769368161333"><ele>744.0</ele><time>2026-04-04T09:45:22Z</time></trkpt><trkpt lat="40.79720118276113" lon="15.747747111461868"><ele>743.0</ele><time>2026-04-04T09:45:23Z</time></trkpt><trkpt lat="40.797371468776305" lon="15.747800020721227"><ele>742.3333333333333</ele><time>2026-04-04T09:45:24Z</time></trkpt><trkpt lat="40.79754469848041" lon="15.747855344669452"><ele>741.6666666666666</ele><time>2026-04-04T09:45:25Z</time></trkpt><trkpt lat="40.79772363405654" lon="15.747915160190898"><ele>741.0</ele><time>2026-04-04T09:45:26Z</time></trkpt><trkpt lat="40.79790391405347" lon="15.74798511488231"><ele>740.6666666666666</ele><time>2026-04-04T09:45:27Z</time></trkpt><trkpt lat="40.798067081889684" lon="15.748047163606083"><ele>740.3333333333333</ele><time>2026-04-04T09:45:28Z</time></trkpt><trkpt lat="40.79822382667725" lon="15.748100713340126"><ele>740.0</ele><time>2026-04-04T09:45:29Z</time></trkpt><trkpt lat="40.79837452557849" lon="15.748152118041991"><ele>738.75</ele><time>2026-04-04T09:45:30Z</time></trkpt><trkpt lat="40.798515657995395" lon="15.748203195375545"><ele>737.5</ele><time>2026-04-04T09:45:31Z</time></trkpt><trkpt lat="40.79864986233318" lon="15.748256139499901"><ele>736.25</ele><time>2026-04-04T09:45:32Z</time></trkpt><trkpt lat="40.79878496050064" lon="15.748299215371684"><ele>735.0</ele><time>2026-04-04T09:45:33Z</time></trkpt><trkpt lat="40.7989268952404" lon="15.74832222770331"><ele>735.0</ele><time>2026-04-04T09:45:34Z</time></trkpt><trkpt lat="40.799062896151604" lon="15.748330551891748"><ele>735.0</ele><time>2026-04-04T09:45:35Z</time></trkpt><trkpt lat="40.799191573955206" lon="15.748374969530648"><ele>735.0</ele><time>2026-04-04T09:45:36Z</time></trkpt><trkpt lat="40.799318885237064" lon="15.748457527741177"><ele>735.0</ele><time>2026-04-04T09:45:37Z</time></trkpt><trkpt lat="40.79943247308547" lon="15.748575363700716"><ele>734.75</ele><time>2026-04-04T09:45:38Z</time></trkpt><trkpt lat="40.79951184097951" lon="15.74871784175495"><ele>734.5</ele><time>2026-04-04T09:45:39Z</time></trkpt><trkpt lat="40.79956037657141" lon="15.748874118438431"><ele>734.25</ele><time>2026-04-04T09:45:40Z</time></trkpt><trkpt lat="40.799599914566684" lon="15.749024641617707"><ele>734.0</ele><time>2026-04-04T09:45:41Z</time></trkpt><trkpt lat="40.79963236031698" lon="15.749161568185281"><ele>734.0</ele><time>2026-04-04T09:45:42Z</time></trkpt><trkpt lat="40.79964432936985" lon="15.749276788493562"><ele>734.0</ele><time>2026-04-04T09:45:43Z</time></trkpt><trkpt lat="40.79962350796812" lon="15.749364432270841"><ele>734.0</ele><time>2026-04-04T09:45:44Z</time></trkpt><trkpt lat="40.79956626790358" lon="15.74944779278139"><ele>734.0</ele><time>2026-04-04T09:45:45Z</time></trkpt><trkpt lat="40.799485071216566" lon="15.749530948409994"><ele>734.0</ele><time>2026-04-04T09:45:46Z</time></trkpt><trkpt lat="40.79938091870361" lon="15.74960747419643"><ele>735.0</ele><time>2026-04-04T09:45:47Z</time></trkpt><trkpt lat="40.79925462640123" lon="15.74966132804758"><ele>736.0</ele><time>2026-04-04T09:45:48Z</time></trkpt><trkpt lat="40.799108089001884" lon="15.749641852359046"><ele>737.0</ele><time>2026-04-04T09:45:49Z</time></trkpt><trkpt lat="40.79895900339141" lon="15.749664624619106"><ele>738.0</ele><time>2026-04-04T09:45:50Z</time></trkpt><trkpt lat="40.79881462350605" lon="15.749684983227429"><ele>738.0</ele><time>2026-04-04T09:45:51Z</time></trkpt><trkpt lat="40.798700725264226" lon="15.749704234119957"><ele>738.0</ele><time>2026-04-04T09:45:52Z</time></trkpt><trkpt lat="40.79861148424856" lon="15.749742660588343"><ele>738.0</ele><time>2026-04-04T09:45:53Z</time></trkpt><trkpt lat="40.79854698940342" lon="15.74988168722652"><ele>738.0</ele><time>2026-04-04T09:45:54Z</time></trkpt><trkpt lat="40.798560844809195" lon="15.750027657100194"><ele>738.0</ele><time>2026-04-04T09:45:55Z</time></trkpt><trkpt lat="40.798569464931134" lon="15.7501508968218"><ele>738.2</ele><time>2026-04-04T09:45:56Z</time></trkpt><trkpt lat="40.798535408130284" lon="15.750252586471388"><ele>738.4</ele><time>2026-04-04T09:45:57Z</time></trkpt><trkpt lat="40.79847588232161" lon="15.75033363896725"><ele>738.6</ele><time>2026-04-04T09:45:58Z</time></trkpt><trkpt lat="40.79838589726072" lon="15.750378707464629"><ele>738.8000000000001</ele><time>2026-04-04T09:45:59Z</time></trkpt><trkpt lat="40.798262543139046" lon="15.750451504322353"><ele>739.0</ele><time>2026-04-04T09:46:00Z</time></trkpt><trkpt lat="40.7981303044874" lon="15.750570418260928"><ele>739.0</ele><time>2026-04-04T09:46:01Z</time></trkpt><trkpt lat="40.79796461721159" lon="15.750618391799213"><ele>739.0</ele><time>2026-04-04T09:46:02Z</time></trkpt><trkpt lat="40.79778986435359" lon="15.750693407930694"><ele>739.0</ele><time>2026-04-04T09:46:03Z</time></trkpt><trkpt lat="40.79760054986914" lon="15.750774774320748"><ele>739.3333333333334</ele><time>2026-04-04T09:46:04Z</time></trkpt><trkpt lat="40.797398091104405" lon="15.750861790035156"><ele>739.6666666666666</ele><time>2026-04-04T09:46:05Z</time></trkpt><trkpt lat="40.79718697609104" lon="15.750952526167886"><ele>740.0</ele><time>2026-04-04T09:46:06Z</time></trkpt><trkpt lat="40.796969141485384" lon="15.75104511098764"><ele>739.0</ele><time>2026-04-04T09:46:07Z</time></trkpt><trkpt lat="40.79674195157755" lon="15.75114219160195"><ele>738.0</ele><time>2026-04-04T09:46:08Z</time></trkpt><trkpt lat="40.79650980849032" lon="15.751241388754407"><ele>738.0</ele><time>2026-04-04T09:46:09Z</time></trkpt><trkpt lat="40.79627282901428" lon="15.751342652534426"><ele>738.0</ele><time>2026-04-04T09:46:10Z</time></trkpt><trkpt lat="40.796031025874626" lon="15.75145563516968"><ele>739.5</ele><time>2026-04-04T09:46:11Z</time></trkpt><trkpt lat="40.79579127421912" lon="15.751577643303923"><ele>741.0</ele><time>2026-04-04T09:46:12Z</time></trkpt><trkpt lat="40.79555108334691" lon="15.751707060743252"><ele>741.0</ele><time>2026-04-04T09:46:13Z</time></trkpt><trkpt lat="40.79531023746992" lon="15.751846852606057"><ele>741.0</ele><time>2026-04-04T09:46:14Z</time></trkpt><trkpt lat="40.795069564913746" lon="15.751997525249227"><ele>741.5</ele><time>2026-04-04T09:46:15Z</time></trkpt><trkpt lat="40.7948313153833" lon="15.752160867328074"><ele>742.0</ele><time>2026-04-04T09:46:16Z</time></trkpt><trkpt lat="40.794595370224236" lon="15.752332863522128"><ele>742.0</ele><time>2026-04-04T09:46:17Z</time></trkpt><trkpt lat="40.794357981976695" lon="15.752512761663052"><ele>742.0</ele><time>2026-04-04T09:46:18Z</time></trkpt><trkpt lat="40.794122232588315" lon="15.752695362362623"><ele>742.0</ele><time>2026-04-04T09:46:19Z</time></trkpt><trkpt lat="40.79388651414164" lon="15.752880297912881"><ele>742.0</ele><time>2026-04-04T09:46:20Z</time></trkpt><trkpt lat="40.79364795027269" lon="15.753065972278407"><ele>744.0</ele><time>2026-04-04T09:46:21Z</time></trkpt><trkpt lat="40.7934072551395" lon="15.753252247259347"><ele>746.0</ele><time>2026-04-04T09:46:22Z</time></trkpt><trkpt lat="40.79316447703081" lon="15.753443032647228"><ele>744.0</ele><time>2026-04-04T09:46:23Z</time></trkpt><trkpt lat="40.792921522225434" lon="15.75363946969116"><ele>742.0</ele><time>2026-04-04T09:46:24Z</time></trkpt><trkpt lat="40.79268032986984" lon="15.753842388498168"><ele>742.5</ele><time>2026-04-04T09:46:25Z</time></trkpt><trkpt lat="40.792442022340076" lon="15.754051306447113"><ele>743.0</ele><time>2026-04-04T09:46:26Z</time></trkpt><trkpt lat="40.79220671362322" lon="15.754271565562206"><ele>743.0</ele><time>2026-04-04T09:46:27Z</time></trkpt><trkpt lat="40.791974550932096" lon="15.75449859807969"><ele>743.0</ele><time>2026-04-04T09:46:28Z</time></trkpt><trkpt lat="40.79174806060656" lon="15.754730975226517"><ele>743.0</ele><time>2026-04-04T09:46:29Z</time></trkpt><trkpt lat="40.79152440890599" lon="15.754974911374855"><ele>743.0</ele><time>2026-04-04T09:46:30Z</time></trkpt><trkpt lat="40.79130479764165" lon="15.755222343596094"><ele>741.5</ele><time>2026-04-04T09:46:31Z</time></trkpt><trkpt lat="40.791092134608064" lon="15.75547825840634"><ele>740.0</ele><time>2026-04-04T09:46:32Z</time></trkpt><trkpt lat="40.79089101651397" lon="15.755732402793429"><ele>739.0</ele><time>2026-04-04T09:46:33Z</time></trkpt><trkpt lat="40.79070664152061" lon="15.755975439087768"><ele>738.0</ele><time>2026-04-04T09:46:34Z</time></trkpt><trkpt lat="40.79052859239049" lon="15.75621662319259"><ele>738.0</ele><time>2026-04-04T09:46:35Z</time></trkpt><trkpt lat="40.79035940618193" lon="15.756458967830843"><ele>738.0</ele><time>2026-04-04T09:46:36Z</time></trkpt><trkpt lat="40.79020023423333" lon="15.756699678700354"><ele>739.5</ele><time>2026-04-04T09:46:37Z</time></trkpt><trkpt lat="40.79005050817228" lon="15.756932274294945"><ele>741.0</ele><time>2026-04-04T09:46:38Z</time></trkpt><trkpt lat="40.7899013841444" lon="15.757174344043252"><ele>741.0</ele><time>2026-04-04T09:46:39Z</time></trkpt><trkpt lat="40.78975282454333" lon="15.75742747270408"><ele>741.0</ele><time>2026-04-04T09:46:40Z</time></trkpt><trkpt lat="40.7896058613185" lon="15.75768468933884"><ele>737.5</ele><time>2026-04-04T09:46:41Z</time></trkpt><trkpt lat="40.789468983591476" lon="15.757938212957518"><ele>734.0</ele><time>2026-04-04T09:46:42Z</time></trkpt><trkpt lat="40.7893431778698" lon="15.758181378978085"><ele>736.3333333333333</ele><time>2026-04-04T09:46:43Z</time></trkpt><trkpt lat="40.78922372436942" lon="15.758412270841347"><ele>738.6666666666666</ele><time>2026-04-04T09:46:44Z</time></trkpt><trkpt lat="40.78910975005932" lon="15.75863257196875"><ele>741.0</ele><time>2026-04-04T09:46:45Z</time></trkpt><trkpt lat="40.789032732235945" lon="15.758868876432718"><ele>741.0</ele><time>2026-04-04T09:46:46Z</time></trkpt><trkpt lat="40.78893223163216" lon="15.75907050524124"><ele>741.0</ele><time>2026-04-04T09:46:47Z</time></trkpt><trkpt lat="40.78884013149005" lon="15.75926028531729"><ele>741.0</ele><time>2026-04-04T09:46:48Z</time></trkpt><trkpt lat="40.78875264963778" lon="15.759435374138649"><ele>740.0</ele><time>2026-04-04T09:46:49Z</time></trkpt><trkpt lat="40.788669686940025" lon="15.759597772955596"><ele>739.0</ele><time>2026-04-04T09:46:50Z</time></trkpt><trkpt lat="40.788579619523084" lon="15.759751111845707"><ele>738.0</ele><time>2026-04-04T09:46:51Z</time></trkpt><trkpt lat="40.78848494872818" lon="15.759903009438151"><ele>737.0</ele><time>2026-04-04T09:46:52Z</time></trkpt><trkpt lat="40.788394230932475" lon="15.760054499194876"><ele>738.2</ele><time>2026-04-04T09:46:53Z</time></trkpt><trkpt lat="40.78831421543182" lon="15.76018542892426"><ele>739.4000000000001</ele><time>2026-04-04T09:46:54Z</time></trkpt><trkpt lat="40.78823941370317" lon="15.760301571704003"><ele>740.5999999999999</ele><time>2026-04-04T09:46:55Z</time></trkpt><trkpt lat="40.788176777854645" lon="15.760396410234371"><ele>741.8</ele><time>2026-04-04T09:46:56Z</time></trkpt><trkpt lat="40.788126440558" lon="15.760471117198266"><ele>743.0</ele><time>2026-04-04T09:46:57Z</time></trkpt><trkpt lat="40.78808801890318" lon="15.760539594438853"><ele>743.0</ele><time>2026-04-04T09:46:58Z</time></trkpt><trkpt lat="40.78805029510406" lon="15.760609619902679"><ele>743.0</ele><time>2026-04-04T09:46:59Z</time></trkpt><trkpt lat="40.78799410170621" lon="15.760717791065389"><ele>743.0</ele><time>2026-04-04T09:47:01Z</time></trkpt><trkpt lat="40.787956703337514" lon="15.76080644079919"><ele>743.0</ele><time>2026-04-04T09:47:03Z</time></trkpt><trkpt lat="40.78791498124815" lon="15.760887436501188"><ele>743.0</ele><time>2026-04-04T09:47:05Z</time></trkpt><trkpt lat="40.78785936551588" lon="15.760930220290051"><ele>743.0</ele><time>2026-04-04T09:47:56Z</time></trkpt><trkpt lat="40.787793794567655" lon="15.760942610549883"><ele>743.0</ele><time>2026-04-04T09:48:00Z</time></trkpt><trkpt lat="40.787729188561016" lon="15.760961764715585"><ele>743.0</ele><time>2026-04-04T09:48:05Z</time></trkpt><trkpt lat="40.787666363493145" lon="15.761006354940381"><ele>743.0</ele><time>2026-04-04T09:48:14Z</time></trkpt><trkpt lat="40.78759482082746" lon="15.761064769155146"><ele>743.0</ele><time>2026-04-04T09:48:25Z</time></trkpt><trkpt lat="40.787652276403364" lon="15.760965688636462"><ele>743.0</ele><time>2026-04-04T09:48:32Z</time></trkpt><trkpt lat="40.78770901294776" lon="15.76089684867584"><ele>743.0</ele><time>2026-04-04T09:48:34Z</time></trkpt><trkpt lat="40.7877972324789" lon="15.760889478349867"><ele>743.0</ele><time>2026-04-04T09:48:37Z</time></trkpt><trkpt lat="40.787855847402945" lon="15.76092505622266"><ele>743.0</ele><time>2026-04-04T09:48:41Z</time></trkpt><trkpt lat="40.78786409777866" lon="15.76101799300821"><ele>743.0</ele><time>2026-04-04T09:52:55Z</time></trkpt><trkpt lat="40.78779953973591" lon="15.7611330825405"><ele>743.0</ele><time>2026-04-04T09:52:57Z</time></trkpt><trkpt lat="40.78776729284861" lon="15.761249782562235"><ele>743.0</ele><time>2026-04-04T09:52:59Z</time></trkpt><trkpt lat="40.78784565921811" lon="15.761312633938802"><ele>743.0</ele><time>2026-04-04T09:53:10Z</time></trkpt><trkpt lat="40.787899732384645" lon="15.761268981310613"><ele>743.0</ele><time>2026-04-04T09:53:11Z</time></trkpt><trkpt lat="40.78795301517103" lon="15.761162696317628"><ele>743.0</ele><time>2026-04-04T09:53:12Z</time></trkpt><trkpt lat="40.78798797479802" lon="15.761046199566655"><ele>743.0</ele><time>2026-04-04T09:53:13Z</time></trkpt><trkpt lat="40.78803867661106" lon="15.76091171042004"><ele>743.0</ele><time>2026-04-04T09:53:14Z</time></trkpt><trkpt lat="40.788104269753994" lon="15.76075726548311"><ele>743.0</ele><time>2026-04-04T09:53:15Z</time></trkpt><trkpt lat="40.78818268192495" lon="15.76057509215859"><ele>743.0</ele><time>2026-04-04T09:53:16Z</time></trkpt><trkpt lat="40.788270932017916" lon="15.760384364689372"><ele>743.0</ele><time>2026-04-04T09:53:17Z</time></trkpt><trkpt lat="40.78836627960256" lon="15.76018158100906"><ele>743.0</ele><time>2026-04-04T09:53:18Z</time></trkpt><trkpt lat="40.78846892564344" lon="15.759970173289668"><ele>742.3333333333333</ele><time>2026-04-04T09:53:19Z</time></trkpt><trkpt lat="40.78858081664573" lon="15.75975285435941"><ele>741.6666666666666</ele><time>2026-04-04T09:53:20Z</time></trkpt><trkpt lat="40.788698373457855" lon="15.759527098101383"><ele>741.0</ele><time>2026-04-04T09:53:21Z</time></trkpt><trkpt lat="40.78881506294454" lon="15.759293348385647"><ele>741.0</ele><time>2026-04-04T09:53:22Z</time></trkpt><trkpt lat="40.788927179872594" lon="15.759049250034442"><ele>741.0</ele><time>2026-04-04T09:53:23Z</time></trkpt><trkpt lat="40.789045800688584" lon="15.758802279231796"><ele>741.0</ele><time>2026-04-04T09:53:24Z</time></trkpt><trkpt lat="40.7891641007933" lon="15.758563004011625"><ele>743.0</ele><time>2026-04-04T09:53:25Z</time></trkpt><trkpt lat="40.789306705845085" lon="15.758335164694453"><ele>745.0</ele><time>2026-04-04T09:53:26Z</time></trkpt><trkpt lat="40.78943657671222" lon="15.758078746431977"><ele>743.0</ele><time>2026-04-04T09:53:27Z</time></trkpt><trkpt lat="40.78957097307763" lon="15.757823311579088"><ele>741.0</ele><time>2026-04-04T09:53:28Z</time></trkpt><trkpt lat="40.78971254095169" lon="15.757569955259406"><ele>741.0</ele><time>2026-04-04T09:53:29Z</time></trkpt><trkpt lat="40.78986176738751" lon="15.7573128316171"><ele>741.0</ele><time>2026-04-04T09:53:30Z</time></trkpt><trkpt lat="40.79001558724995" lon="15.757056182570919"><ele>739.5</ele><time>2026-04-04T09:53:31Z</time></trkpt><trkpt lat="40.79017457678134" lon="15.756806487274714"><ele>738.0</ele><time>2026-04-04T09:53:32Z</time></trkpt><trkpt lat="40.79033828369414" lon="15.75655677303797"><ele>738.0</ele><time>2026-04-04T09:53:33Z</time></trkpt><trkpt lat="40.79050804097172" lon="15.756309825755347"><ele>738.0</ele><time>2026-04-04T09:53:34Z</time></trkpt><trkpt lat="40.7906822840266" lon="15.75607043030326"><ele>739.0</ele><time>2026-04-04T09:53:35Z</time></trkpt><trkpt lat="40.79086025213699" lon="15.75583337259925"><ele>740.0</ele><time>2026-04-04T09:53:36Z</time></trkpt><trkpt lat="40.79104365793188" lon="15.755598760771953"><ele>740.0</ele><time>2026-04-04T09:53:37Z</time></trkpt><trkpt lat="40.79122832196587" lon="15.755371684510221"><ele>740.0</ele><time>2026-04-04T09:53:38Z</time></trkpt><trkpt lat="40.79141597572784" lon="15.755153697728373"><ele>741.5</ele><time>2026-04-04T09:53:39Z</time></trkpt><trkpt lat="40.791608005654766" lon="15.754938959650401"><ele>743.0</ele><time>2026-04-04T09:53:40Z</time></trkpt><trkpt lat="40.791803076394416" lon="15.75472889420341"><ele>743.0</ele><time>2026-04-04T09:53:41Z</time></trkpt><trkpt lat="40.79200219721672" lon="15.754526048689298"><ele>743.0</ele><time>2026-04-04T09:53:42Z</time></trkpt><trkpt lat="40.79220491151557" lon="15.754327460859173"><ele>743.0</ele><time>2026-04-04T09:53:43Z</time></trkpt><trkpt lat="40.79240895074886" lon="15.754135525910572"><ele>743.0</ele><time>2026-04-04T09:53:44Z</time></trkpt><trkpt lat="40.79261764825667" lon="15.753948389931915"><ele>742.5</ele><time>2026-04-04T09:53:45Z</time></trkpt><trkpt lat="40.79283108901406" lon="15.753767138714023"><ele>742.0</ele><time>2026-04-04T09:53:46Z</time></trkpt><trkpt lat="40.793044263902594" lon="15.753590453108698"><ele>744.0</ele><time>2026-04-04T09:53:47Z</time></trkpt><trkpt lat="40.793259572324565" lon="15.753418650653485"><ele>746.0</ele><time>2026-04-04T09:53:48Z</time></trkpt><trkpt lat="40.79347944687613" lon="15.7532472331191"><ele>744.0</ele><time>2026-04-04T09:53:49Z</time></trkpt><trkpt lat="40.79369887432293" lon="15.753077417302698"><ele>742.0</ele><time>2026-04-04T09:53:50Z</time></trkpt><trkpt lat="40.79391333775185" lon="15.752910284201453"><ele>742.0</ele><time>2026-04-04T09:53:51Z</time></trkpt><trkpt lat="40.79413036363806" lon="15.752739930771158"><ele>742.0</ele><time>2026-04-04T09:53:52Z</time></trkpt><trkpt lat="40.79434890981306" lon="15.752570654813045"><ele>742.0</ele><time>2026-04-04T09:53:53Z</time></trkpt><trkpt lat="40.794567720177376" lon="15.752403533409568"><ele>742.0</ele><time>2026-04-04T09:53:54Z</time></trkpt><trkpt lat="40.7947932183191" lon="15.752238112931005"><ele>742.0</ele><time>2026-04-04T09:53:55Z</time></trkpt><trkpt lat="40.795013541834045" lon="15.752059726902377"><ele>742.0</ele><time>2026-04-04T09:53:56Z</time></trkpt><trkpt lat="40.7952524617704" lon="15.751930435456265"><ele>741.5</ele><time>2026-04-04T09:53:57Z</time></trkpt><trkpt lat="40.795487517446404" lon="15.75179090936043"><ele>741.0</ele><time>2026-04-04T09:53:58Z</time></trkpt><trkpt lat="40.79572387023215" lon="15.751660891595586"><ele>741.0</ele><time>2026-04-04T09:53:59Z</time></trkpt><trkpt lat="40.79595421864759" lon="15.751520132605249"><ele>741.0</ele><time>2026-04-04T09:54:00Z</time></trkpt><trkpt lat="40.7961934163763" lon="15.751409870209104"><ele>739.5</ele><time>2026-04-04T09:54:01Z</time></trkpt><trkpt lat="40.79643323362115" lon="15.751302353123434"><ele>738.0</ele><time>2026-04-04T09:54:02Z</time></trkpt><trkpt lat="40.79667236703392" lon="15.75119725557932"><ele>738.0</ele><time>2026-04-04T09:54:03Z</time></trkpt><trkpt lat="40.79691579967003" lon="15.751113995093041"><ele>738.0</ele><time>2026-04-04T09:54:04Z</time></trkpt><trkpt lat="40.797154693663074" lon="15.751012374117751"><ele>739.0</ele><time>2026-04-04T09:54:05Z</time></trkpt><trkpt lat="40.79739189938984" lon="15.750910567396065"><ele>740.0</ele><time>2026-04-04T09:54:06Z</time></trkpt><trkpt lat="40.797628901686494" lon="15.750808705036306"><ele>739.5</ele><time>2026-04-04T09:54:07Z</time></trkpt><trkpt lat="40.797864826260344" lon="15.750707309844957"><ele>739.0</ele><time>2026-04-04T09:54:08Z</time></trkpt><trkpt lat="40.79809842073809" lon="15.75060704622396"><ele>739.0</ele><time>2026-04-04T09:54:09Z</time></trkpt><trkpt lat="40.79833266726318" lon="15.750503314375818"><ele>739.0</ele><time>2026-04-04T09:54:10Z</time></trkpt><trkpt lat="40.79856390274471" lon="15.75039806927493"><ele>738.5</ele><time>2026-04-04T09:54:11Z</time></trkpt><trkpt lat="40.79879170975477" lon="15.750274146252385"><ele>738.0</ele><time>2026-04-04T09:54:12Z</time></trkpt><trkpt lat="40.799022016866566" lon="15.750175452211199"><ele>738.0</ele><time>2026-04-04T09:54:13Z</time></trkpt><trkpt lat="40.799248139642614" lon="15.750065562826729"><ele>738.0</ele><time>2026-04-04T09:54:14Z</time></trkpt><trkpt lat="40.79948030699807" lon="15.749974966338316"><ele>738.5</ele><time>2026-04-04T09:54:15Z</time></trkpt><trkpt lat="40.79970283854054" lon="15.7498491820588"><ele>739.0</ele><time>2026-04-04T09:54:16Z</time></trkpt><trkpt lat="40.79990889986794" lon="15.74968131451032"><ele>739.0</ele><time>2026-04-04T09:54:17Z</time></trkpt><trkpt lat="40.80012681817466" lon="15.74954623514508"><ele>739.0</ele><time>2026-04-04T09:54:18Z</time></trkpt><trkpt lat="40.80033687645708" lon="15.74938860156368"><ele>740.5</ele><time>2026-04-04T09:54:19Z</time></trkpt><trkpt lat="40.8005468561103" lon="15.749228955954566"><ele>742.0</ele><time>2026-04-04T09:54:20Z</time></trkpt><trkpt lat="40.800750622880535" lon="15.749055147739911"><ele>742.0</ele><time>2026-04-04T09:54:21Z</time></trkpt><trkpt lat="40.80096750608795" lon="15.748910953898505"><ele>742.0</ele><time>2026-04-04T09:54:22Z</time></trkpt><trkpt lat="40.80118543920621" lon="15.748770707908921"><ele>743.5</ele><time>2026-04-04T09:54:23Z</time></trkpt><trkpt lat="40.8014048041695" lon="15.748640231897184"><ele>745.0</ele><time>2026-04-04T09:54:24Z</time></trkpt><trkpt lat="40.80162838576782" lon="15.74851711788036"><ele>747.0</ele><time>2026-04-04T09:54:25Z</time></trkpt><trkpt lat="40.80185860733478" lon="15.748413044631452"><ele>749.0</ele><time>2026-04-04T09:54:26Z</time></trkpt><trkpt lat="40.80209319376411" lon="15.748324148844931"><ele>749.0</ele><time>2026-04-04T09:54:27Z</time></trkpt><trkpt lat="40.80233230066245" lon="15.748251980534436"><ele>749.0</ele><time>2026-04-04T09:54:28Z</time></trkpt><trkpt lat="40.802572280824165" lon="15.748185871533318"><ele>750.0</ele><time>2026-04-04T09:54:29Z</time></trkpt><trkpt lat="40.80281219749302" lon="15.748122095320245"><ele>751.0</ele><time>2026-04-04T09:54:30Z</time></trkpt><trkpt lat="40.80305078188409" lon="15.748054743884076"><ele>751.0</ele><time>2026-04-04T09:54:31Z</time></trkpt><trkpt lat="40.8032889820698" lon="15.74798705199276"><ele>751.0</ele><time>2026-04-04T09:54:32Z</time></trkpt><trkpt lat="40.80352165514807" lon="15.747920625896592"><ele>749.6666666666667</ele><time>2026-04-04T09:54:33Z</time></trkpt><trkpt lat="40.80374251955057" lon="15.747859425126336"><ele>748.3333333333334</ele><time>2026-04-04T09:54:34Z</time></trkpt><trkpt lat="40.803953583095065" lon="15.747798517438394"><ele>747.0</ele><time>2026-04-04T09:54:35Z</time></trkpt><trkpt lat="40.80416835180711" lon="15.747739796519587"><ele>745.0</ele><time>2026-04-04T09:54:36Z</time></trkpt><trkpt lat="40.80438305114224" lon="15.747677690825437"><ele>743.0</ele><time>2026-04-04T09:54:37Z</time></trkpt><trkpt lat="40.80459899132931" lon="15.747614908244582"><ele>741.0</ele><time>2026-04-04T09:54:38Z</time></trkpt><trkpt lat="40.804815260156225" lon="15.747551771413047"><ele>741.0</ele><time>2026-04-04T09:54:39Z</time></trkpt><trkpt lat="40.805029841470244" lon="15.747483870130761"><ele>741.0</ele><time>2026-04-04T09:54:40Z</time></trkpt><trkpt lat="40.80524682003209" lon="15.747407919231838"><ele>741.0</ele><time>2026-04-04T09:54:41Z</time></trkpt><trkpt lat="40.80546271906514" lon="15.747322612779897"><ele>744.5</ele><time>2026-04-04T09:54:42Z</time></trkpt><trkpt lat="40.8056760712493" lon="15.747224881626027"><ele>748.0</ele><time>2026-04-04T09:54:43Z</time></trkpt><trkpt lat="40.805887324502585" lon="15.747123178400738"><ele>748.0</ele><time>2026-04-04T09:54:44Z</time></trkpt><trkpt lat="40.80609518328999" lon="15.747010638947344"><ele>748.0</ele><time>2026-04-04T09:54:45Z</time></trkpt><trkpt lat="40.80631145054605" lon="15.746937193930256"><ele>748.0</ele><time>2026-04-04T09:54:46Z</time></trkpt><trkpt lat="40.80650478124874" lon="15.746769778792398"><ele>748.0</ele><time>2026-04-04T09:54:47Z</time></trkpt><trkpt lat="40.806707237816276" lon="15.746644842186805"><ele>748.0</ele><time>2026-04-04T09:54:48Z</time></trkpt><trkpt lat="40.806910281006786" lon="15.746521441650911"><ele>748.0</ele><time>2026-04-04T09:54:49Z</time></trkpt><trkpt lat="40.80711291174353" lon="15.746404811232008"><ele>749.6666666666667</ele><time>2026-04-04T09:54:50Z</time></trkpt><trkpt lat="40.807316777035105" lon="15.746301890381421"><ele>751.3333333333334</ele><time>2026-04-04T09:54:51Z</time></trkpt><trkpt lat="40.807523698621665" lon="15.746214731891884"><ele>753.0</ele><time>2026-04-04T09:54:52Z</time></trkpt><trkpt lat="40.807735403276766" lon="15.74614481584316"><ele>754.6666666666666</ele><time>2026-04-04T09:54:53Z</time></trkpt><trkpt lat="40.80794551550919" lon="15.746100443827576"><ele>756.3333333333333</ele><time>2026-04-04T09:54:54Z</time></trkpt><trkpt lat="40.80814972655681" lon="15.746082961369435"><ele>758.0</ele><time>2026-04-04T09:54:55Z</time></trkpt><trkpt lat="40.808353636766036" lon="15.746089563509582"><ele>758.6666666666666</ele><time>2026-04-04T09:54:56Z</time></trkpt><trkpt lat="40.80855488113525" lon="15.746120248629632"><ele>759.3333333333334</ele><time>2026-04-04T09:54:57Z</time></trkpt><trkpt lat="40.8087593541083" lon="15.746177672328116"><ele>760.0</ele><time>2026-04-04T09:54:58Z</time></trkpt><trkpt lat="40.80896444526975" lon="15.746243585822072"><ele>760.0</ele><time>2026-04-04T09:54:59Z</time></trkpt><trkpt lat="40.809155663662345" lon="15.746328364721577"><ele>760.0</ele><time>2026-04-04T09:55:00Z</time></trkpt><trkpt lat="40.80932657846604" lon="15.746414194947343"><ele>760.0</ele><time>2026-04-04T09:55:01Z</time></trkpt><trkpt lat="40.80948300755545" lon="15.746497608641558"><ele>760.4</ele><time>2026-04-04T09:55:02Z</time></trkpt><trkpt lat="40.80961441380755" lon="15.746572116416662"><ele>760.8</ele><time>2026-04-04T09:55:03Z</time></trkpt><trkpt lat="40.80971337595256" lon="15.746650803897083"><ele>761.2</ele><time>2026-04-04T09:55:04Z</time></trkpt><trkpt lat="40.80980213404035" lon="15.746712988709351"><ele>761.6</ele><time>2026-04-04T09:55:05Z</time></trkpt><trkpt lat="40.80987026738464" lon="15.746746865406466"><ele>762.0</ele><time>2026-04-04T09:55:06Z</time></trkpt><trkpt lat="40.80995967595953" lon="15.746780085677514"><ele>762.0</ele><time>2026-04-04T09:56:19Z</time></trkpt><trkpt lat="40.81007917366349" lon="15.746787968007007"><ele>762.0</ele><time>2026-04-04T09:56:21Z</time></trkpt><trkpt lat="40.810161386054894" lon="15.746833376376628"><ele>762.0</ele><time>2026-04-04T09:56:22Z</time></trkpt><trkpt lat="40.8102583030468" lon="15.746835771860631"><ele>762.0</ele><time>2026-04-04T09:56:23Z</time></trkpt><trkpt lat="40.81036986802896" lon="15.74688334480242"><ele>762.0</ele><time>2026-04-04T09:56:24Z</time></trkpt><trkpt lat="40.81050053711961" lon="15.746937392286924"><ele>763.6666666666666</ele><time>2026-04-04T09:56:25Z</time></trkpt><trkpt lat="40.810641109968486" lon="15.74699232147934"><ele>765.3333333333333</ele><time>2026-04-04T09:56:26Z</time></trkpt><trkpt lat="40.8107882319976" lon="15.74705135153311"><ele>767.0</ele><time>2026-04-04T09:56:27Z</time></trkpt><trkpt lat="40.810946578996365" lon="15.74710798499404"><ele>765.0</ele><time>2026-04-04T09:56:28Z</time></trkpt><trkpt lat="40.81112599108392" lon="15.747146699699085"><ele>763.0</ele><time>2026-04-04T09:56:29Z</time></trkpt><trkpt lat="40.811312689343715" lon="15.747168122923378"><ele>761.0</ele><time>2026-04-04T09:56:30Z</time></trkpt><trkpt lat="40.81150590897064" lon="15.74716413471743"><ele>761.0</ele><time>2026-04-04T09:56:31Z</time></trkpt><trkpt lat="40.8116974699356" lon="15.74713708342106"><ele>761.0</ele><time>2026-04-04T09:56:32Z</time></trkpt><trkpt lat="40.811878808980595" lon="15.747078467579104"><ele>761.0</ele><time>2026-04-04T09:56:33Z</time></trkpt><trkpt lat="40.81205763464843" lon="15.74699601025009"><ele>758.3333333333333</ele><time>2026-04-04T09:56:34Z</time></trkpt><trkpt lat="40.81223111775418" lon="15.746894414678717"><ele>755.6666666666666</ele><time>2026-04-04T09:56:35Z</time></trkpt><trkpt lat="40.81239575758022" lon="15.74677937363484"><ele>753.0</ele><time>2026-04-04T09:56:36Z</time></trkpt><trkpt lat="40.812556716458076" lon="15.746641455873934"><ele>751.0</ele><time>2026-04-04T09:56:37Z</time></trkpt><trkpt lat="40.81270808347958" lon="15.746487880476211"><ele>749.0</ele><time>2026-04-04T09:56:38Z</time></trkpt><trkpt lat="40.8128495724641" lon="15.746312520838446"><ele>747.0</ele><time>2026-04-04T09:56:39Z</time></trkpt><trkpt lat="40.81299947305125" lon="15.746142033386928"><ele>745.3333333333334</ele><time>2026-04-04T09:56:40Z</time></trkpt><trkpt lat="40.813140405034886" lon="15.745956698436279"><ele>743.6666666666667</ele><time>2026-04-04T09:56:41Z</time></trkpt><trkpt lat="40.81328209099821" lon="15.745766683559518"><ele>742.0</ele><time>2026-04-04T09:56:42Z</time></trkpt><trkpt lat="40.81342368166652" lon="15.745572532223647"><ele>740.6666666666667</ele><time>2026-04-04T09:56:43Z</time></trkpt><trkpt lat="40.813567158536934" lon="15.745375794501737"><ele>739.3333333333334</ele><time>2026-04-04T09:56:44Z</time></trkpt><trkpt lat="40.81370671717645" lon="15.745162041379047"><ele>738.0</ele><time>2026-04-04T09:56:45Z</time></trkpt><trkpt lat="40.8138648297334" lon="15.744962644750535"><ele>734.0</ele><time>2026-04-04T09:56:46Z</time></trkpt><trkpt lat="40.814045463569954" lon="15.744774758400176"><ele>730.0</ele><time>2026-04-04T09:56:47Z</time></trkpt><trkpt lat="40.81423833285527" lon="15.744591439282964"><ele>729.5</ele><time>2026-04-04T09:56:48Z</time></trkpt><trkpt lat="40.81443803601547" lon="15.744425151016111"><ele>729.0</ele><time>2026-04-04T09:56:49Z</time></trkpt><trkpt lat="40.81464531077849" lon="15.74427947928237"><ele>729.0</ele><time>2026-04-04T09:56:50Z</time></trkpt><trkpt lat="40.814859618887034" lon="15.744151921374815"><ele>729.0</ele><time>2026-04-04T09:56:51Z</time></trkpt><trkpt lat="40.8150829286838" lon="15.744033461687119"><ele>732.5</ele><time>2026-04-04T09:56:52Z</time></trkpt><trkpt lat="40.81530765494132" lon="15.743919955502985"><ele>736.0</ele><time>2026-04-04T09:56:53Z</time></trkpt><trkpt lat="40.81553394929282" lon="15.74380622736387"><ele>736.0</ele><time>2026-04-04T09:56:54Z</time></trkpt><trkpt lat="40.81576080224189" lon="15.743691472410747"><ele>736.0</ele><time>2026-04-04T09:56:55Z</time></trkpt><trkpt lat="40.81598826361438" lon="15.743577541378166"><ele>732.0</ele><time>2026-04-04T09:56:56Z</time></trkpt><trkpt lat="40.8162226659292" lon="15.743461776058293"><ele>728.0</ele><time>2026-04-04T09:56:57Z</time></trkpt><trkpt lat="40.816452112815206" lon="15.74334717593685"><ele>728.0</ele><time>2026-04-04T09:56:58Z</time></trkpt><trkpt lat="40.816676663257795" lon="15.743235699931228"><ele>728.0</ele><time>2026-04-04T09:56:59Z</time></trkpt><trkpt lat="40.8168998110108" lon="15.743119665954497"><ele>730.0</ele><time>2026-04-04T09:57:00Z</time></trkpt><trkpt lat="40.81711855186392" lon="15.743012179446728"><ele>732.0</ele><time>2026-04-04T09:57:01Z</time></trkpt><trkpt lat="40.81733313087342" lon="15.742904454668256"><ele>732.0</ele><time>2026-04-04T09:57:02Z</time></trkpt><trkpt lat="40.817545058795865" lon="15.742797362095274"><ele>732.0</ele><time>2026-04-04T09:57:03Z</time></trkpt><trkpt lat="40.81776226640358" lon="15.742709371061046"><ele>724.0</ele><time>2026-04-04T09:57:04Z</time></trkpt><trkpt lat="40.81797382737872" lon="15.742599814222594"><ele>716.0</ele><time>2026-04-04T09:57:05Z</time></trkpt><trkpt lat="40.818173146644654" lon="15.742458174586682"><ele>716.0</ele><time>2026-04-04T09:57:06Z</time></trkpt><trkpt lat="40.81837443635683" lon="15.742326166768109"><ele>716.0</ele><time>2026-04-04T09:57:07Z</time></trkpt><trkpt lat="40.81856766171593" lon="15.742174950445664"><ele>716.0</ele><time>2026-04-04T09:57:08Z</time></trkpt><trkpt lat="40.81876268843178" lon="15.742031787166496"><ele>714.0</ele><time>2026-04-04T09:57:09Z</time></trkpt><trkpt lat="40.81894213703111" lon="15.74185464310006"><ele>712.0</ele><time>2026-04-04T09:57:10Z</time></trkpt><trkpt lat="40.81910870793101" lon="15.741660897096466"><ele>710.0</ele><time>2026-04-04T09:57:11Z</time></trkpt><trkpt lat="40.81926999993318" lon="15.741459027429302"><ele>711.0</ele><time>2026-04-04T09:57:12Z</time></trkpt><trkpt lat="40.81942695279982" lon="15.741250228060634"><ele>712.0</ele><time>2026-04-04T09:57:13Z</time></trkpt><trkpt lat="40.8195799940768" lon="15.741036081552815"><ele>713.0</ele><time>2026-04-04T09:57:14Z</time></trkpt><trkpt lat="40.819732542988916" lon="15.740821193139595"><ele>713.0</ele><time>2026-04-04T09:57:15Z</time></trkpt><trkpt lat="40.819885840876445" lon="15.74060524967723"><ele>713.0</ele><time>2026-04-04T09:57:16Z</time></trkpt><trkpt lat="40.82004162893655" lon="15.74039514867195"><ele>713.0</ele><time>2026-04-04T09:57:17Z</time></trkpt><trkpt lat="40.820201203879364" lon="15.740185282481"><ele>709.6666666666666</ele><time>2026-04-04T09:57:18Z</time></trkpt><trkpt lat="40.820361715311876" lon="15.73998034211062"><ele>706.3333333333334</ele><time>2026-04-04T09:57:19Z</time></trkpt><trkpt lat="40.820521131714045" lon="15.739776701823777"><ele>703.0</ele><time>2026-04-04T09:57:20Z</time></trkpt><trkpt lat="40.82067347699304" lon="15.739558622042242"><ele>697.3333333333334</ele><time>2026-04-04T09:57:21Z</time></trkpt><trkpt lat="40.820839112305315" lon="15.739363617929458"><ele>691.6666666666666</ele><time>2026-04-04T09:57:22Z</time></trkpt><trkpt lat="40.82100684928589" lon="15.739162285576313"><ele>686.0</ele><time>2026-04-04T09:57:23Z</time></trkpt><trkpt lat="40.82117679163236" lon="15.738957222992363"><ele>685.5</ele><time>2026-04-04T09:57:24Z</time></trkpt><trkpt lat="40.82135058067975" lon="15.73875607589534"><ele>685.0</ele><time>2026-04-04T09:57:25Z</time></trkpt><trkpt lat="40.821521179732166" lon="15.738550543582388"><ele>682.0</ele><time>2026-04-04T09:57:26Z</time></trkpt><trkpt lat="40.821691290921656" lon="15.738345700908734"><ele>679.0</ele><time>2026-04-04T09:57:27Z</time></trkpt><trkpt lat="40.82186658468309" lon="15.738139210093768"><ele>679.0</ele><time>2026-04-04T09:57:28Z</time></trkpt><trkpt lat="40.82204508952875" lon="15.73793297587523"><ele>679.0</ele><time>2026-04-04T09:57:29Z</time></trkpt><trkpt lat="40.82222581794958" lon="15.737725087233496"><ele>680.0</ele><time>2026-04-04T09:57:30Z</time></trkpt><trkpt lat="40.8224061850726" lon="15.737516804518219"><ele>681.0</ele><time>2026-04-04T09:57:31Z</time></trkpt><trkpt lat="40.822588994880576" lon="15.737313161880412"><ele>687.0</ele><time>2026-04-04T09:57:32Z</time></trkpt><trkpt lat="40.82277955200962" lon="15.737123136995786"><ele>693.0</ele><time>2026-04-04T09:57:33Z</time></trkpt><trkpt lat="40.82297531630851" lon="15.736945545905009"><ele>687.5</ele><time>2026-04-04T09:57:34Z</time></trkpt><trkpt lat="40.823175708873514" lon="15.736778909310914"><ele>682.0</ele><time>2026-04-04T09:57:35Z</time></trkpt><trkpt lat="40.82338233251752" lon="15.73662564708687"><ele>686.0</ele><time>2026-04-04T09:57:36Z</time></trkpt><trkpt lat="40.82358741908536" lon="15.736474311404217"><ele>690.0</ele><time>2026-04-04T09:57:37Z</time></trkpt><trkpt lat="40.823790604577084" lon="15.73632202192718"><ele>690.0</ele><time>2026-04-04T09:57:38Z</time></trkpt><trkpt lat="40.82399280645744" lon="15.7361695108609"><ele>690.0</ele><time>2026-04-04T09:57:39Z</time></trkpt><trkpt lat="40.824192406104224" lon="15.736010724863668"><ele>681.5</ele><time>2026-04-04T09:57:40Z</time></trkpt><trkpt lat="40.82438796593883" lon="15.735841656809026"><ele>673.0</ele><time>2026-04-04T09:57:41Z</time></trkpt><trkpt lat="40.82458136514019" lon="15.735663069720422"><ele>673.0</ele><time>2026-04-04T09:57:42Z</time></trkpt><trkpt lat="40.82476610728949" lon="15.735465383598228"><ele>673.0</ele><time>2026-04-04T09:57:43Z</time></trkpt><trkpt lat="40.824939569445334" lon="15.735248117480246"><ele>670.5</ele><time>2026-04-04T09:57:44Z</time></trkpt><trkpt lat="40.825095871411136" lon="15.735001470843521"><ele>668.0</ele><time>2026-04-04T09:57:45Z</time></trkpt><trkpt lat="40.82524069764758" lon="15.734733546764405"><ele>672.0</ele><time>2026-04-04T09:57:46Z</time></trkpt><trkpt lat="40.82536919379801" lon="15.734443561555247"><ele>676.0</ele><time>2026-04-04T09:57:47Z</time></trkpt><trkpt lat="40.825481430936705" lon="15.734135118969274"><ele>676.0</ele><time>2026-04-04T09:57:48Z</time></trkpt><trkpt lat="40.82557953673855" lon="15.733813896209941"><ele>676.0</ele><time>2026-04-04T09:57:49Z</time></trkpt><trkpt lat="40.82566249656952" lon="15.733485976201038"><ele>673.5</ele><time>2026-04-04T09:57:50Z</time></trkpt><trkpt lat="40.8257302059838" lon="15.733152995557367"><ele>671.0</ele><time>2026-04-04T09:57:51Z</time></trkpt><trkpt lat="40.82579191157279" lon="15.73282451368077"><ele>665.0</ele><time>2026-04-04T09:57:52Z</time></trkpt><trkpt lat="40.82585682961247" lon="15.7325004797085"><ele>659.0</ele><time>2026-04-04T09:57:53Z</time></trkpt><trkpt lat="40.82592503508592" lon="15.732181490465155"><ele>665.5</ele><time>2026-04-04T09:57:54Z</time></trkpt><trkpt lat="40.825990476827464" lon="15.73186371283299"><ele>672.0</ele><time>2026-04-04T09:57:55Z</time></trkpt><trkpt lat="40.8260522695447" lon="15.731551312815016"><ele>672.0</ele><time>2026-04-04T09:57:56Z</time></trkpt><trkpt lat="40.826116347687694" lon="15.73124453614203"><ele>672.0</ele><time>2026-04-04T09:57:57Z</time></trkpt><trkpt lat="40.82617789281998" lon="15.730936664582275"><ele>666.0</ele><time>2026-04-04T09:57:58Z</time></trkpt><trkpt lat="40.826241090087485" lon="15.730625777589827"><ele>660.0</ele><time>2026-04-04T09:57:59Z</time></trkpt><trkpt lat="40.826305232822136" lon="15.730306888676424"><ele>656.0</ele><time>2026-04-04T09:58:00Z</time></trkpt><trkpt lat="40.8263693887856" lon="15.729988939415902"><ele>652.0</ele><time>2026-04-04T09:58:01Z</time></trkpt><trkpt lat="40.826434485696275" lon="15.729664627801332"><ele>647.5</ele><time>2026-04-04T09:58:02Z</time></trkpt><trkpt lat="40.826499561776686" lon="15.729339367532681"><ele>643.0</ele><time>2026-04-04T09:58:03Z</time></trkpt><trkpt lat="40.826565057085745" lon="15.729011525221928"><ele>643.0</ele><time>2026-04-04T09:58:04Z</time></trkpt><trkpt lat="40.826631879471854" lon="15.728682346567101"><ele>643.0</ele><time>2026-04-04T09:58:05Z</time></trkpt><trkpt lat="40.82669878432019" lon="15.72835363024509"><ele>640.5</ele><time>2026-04-04T09:58:06Z</time></trkpt><trkpt lat="40.82676560182838" lon="15.728026844998265"><ele>638.0</ele><time>2026-04-04T09:58:07Z</time></trkpt><trkpt lat="40.82682946531962" lon="15.727701422487735"><ele>648.5</ele><time>2026-04-04T09:58:08Z</time></trkpt><trkpt lat="40.826896268640525" lon="15.727376314086131"><ele>659.0</ele><time>2026-04-04T09:58:09Z</time></trkpt><trkpt lat="40.82696896125914" lon="15.727058540867906"><ele>651.5</ele><time>2026-04-04T09:58:10Z</time></trkpt><trkpt lat="40.82704216451316" lon="15.72674482565589"><ele>644.0</ele><time>2026-04-04T09:58:11Z</time></trkpt><trkpt lat="40.82712381469166" lon="15.726435397078786"><ele>644.0</ele><time>2026-04-04T09:58:12Z</time></trkpt><trkpt lat="40.82721534418479" lon="15.726131146785606"><ele>644.0</ele><time>2026-04-04T09:58:13Z</time></trkpt><trkpt lat="40.82730916209733" lon="15.725828193497962"><ele>638.0</ele><time>2026-04-04T09:58:14Z</time></trkpt><trkpt lat="40.82740725657247" lon="15.725524640010194"><ele>632.0</ele><time>2026-04-04T09:58:15Z</time></trkpt><trkpt lat="40.82751292745249" lon="15.725222594946882"><ele>627.0</ele><time>2026-04-04T09:58:16Z</time></trkpt><trkpt lat="40.82761899794253" lon="15.724925164190113"><ele>622.0</ele><time>2026-04-04T09:58:17Z</time></trkpt><trkpt lat="40.827725088664494" lon="15.724628584513729"><ele>629.0</ele><time>2026-04-04T09:58:18Z</time></trkpt><trkpt lat="40.82783776108615" lon="15.72433336086326"><ele>636.0</ele><time>2026-04-04T09:58:19Z</time></trkpt><trkpt lat="40.8279537968474" lon="15.724041236944764"><ele>636.0</ele><time>2026-04-04T09:58:20Z</time></trkpt><trkpt lat="40.828072694788936" lon="15.723753923570397"><ele>636.0</ele><time>2026-04-04T09:58:21Z</time></trkpt><trkpt lat="40.828189639026554" lon="15.72346632207934"><ele>627.5</ele><time>2026-04-04T09:58:22Z</time></trkpt><trkpt lat="40.82831333657502" lon="15.723183393639339"><ele>619.0</ele><time>2026-04-04T09:58:23Z</time></trkpt><trkpt lat="40.828446408388324" lon="15.722912739316579"><ele>619.5</ele><time>2026-04-04T09:58:24Z</time></trkpt><trkpt lat="40.82859290921108" lon="15.72266159419318"><ele>620.0</ele><time>2026-04-04T09:58:25Z</time></trkpt><trkpt lat="40.82874782031222" lon="15.722426268030535"><ele>620.0</ele><time>2026-04-04T09:58:26Z</time></trkpt><trkpt lat="40.82890308511107" lon="15.72219270544056"><ele>620.0</ele><time>2026-04-04T09:58:27Z</time></trkpt><trkpt lat="40.82907731649719" lon="15.72198391538867"><ele>618.5</ele><time>2026-04-04T09:58:28Z</time></trkpt><trkpt lat="40.82923531331266" lon="15.721754194428165"><ele>617.0</ele><time>2026-04-04T09:58:29Z</time></trkpt><trkpt lat="40.82939501588452" lon="15.721520718931378"><ele>617.0</ele><time>2026-04-04T09:58:30Z</time></trkpt><trkpt lat="40.82955711820375" lon="15.721288594628385"><ele>617.0</ele><time>2026-04-04T09:58:31Z</time></trkpt><trkpt lat="40.829717859347284" lon="15.721057066881905"><ele>612.5</ele><time>2026-04-04T09:58:32Z</time></trkpt><trkpt lat="40.82987926900686" lon="15.72082379810706"><ele>608.0</ele><time>2026-04-04T09:58:33Z</time></trkpt><trkpt lat="40.83004126375891" lon="15.720590808529403"><ele>604.0</ele><time>2026-04-04T09:58:34Z</time></trkpt><trkpt lat="40.830204480765616" lon="15.72035793809557"><ele>600.0</ele><time>2026-04-04T09:58:35Z</time></trkpt><trkpt lat="40.830368719243125" lon="15.720128161504048"><ele>600.0</ele><time>2026-04-04T09:58:36Z</time></trkpt><trkpt lat="40.83053901658632" lon="15.719903018934337"><ele>600.0</ele><time>2026-04-04T09:58:37Z</time></trkpt><trkpt lat="40.83071497842235" lon="15.719685560180855"><ele>600.0</ele><time>2026-04-04T09:58:38Z</time></trkpt><trkpt lat="40.83090434589871" lon="15.719478323574965"><ele>600.0</ele><time>2026-04-04T09:58:39Z</time></trkpt><trkpt lat="40.83110049874011" lon="15.719281690702262"><ele>594.0</ele><time>2026-04-04T09:58:40Z</time></trkpt><trkpt lat="40.831305448636" lon="15.719099804783827"><ele>588.0</ele><time>2026-04-04T09:58:41Z</time></trkpt><trkpt lat="40.83151878474061" lon="15.71893411987077"><ele>588.0</ele><time>2026-04-04T09:58:42Z</time></trkpt><trkpt lat="40.83173246146828" lon="15.718761008766743"><ele>588.0</ele><time>2026-04-04T09:58:43Z</time></trkpt><trkpt lat="40.83196171810787" lon="15.718628685091883"><ele>581.5</ele><time>2026-04-04T09:58:44Z</time></trkpt><trkpt lat="40.83219873972984" lon="15.718509067075964"><ele>575.0</ele><time>2026-04-04T09:58:45Z</time></trkpt><trkpt lat="40.83243688765134" lon="15.718393174617123"><ele>578.0</ele><time>2026-04-04T09:58:46Z</time></trkpt><trkpt lat="40.83267670277213" lon="15.718278327270523"><ele>581.0</ele><time>2026-04-04T09:58:47Z</time></trkpt><trkpt lat="40.83291689064629" lon="15.718162127445668"><ele>581.0</ele><time>2026-04-04T09:58:48Z</time></trkpt><trkpt lat="40.83315521844831" lon="15.718038467386366"><ele>581.0</ele><time>2026-04-04T09:58:49Z</time></trkpt><trkpt lat="40.83339043203938" lon="15.717907009755546"><ele>582.5</ele><time>2026-04-04T09:58:50Z</time></trkpt><trkpt lat="40.833618324113274" lon="15.71775730198555"><ele>584.0</ele><time>2026-04-04T09:58:51Z</time></trkpt><trkpt lat="40.83383973964736" lon="15.717590732319987"><ele>584.0</ele><time>2026-04-04T09:58:52Z</time></trkpt><trkpt lat="40.83405357232002" lon="15.71740260064679"><ele>584.0</ele><time>2026-04-04T09:58:53Z</time></trkpt><trkpt lat="40.83426713324866" lon="15.71721506614075"><ele>585.0</ele><time>2026-04-04T09:58:54Z</time></trkpt><trkpt lat="40.83446487357357" lon="15.717006835283991"><ele>586.0</ele><time>2026-04-04T09:58:55Z</time></trkpt><trkpt lat="40.834654483061406" lon="15.716801983502785"><ele>586.0</ele><time>2026-04-04T09:58:56Z</time></trkpt><trkpt lat="40.83484015190717" lon="15.716601075112747"><ele>586.0</ele><time>2026-04-04T09:58:57Z</time></trkpt><trkpt lat="40.8350205884239" lon="15.716405605485635"><ele>586.5</ele><time>2026-04-04T09:58:58Z</time></trkpt><trkpt lat="40.83519734602454" lon="15.716216300938594"><ele>587.0</ele><time>2026-04-04T09:58:59Z</time></trkpt><trkpt lat="40.83537404779672" lon="15.716035808792931"><ele>587.0</ele><time>2026-04-04T09:59:00Z</time></trkpt><trkpt lat="40.83554916162249" lon="15.71586607300233"><ele>587.0</ele><time>2026-04-04T09:59:01Z</time></trkpt><trkpt lat="40.835724697516575" lon="15.715708545866223"><ele>587.0</ele><time>2026-04-04T09:59:02Z</time></trkpt><trkpt lat="40.83590317496458" lon="15.715564298527404"><ele>588.6666666666666</ele><time>2026-04-04T09:59:03Z</time></trkpt><trkpt lat="40.836081982191025" lon="15.715431759043556"><ele>590.3333333333334</ele><time>2026-04-04T09:59:04Z</time></trkpt><trkpt lat="40.83626741261089" lon="15.715309071115563"><ele>592.0</ele><time>2026-04-04T09:59:05Z</time></trkpt><trkpt lat="40.83645932838957" lon="15.71519239079012"><ele>589.3333333333334</ele><time>2026-04-04T09:59:06Z</time></trkpt><trkpt lat="40.836656485340285" lon="15.715081735364434"><ele>586.6666666666666</ele><time>2026-04-04T09:59:07Z</time></trkpt><trkpt lat="40.83685653795692" lon="15.71496945474991"><ele>584.0</ele><time>2026-04-04T09:59:08Z</time></trkpt><trkpt lat="40.837056002031886" lon="15.714857504441401"><ele>584.0</ele><time>2026-04-04T09:59:09Z</time></trkpt><trkpt lat="40.83724996183644" lon="15.714725111029411"><ele>584.0</ele><time>2026-04-04T09:59:10Z</time></trkpt><trkpt lat="40.83745577169209" lon="15.714618298408396"><ele>584.0</ele><time>2026-04-04T09:59:11Z</time></trkpt><trkpt lat="40.837657738596874" lon="15.714506325185424"><ele>582.3333333333333</ele><time>2026-04-04T09:59:12Z</time></trkpt><trkpt lat="40.83786008178246" lon="15.714389297787797"><ele>580.6666666666666</ele><time>2026-04-04T09:59:13Z</time></trkpt><trkpt lat="40.83806714366821" lon="15.714276829817663"><ele>579.0</ele><time>2026-04-04T09:59:14Z</time></trkpt><trkpt lat="40.838273887087645" lon="15.714161323423566"><ele>578.5</ele><time>2026-04-04T09:59:15Z</time></trkpt><trkpt lat="40.83848112956039" lon="15.714045650142591"><ele>578.0</ele><time>2026-04-04T09:59:16Z</time></trkpt><trkpt lat="40.83869102415179" lon="15.713931642592193"><ele>578.0</ele><time>2026-04-04T09:59:17Z</time></trkpt><trkpt lat="40.83889965353721" lon="15.713811131399542"><ele>578.0</ele><time>2026-04-04T09:59:18Z</time></trkpt><trkpt lat="40.83911422062877" lon="15.713704909405253"><ele>577.5</ele><time>2026-04-04T09:59:19Z</time></trkpt><trkpt lat="40.83932363034267" lon="15.713584967991439"><ele>577.0</ele><time>2026-04-04T09:59:20Z</time></trkpt><trkpt lat="40.83951536351769" lon="15.713419945493063"><ele>572.5</ele><time>2026-04-04T09:59:21Z</time></trkpt><trkpt lat="40.839712555542945" lon="15.713276002041683"><ele>568.0</ele><time>2026-04-04T09:59:22Z</time></trkpt><trkpt lat="40.83991550043757" lon="15.71312753679111"><ele>568.0</ele><time>2026-04-04T09:59:23Z</time></trkpt><trkpt lat="40.84011942526559" lon="15.712971659945111"><ele>568.0</ele><time>2026-04-04T09:59:24Z</time></trkpt><trkpt lat="40.84031692218368" lon="15.712807847718409"><ele>564.5</ele><time>2026-04-04T09:59:25Z</time></trkpt><trkpt lat="40.84051459472569" lon="15.712639411976378"><ele>561.0</ele><time>2026-04-04T09:59:26Z</time></trkpt><trkpt lat="40.84071583267829" lon="15.712472365354778"><ele>561.0</ele><time>2026-04-04T09:59:27Z</time></trkpt><trkpt lat="40.840918234374186" lon="15.712302122293833"><ele>561.0</ele><time>2026-04-04T09:59:28Z</time></trkpt><trkpt lat="40.84112205289731" lon="15.712130555278446"><ele>560.0</ele><time>2026-04-04T09:59:29Z</time></trkpt><trkpt lat="40.84132658873247" lon="15.711957311983461"><ele>559.0</ele><time>2026-04-04T09:59:30Z</time></trkpt><trkpt lat="40.84153468335932" lon="15.711786243607879"><ele>556.5</ele><time>2026-04-04T09:59:31Z</time></trkpt><trkpt lat="40.84174364357239" lon="15.711614575771137"><ele>554.0</ele><time>2026-04-04T09:59:32Z</time></trkpt><trkpt lat="40.8419511824094" lon="15.711440428639023"><ele>552.5</ele><time>2026-04-04T09:59:33Z</time></trkpt><trkpt lat="40.842160253594926" lon="15.71126878846649"><ele>551.0</ele><time>2026-04-04T09:59:34Z</time></trkpt><trkpt lat="40.84236587473695" lon="15.711093123125224"><ele>547.5</ele><time>2026-04-04T09:59:35Z</time></trkpt><trkpt lat="40.84256703190947" lon="15.710913524680993"><ele>544.0</ele><time>2026-04-04T09:59:36Z</time></trkpt><trkpt lat="40.84276084226864" lon="15.710733710049864"><ele>544.0</ele><time>2026-04-04T09:59:37Z</time></trkpt><trkpt lat="40.84295229654132" lon="15.710551123770655"><ele>544.0</ele><time>2026-04-04T09:59:38Z</time></trkpt><trkpt lat="40.84312711807202" lon="15.710352030638262"><ele>540.0</ele><time>2026-04-04T09:59:39Z</time></trkpt><trkpt lat="40.84329650132034" lon="15.710146047163432"><ele>536.0</ele><time>2026-04-04T09:59:40Z</time></trkpt><trkpt lat="40.84344777409001" lon="15.709916251750057"><ele>535.5</ele><time>2026-04-04T09:59:41Z</time></trkpt><trkpt lat="40.84358053789045" lon="15.709668830478119"><ele>535.0</ele><time>2026-04-04T09:59:42Z</time></trkpt><trkpt lat="40.84370367638027" lon="15.709406859914118"><ele>532.0</ele><time>2026-04-04T09:59:43Z</time></trkpt><trkpt lat="40.84382275631986" lon="15.709144301751088"><ele>529.0</ele><time>2026-04-04T09:59:44Z</time></trkpt><trkpt lat="40.84393400392164" lon="15.70887513667744"><ele>529.0</ele><time>2026-04-04T09:59:45Z</time></trkpt><trkpt lat="40.84404938003243" lon="15.708608451303869"><ele>529.0</ele><time>2026-04-04T09:59:46Z</time></trkpt><trkpt lat="40.84415841133282" lon="15.70833705880036"><ele>528.5</ele><time>2026-04-04T09:59:47Z</time></trkpt><trkpt lat="40.84426801480436" lon="15.708062306122565"><ele>528.0</ele><time>2026-04-04T09:59:48Z</time></trkpt><trkpt lat="40.84438449727554" lon="15.70778321362162"><ele>528.0</ele><time>2026-04-04T09:59:49Z</time></trkpt><trkpt lat="40.84450212166365" lon="15.707504419083866"><ele>528.0</ele><time>2026-04-04T09:59:50Z</time></trkpt><trkpt lat="40.84462114496905" lon="15.70722224812148"><ele>528.0</ele><time>2026-04-04T09:59:51Z</time></trkpt><trkpt lat="40.844741512419375" lon="15.706934856265468"><ele>528.0</ele><time>2026-04-04T09:59:52Z</time></trkpt><trkpt lat="40.844868262328156" lon="15.70664895902605"><ele>527.0</ele><time>2026-04-04T09:59:53Z</time></trkpt><trkpt lat="40.844998187906256" lon="15.706359802060296"><ele>526.0</ele><time>2026-04-04T09:59:54Z</time></trkpt><trkpt lat="40.84514272634314" lon="15.706082701666313"><ele>529.5</ele><time>2026-04-04T09:59:55Z</time></trkpt><trkpt lat="40.84530323224839" lon="15.705821149828198"><ele>533.0</ele><time>2026-04-04T09:59:56Z</time></trkpt><trkpt lat="40.84548230833274" lon="15.705584416562122"><ele>533.0</ele><time>2026-04-04T09:59:57Z</time></trkpt><trkpt lat="40.845674043319065" lon="15.70537227307548"><ele>533.0</ele><time>2026-04-04T09:59:58Z</time></trkpt><trkpt lat="40.8458790616102" lon="15.705188182015116"><ele>530.0</ele><time>2026-04-04T09:59:59Z</time></trkpt><trkpt lat="40.84609606129297" lon="15.705030616840407"><ele>527.0</ele><time>2026-04-04T10:00:00Z</time></trkpt><trkpt lat="40.84631709956757" lon="15.704895197580793"><ele>527.0</ele><time>2026-04-04T10:00:01Z</time></trkpt><trkpt lat="40.84654928468855" lon="15.704788462062814"><ele>527.0</ele><time>2026-04-04T10:00:02Z</time></trkpt><trkpt lat="40.846784908830486" lon="15.704705507091427"><ele>528.0</ele><time>2026-04-04T10:00:03Z</time></trkpt><trkpt lat="40.84702828863286" lon="15.704649780251678"><ele>529.0</ele><time>2026-04-04T10:00:04Z</time></trkpt><trkpt lat="40.847272678229494" lon="15.70461516616386"><ele>529.0</ele><time>2026-04-04T10:00:05Z</time></trkpt><trkpt lat="40.84751852630907" lon="15.704586007968102"><ele>529.0</ele><time>2026-04-04T10:00:06Z</time></trkpt><trkpt lat="40.84776561066091" lon="15.704564252261614"><ele>528.5</ele><time>2026-04-04T10:00:07Z</time></trkpt><trkpt lat="40.8480171550371" lon="15.704538950962853"><ele>528.0</ele><time>2026-04-04T10:00:08Z</time></trkpt><trkpt lat="40.84826846408227" lon="15.704512438884516"><ele>526.5</ele><time>2026-04-04T10:00:09Z</time></trkpt><trkpt lat="40.84852389061516" lon="15.704484787913835"><ele>525.0</ele><time>2026-04-04T10:00:10Z</time></trkpt><trkpt lat="40.84878227656145" lon="15.704455271004637"><ele>525.0</ele><time>2026-04-04T10:00:11Z</time></trkpt><trkpt lat="40.8490435530893" lon="15.704432768264926"><ele>525.0</ele><time>2026-04-04T10:00:12Z</time></trkpt><trkpt lat="40.849305525658245" lon="15.704404921987187"><ele>515.5</ele><time>2026-04-04T10:00:13Z</time></trkpt><trkpt lat="40.849569356722114" lon="15.704377437018007"><ele>506.0</ele><time>2026-04-04T10:00:14Z</time></trkpt><trkpt lat="40.849836647784336" lon="15.70435129234312"><ele>506.0</ele><time>2026-04-04T10:00:15Z</time></trkpt><trkpt lat="40.850105408189144" lon="15.704325766405338"><ele>506.0</ele><time>2026-04-04T10:00:16Z</time></trkpt><trkpt lat="40.85037537883045" lon="15.704300424354031"><ele>501.0</ele><time>2026-04-04T10:00:17Z</time></trkpt><trkpt lat="40.85064669743612" lon="15.704271700605682"><ele>496.0</ele><time>2026-04-04T10:00:18Z</time></trkpt><trkpt lat="40.85091887689619" lon="15.704250036885247"><ele>490.5</ele><time>2026-04-04T10:00:19Z</time></trkpt><trkpt lat="40.85119212029159" lon="15.704219870938752"><ele>485.0</ele><time>2026-04-04T10:00:20Z</time></trkpt><trkpt lat="40.851467398777444" lon="15.704196904393434"><ele>485.0</ele><time>2026-04-04T10:00:21Z</time></trkpt><trkpt lat="40.851741258633325" lon="15.70417157180314"><ele>485.0</ele><time>2026-04-04T10:00:22Z</time></trkpt><trkpt lat="40.85201559632956" lon="15.704144645032121"><ele>482.5</ele><time>2026-04-04T10:00:23Z</time></trkpt><trkpt lat="40.85228824949582" lon="15.70410988310492"><ele>480.0</ele><time>2026-04-04T10:00:24Z</time></trkpt><trkpt lat="40.85256119846317" lon="15.704079685594264"><ele>480.5</ele><time>2026-04-04T10:00:25Z</time></trkpt><trkpt lat="40.8528327370632" lon="15.704050112152713"><ele>481.0</ele><time>2026-04-04T10:00:26Z</time></trkpt><trkpt lat="40.853098449043856" lon="15.704018063793598"><ele>481.0</ele><time>2026-04-04T10:00:27Z</time></trkpt><trkpt lat="40.853351571256525" lon="15.703978622490915"><ele>481.0</ele><time>2026-04-04T10:00:28Z</time></trkpt><trkpt lat="40.85359426001496" lon="15.703923539325617"><ele>484.0</ele><time>2026-04-04T10:00:29Z</time></trkpt><trkpt lat="40.853830530429384" lon="15.703857659005282"><ele>487.0</ele><time>2026-04-04T10:00:30Z</time></trkpt><trkpt lat="40.85405735692234" lon="15.703774426087033"><ele>487.0</ele><time>2026-04-04T10:00:31Z</time></trkpt><trkpt lat="40.854279470067326" lon="15.703681485193671"><ele>487.0</ele><time>2026-04-04T10:00:32Z</time></trkpt><trkpt lat="40.854491811932576" lon="15.703575756558804"><ele>491.6666666666667</ele><time>2026-04-04T10:00:33Z</time></trkpt><trkpt lat="40.85469517167509" lon="15.703462880715573"><ele>496.33333333333337</ele><time>2026-04-04T10:00:34Z</time></trkpt><trkpt lat="40.85489191589756" lon="15.703340411745014"><ele>501.0</ele><time>2026-04-04T10:00:35Z</time></trkpt><trkpt lat="40.85508023606572" lon="15.70320951493707"><ele>503.33333333333337</ele><time>2026-04-04T10:00:36Z</time></trkpt><trkpt lat="40.85526512471927" lon="15.703066819506247"><ele>505.6666666666667</ele><time>2026-04-04T10:00:37Z</time></trkpt><trkpt lat="40.85543937628075" lon="15.702918802792572"><ele>508.0</ele><time>2026-04-04T10:00:38Z</time></trkpt><trkpt lat="40.85560182528074" lon="15.702780839675121"><ele>508.0</ele><time>2026-04-04T10:00:39Z</time></trkpt><trkpt lat="40.85576454958385" lon="15.70263315333847"><ele>508.0</ele><time>2026-04-04T10:00:40Z</time></trkpt><trkpt lat="40.8559276755478" lon="15.702475159854089"><ele>508.0</ele><time>2026-04-04T10:00:41Z</time></trkpt><trkpt lat="40.85609102699159" lon="15.702314722893423"><ele>508.6666666666667</ele><time>2026-04-04T10:00:42Z</time></trkpt><trkpt lat="40.856257088680124" lon="15.702153392605378"><ele>509.33333333333337</ele><time>2026-04-04T10:00:43Z</time></trkpt><trkpt lat="40.85642453607246" lon="15.70198960949157"><ele>510.0</ele><time>2026-04-04T10:00:44Z</time></trkpt><trkpt lat="40.856593717548854" lon="15.701827738061906"><ele>510.0</ele><time>2026-04-04T10:00:45Z</time></trkpt><trkpt lat="40.85675916441672" lon="15.701667704826528"><ele>510.0</ele><time>2026-04-04T10:00:46Z</time></trkpt><trkpt lat="40.85691298734006" lon="15.701520494722608"><ele>510.0</ele><time>2026-04-04T10:00:47Z</time></trkpt><trkpt lat="40.857051923426155" lon="15.701387393244014"><ele>511.66666666666663</ele><time>2026-04-04T10:00:48Z</time></trkpt><trkpt lat="40.857183465561285" lon="15.701253653149355"><ele>513.3333333333333</ele><time>2026-04-04T10:00:49Z</time></trkpt><trkpt lat="40.85732449227077" lon="15.701113861568217"><ele>515.0</ele><time>2026-04-04T10:00:50Z</time></trkpt><trkpt lat="40.857479463781" lon="15.700984766592738"><ele>516.3333333333333</ele><time>2026-04-04T10:00:51Z</time></trkpt><trkpt lat="40.85763106902865" lon="15.700836969677443"><ele>517.6666666666666</ele><time>2026-04-04T10:00:52Z</time></trkpt><trkpt lat="40.857776108034244" lon="15.70067035033711"><ele>519.0</ele><time>2026-04-04T10:00:53Z</time></trkpt><trkpt lat="40.85793247357991" lon="15.700518057944842"><ele>519.0</ele><time>2026-04-04T10:00:54Z</time></trkpt><trkpt lat="40.858096475497966" lon="15.700362398180784"><ele>519.0</ele><time>2026-04-04T10:00:55Z</time></trkpt><trkpt lat="40.858261660460315" lon="15.700204242966018"><ele>519.0</ele><time>2026-04-04T10:00:56Z</time></trkpt><trkpt lat="40.85843652812718" lon="15.700046752082825"><ele>518.6666666666666</ele><time>2026-04-04T10:00:57Z</time></trkpt><trkpt lat="40.85861633853872" lon="15.699890588985584"><ele>518.3333333333333</ele><time>2026-04-04T10:00:58Z</time></trkpt><trkpt lat="40.858803518075526" lon="15.699739626988961"><ele>518.0</ele><time>2026-04-04T10:00:59Z</time></trkpt><trkpt lat="40.859001166931684" lon="15.699594025115164"><ele>518.0</ele><time>2026-04-04T10:01:00Z</time></trkpt><trkpt lat="40.8592030615133" lon="15.699457635025858"><ele>518.0</ele><time>2026-04-04T10:01:01Z</time></trkpt><trkpt lat="40.859407099301144" lon="15.69933094344742"><ele>517.5</ele><time>2026-04-04T10:01:02Z</time></trkpt><trkpt lat="40.85962084906731" lon="15.699223966615445"><ele>517.0</ele><time>2026-04-04T10:01:03Z</time></trkpt><trkpt lat="40.85983307318501" lon="15.699121370967394"><ele>517.0</ele><time>2026-04-04T10:01:04Z</time></trkpt><trkpt lat="40.860050814593095" lon="15.699030546122946"><ele>517.0</ele><time>2026-04-04T10:01:05Z</time></trkpt><trkpt lat="40.86026817427399" lon="15.69895022301528"><ele>515.5</ele><time>2026-04-04T10:01:06Z</time></trkpt><trkpt lat="40.86048589274872" lon="15.6988736313542"><ele>514.0</ele><time>2026-04-04T10:01:07Z</time></trkpt><trkpt lat="40.86070418974492" lon="15.698799693175316"><ele>514.0</ele><time>2026-04-04T10:01:08Z</time></trkpt><trkpt lat="40.86092332760359" lon="15.698727643624858"><ele>514.0</ele><time>2026-04-04T10:01:09Z</time></trkpt><trkpt lat="40.86114196962294" lon="15.698657751666552"><ele>510.5</ele><time>2026-04-04T10:01:10Z</time></trkpt><trkpt lat="40.861361006489716" lon="15.69858892425398"><ele>507.0</ele><time>2026-04-04T10:01:11Z</time></trkpt><trkpt lat="40.861578693583034" lon="15.698513848808933"><ele>512.5</ele><time>2026-04-04T10:01:12Z</time></trkpt><trkpt lat="40.86179689009469" lon="15.69844052910051"><ele>518.0</ele><time>2026-04-04T10:01:13Z</time></trkpt><trkpt lat="40.86201526493392" lon="15.698368201143902"><ele>518.0</ele><time>2026-04-04T10:01:14Z</time></trkpt><trkpt lat="40.86223643624247" lon="15.69829704348671"><ele>518.0</ele><time>2026-04-04T10:01:15Z</time></trkpt><trkpt lat="40.86245797471531" lon="15.698220120908074"><ele>524.0</ele><time>2026-04-04T10:01:16Z</time></trkpt><trkpt lat="40.86267939409592" lon="15.698140353409025"><ele>530.0</ele><time>2026-04-04T10:01:17Z</time></trkpt><trkpt lat="40.86290318673739" lon="15.69806312193156"><ele>530.0</ele><time>2026-04-04T10:01:18Z</time></trkpt><trkpt lat="40.86312907886662" lon="15.697987990439152"><ele>530.0</ele><time>2026-04-04T10:01:19Z</time></trkpt><trkpt lat="40.86335671093389" lon="15.697911437388976"><ele>532.5</ele><time>2026-04-04T10:01:20Z</time></trkpt><trkpt lat="40.86358556527346" lon="15.697837280594557"><ele>535.0</ele><time>2026-04-04T10:01:21Z</time></trkpt><trkpt lat="40.86381503333754" lon="15.6977650857231"><ele>530.5</ele><time>2026-04-04T10:01:22Z</time></trkpt><trkpt lat="40.86404396164044" lon="15.697691551579203"><ele>526.0</ele><time>2026-04-04T10:01:23Z</time></trkpt><trkpt lat="40.86427456998945" lon="15.697614698122488"><ele>526.0</ele><time>2026-04-04T10:01:24Z</time></trkpt><trkpt lat="40.864504421726835" lon="15.69753796186517"><ele>526.0</ele><time>2026-04-04T10:01:25Z</time></trkpt><trkpt lat="40.864734022868625" lon="15.69745852523221"><ele>526.0</ele><time>2026-04-04T10:01:26Z</time></trkpt><trkpt lat="40.86496134347417" lon="15.697371627408367"><ele>526.0</ele><time>2026-04-04T10:01:27Z</time></trkpt><trkpt lat="40.86518782127337" lon="15.69727760204232"><ele>528.0</ele><time>2026-04-04T10:01:28Z</time></trkpt><trkpt lat="40.86541161935291" lon="15.697176413151373"><ele>530.0</ele><time>2026-04-04T10:01:29Z</time></trkpt><trkpt lat="40.86563384697779" lon="15.69707137389191"><ele>530.0</ele><time>2026-04-04T10:01:30Z</time></trkpt><trkpt lat="40.865857143955736" lon="15.696960342052312"><ele>530.0</ele><time>2026-04-04T10:01:31Z</time></trkpt><trkpt lat="40.866079617018855" lon="15.696850294815034"><ele>524.0</ele><time>2026-04-04T10:01:32Z</time></trkpt><trkpt lat="40.86630068161954" lon="15.696734439753218"><ele>518.0</ele><time>2026-04-04T10:01:33Z</time></trkpt><trkpt lat="40.86652250172531" lon="15.696617970611998"><ele>518.0</ele><time>2026-04-04T10:01:34Z</time></trkpt><trkpt lat="40.866743239596126" lon="15.696507641836478"><ele>518.0</ele><time>2026-04-04T10:01:35Z</time></trkpt><trkpt lat="40.86696311410121" lon="15.696399142762681"><ele>514.5</ele><time>2026-04-04T10:01:36Z</time></trkpt><trkpt lat="40.867180985558065" lon="15.696280510098731"><ele>511.0</ele><time>2026-04-04T10:01:37Z</time></trkpt><trkpt lat="40.86739851560921" lon="15.696163870613484"><ele>503.5</ele><time>2026-04-04T10:01:38Z</time></trkpt><trkpt lat="40.86761286863933" lon="15.696046327803899"><ele>496.0</ele><time>2026-04-04T10:01:39Z</time></trkpt><trkpt lat="40.86782627570025" lon="15.695933633288128"><ele>496.0</ele><time>2026-04-04T10:01:40Z</time></trkpt><trkpt lat="40.868042181563" lon="15.695820149094583"><ele>496.0</ele><time>2026-04-04T10:01:41Z</time></trkpt><trkpt lat="40.868258223024974" lon="15.695709410748096"><ele>500.5</ele><time>2026-04-04T10:01:42Z</time></trkpt><trkpt lat="40.86847378160389" lon="15.69559496742929"><ele>505.0</ele><time>2026-04-04T10:01:43Z</time></trkpt><trkpt lat="40.8686882119169" lon="15.695483942141301"><ele>505.0</ele><time>2026-04-04T10:01:44Z</time></trkpt><trkpt lat="40.86890171517331" lon="15.69537274081995"><ele>505.0</ele><time>2026-04-04T10:01:45Z</time></trkpt><trkpt lat="40.86911394518501" lon="15.6952614941001"><ele>518.5</ele><time>2026-04-04T10:01:46Z</time></trkpt><trkpt lat="40.86932332959734" lon="15.695150989665038"><ele>532.0</ele><time>2026-04-04T10:01:47Z</time></trkpt><trkpt lat="40.869532240968766" lon="15.695040636753625"><ele>532.0</ele><time>2026-04-04T10:01:48Z</time></trkpt><trkpt lat="40.86974192949563" lon="15.694930079868948"><ele>532.0</ele><time>2026-04-04T10:01:49Z</time></trkpt><trkpt lat="40.86995053167782" lon="15.694819626840042"><ele>532.3333333333334</ele><time>2026-04-04T10:01:50Z</time></trkpt><trkpt lat="40.870158152163434" lon="15.694711331281457"><ele>532.6666666666666</ele><time>2026-04-04T10:01:51Z</time></trkpt><trkpt lat="40.87036181558253" lon="15.69460254324862"><ele>533.0</ele><time>2026-04-04T10:01:52Z</time></trkpt><trkpt lat="40.87056386455701" lon="15.694488810790112"><ele>533.3333333333333</ele><time>2026-04-04T10:01:53Z</time></trkpt><trkpt lat="40.87076467245163" lon="15.694370296855846"><ele>533.6666666666666</ele><time>2026-04-04T10:01:54Z</time></trkpt><trkpt lat="40.87096476549259" lon="15.694255547452656"><ele>534.0</ele><time>2026-04-04T10:01:55Z</time></trkpt><trkpt lat="40.87116207817308" lon="15.69413693290042"><ele>535.0</ele><time>2026-04-04T10:01:56Z</time></trkpt><trkpt lat="40.8713615028242" lon="15.69402761016576"><ele>536.0</ele><time>2026-04-04T10:01:57Z</time></trkpt><trkpt lat="40.87156303350303" lon="15.693923648359043"><ele>537.0</ele><time>2026-04-04T10:01:58Z</time></trkpt><trkpt lat="40.87176477953398" lon="15.693830131900183"><ele>537.0</ele><time>2026-04-04T10:01:59Z</time></trkpt><trkpt lat="40.871970034577636" lon="15.693739863175406"><ele>537.0</ele><time>2026-04-04T10:02:00Z</time></trkpt><trkpt lat="40.872172337605825" lon="15.693647290634487"><ele>537.0</ele><time>2026-04-04T10:02:01Z</time></trkpt><trkpt lat="40.87237459444198" lon="15.693548906642299"><ele>537.0</ele><time>2026-04-04T10:02:02Z</time></trkpt><trkpt lat="40.87257646473999" lon="15.693457078678408"><ele>537.0</ele><time>2026-04-04T10:02:03Z</time></trkpt><trkpt lat="40.872774807475906" lon="15.693378940967728"><ele>537.0</ele><time>2026-04-04T10:02:04Z</time></trkpt><trkpt lat="40.87298249780685" lon="15.693322408535574"><ele>538.3333333333334</ele><time>2026-04-04T10:02:05Z</time></trkpt><trkpt lat="40.873189605777796" lon="15.69328476471354"><ele>539.6666666666667</ele><time>2026-04-04T10:02:06Z</time></trkpt><trkpt lat="40.873399740261995" lon="15.693275607333623"><ele>541.0</ele><time>2026-04-04T10:02:07Z</time></trkpt><trkpt lat="40.87361152426188" lon="15.693288284816083"><ele>541.3333333333334</ele><time>2026-04-04T10:02:08Z</time></trkpt><trkpt lat="40.87382556689292" lon="15.693328512894439"><ele>541.6666666666666</ele><time>2026-04-04T10:02:09Z</time></trkpt><trkpt lat="40.87403656781363" lon="15.693390282651341"><ele>542.0</ele><time>2026-04-04T10:02:10Z</time></trkpt><trkpt lat="40.874247046632725" lon="15.693478830708003"><ele>543.0</ele><time>2026-04-04T10:02:11Z</time></trkpt><trkpt lat="40.87445429259134" lon="15.693587729708527"><ele>544.0</ele><time>2026-04-04T10:02:12Z</time></trkpt><trkpt lat="40.87465709386104" lon="15.693716091893842"><ele>545.0</ele><time>2026-04-04T10:02:13Z</time></trkpt><trkpt lat="40.874855196621894" lon="15.693857467303868"><ele>545.0</ele><time>2026-04-04T10:02:14Z</time></trkpt><trkpt lat="40.87504870603093" lon="15.694010179079923"><ele>545.0</ele><time>2026-04-04T10:02:15Z</time></trkpt><trkpt lat="40.8752410896328" lon="15.694165918941295"><ele>546.5</ele><time>2026-04-04T10:02:16Z</time></trkpt><trkpt lat="40.87543668725335" lon="15.694318801993136"><ele>548.0</ele><time>2026-04-04T10:02:17Z</time></trkpt><trkpt lat="40.87562813589901" lon="15.694473179004321"><ele>548.0</ele><time>2026-04-04T10:02:18Z</time></trkpt><trkpt lat="40.875821439968455" lon="15.694626740554058"><ele>548.0</ele><time>2026-04-04T10:02:19Z</time></trkpt><trkpt lat="40.876019743721166" lon="15.694781938726223"><ele>543.0</ele><time>2026-04-04T10:02:20Z</time></trkpt><trkpt lat="40.87621690258575" lon="15.694942070404803"><ele>538.0</ele><time>2026-04-04T10:02:21Z</time></trkpt><trkpt lat="40.87642140733134" lon="15.695092358495215"><ele>538.0</ele><time>2026-04-04T10:02:22Z</time></trkpt><trkpt lat="40.876620881045035" lon="15.695244162897065"><ele>538.0</ele><time>2026-04-04T10:02:23Z</time></trkpt><trkpt lat="40.87682655283193" lon="15.695382082761009"><ele>540.5</ele><time>2026-04-04T10:02:24Z</time></trkpt><trkpt lat="40.87704089937181" lon="15.69550584118205"><ele>543.0</ele><time>2026-04-04T10:02:25Z</time></trkpt><trkpt lat="40.877259834091745" lon="15.695612084126136"><ele>543.0</ele><time>2026-04-04T10:02:26Z</time></trkpt><trkpt lat="40.87748929460977" lon="15.695696313571155"><ele>543.0</ele><time>2026-04-04T10:02:27Z</time></trkpt><trkpt lat="40.87771898228392" lon="15.695762502418523"><ele>545.5</ele><time>2026-04-04T10:02:28Z</time></trkpt><trkpt lat="40.8779510884363" lon="15.695792719858387"><ele>548.0</ele><time>2026-04-04T10:02:29Z</time></trkpt><trkpt lat="40.87818153879231" lon="15.695795050868938"><ele>548.0</ele><time>2026-04-04T10:02:30Z</time></trkpt><trkpt lat="40.87840956042823" lon="15.6957699771116"><ele>548.0</ele><time>2026-04-04T10:02:31Z</time></trkpt><trkpt lat="40.87863547211714" lon="15.695721385862894"><ele>551.0</ele><time>2026-04-04T10:02:32Z</time></trkpt><trkpt lat="40.878854788413754" lon="15.695642012209383"><ele>554.0</ele><time>2026-04-04T10:02:33Z</time></trkpt><trkpt lat="40.879067038162844" lon="15.69553932650963"><ele>554.5</ele><time>2026-04-04T10:02:34Z</time></trkpt><trkpt lat="40.87927100090289" lon="15.695410788612213"><ele>555.0</ele><time>2026-04-04T10:02:35Z</time></trkpt><trkpt lat="40.879466949570634" lon="15.69526331623468"><ele>554.3333333333334</ele><time>2026-04-04T10:02:36Z</time></trkpt><trkpt lat="40.87965398465879" lon="15.695097092854642"><ele>553.6666666666667</ele><time>2026-04-04T10:02:37Z</time></trkpt><trkpt lat="40.879834549121384" lon="15.694921528097899"><ele>553.0</ele><time>2026-04-04T10:02:38Z</time></trkpt><trkpt lat="40.88000992651565" lon="15.694738756464192"><ele>553.6666666666667</ele><time>2026-04-04T10:02:39Z</time></trkpt><trkpt lat="40.88018236894206" lon="15.694548864143085"><ele>554.3333333333334</ele><time>2026-04-04T10:02:40Z</time></trkpt><trkpt lat="40.88035238102937" lon="15.694353821986377"><ele>555.0</ele><time>2026-04-04T10:02:41Z</time></trkpt><trkpt lat="40.880521971168506" lon="15.694158903151045"><ele>555.0</ele><time>2026-04-04T10:02:42Z</time></trkpt><trkpt lat="40.88069283860985" lon="15.693966084918426"><ele>555.0</ele><time>2026-04-04T10:02:43Z</time></trkpt><trkpt lat="40.880863837039854" lon="15.6937749043366"><ele>555.0</ele><time>2026-04-04T10:02:44Z</time></trkpt><trkpt lat="40.8810351377111" lon="15.693583006340953"><ele>556.3333333333334</ele><time>2026-04-04T10:02:45Z</time></trkpt><trkpt lat="40.88120706323698" lon="15.693393013343888"><ele>557.6666666666667</ele><time>2026-04-04T10:02:46Z</time></trkpt><trkpt lat="40.881378109526366" lon="15.693200049388937"><ele>559.0</ele><time>2026-04-04T10:02:47Z</time></trkpt><trkpt lat="40.88155392801922" lon="15.693014176434522"><ele>559.0</ele><time>2026-04-04T10:02:48Z</time></trkpt><trkpt lat="40.88172671964344" lon="15.692822716084141"><ele>559.0</ele><time>2026-04-04T10:02:49Z</time></trkpt><trkpt lat="40.88190364812513" lon="15.69263496900039"><ele>561.0</ele><time>2026-04-04T10:02:50Z</time></trkpt><trkpt lat="40.88208098467083" lon="15.692446570559692"><ele>563.0</ele><time>2026-04-04T10:02:51Z</time></trkpt><trkpt lat="40.88225556404142" lon="15.692252233244867"><ele>563.0</ele><time>2026-04-04T10:02:52Z</time></trkpt><trkpt lat="40.882428344608705" lon="15.6920545693144"><ele>563.0</ele><time>2026-04-04T10:02:53Z</time></trkpt><trkpt lat="40.88260055669001" lon="15.691853523303203"><ele>564.0</ele><time>2026-04-04T10:02:54Z</time></trkpt><trkpt lat="40.88277231402263" lon="15.6916565158224"><ele>565.0</ele><time>2026-04-04T10:02:55Z</time></trkpt><trkpt lat="40.882945400956835" lon="15.691458554030495"><ele>565.0</ele><time>2026-04-04T10:02:56Z</time></trkpt><trkpt lat="40.883135165928934" lon="15.69128367937018"><ele>565.0</ele><time>2026-04-04T10:02:57Z</time></trkpt><trkpt lat="40.88331982647038" lon="15.691102383287411"><ele>563.5</ele><time>2026-04-04T10:02:58Z</time></trkpt><trkpt lat="40.88350802436203" lon="15.690928061943959"><ele>562.0</ele><time>2026-04-04T10:02:59Z</time></trkpt><trkpt lat="40.883698346852796" lon="15.690748535068918"><ele>562.0</ele><time>2026-04-04T10:03:00Z</time></trkpt><trkpt lat="40.883905197134695" lon="15.69059822663381"><ele>562.0</ele><time>2026-04-04T10:03:01Z</time></trkpt><trkpt lat="40.884112867700146" lon="15.690455508270777"><ele>562.5</ele><time>2026-04-04T10:03:02Z</time></trkpt><trkpt lat="40.88432502338068" lon="15.690324917848312"><ele>563.0</ele><time>2026-04-04T10:03:03Z</time></trkpt><trkpt lat="40.88454606660593" lon="15.690209141515053"><ele>560.5</ele><time>2026-04-04T10:03:04Z</time></trkpt><trkpt lat="40.88476790737454" lon="15.690101586428769"><ele>558.0</ele><time>2026-04-04T10:03:05Z</time></trkpt><trkpt lat="40.88499064947103" lon="15.689997397151107"><ele>559.0</ele><time>2026-04-04T10:03:06Z</time></trkpt><trkpt lat="40.88521359113868" lon="15.689898464773675"><ele>560.0</ele><time>2026-04-04T10:03:07Z</time></trkpt><trkpt lat="40.88543535098471" lon="15.689802877970807"><ele>560.0</ele><time>2026-04-04T10:03:08Z</time></trkpt><trkpt lat="40.885656924428666" lon="15.689708905134529"><ele>560.0</ele><time>2026-04-04T10:03:09Z</time></trkpt><trkpt lat="40.885878301744754" lon="15.689614409149247"><ele>562.0</ele><time>2026-04-04T10:03:10Z</time></trkpt><trkpt lat="40.8860996267544" lon="15.689518177131827"><ele>564.0</ele><time>2026-04-04T10:03:11Z</time></trkpt><trkpt lat="40.88631922774584" lon="15.689423122646602"><ele>564.0</ele><time>2026-04-04T10:03:12Z</time></trkpt><trkpt lat="40.88653722627921" lon="15.68932835764964"><ele>564.0</ele><time>2026-04-04T10:03:13Z</time></trkpt><trkpt lat="40.88675308986585" lon="15.68923248145279"><ele>566.3333333333334</ele><time>2026-04-04T10:03:14Z</time></trkpt><trkpt lat="40.88696642337928" lon="15.689140382442293"><ele>568.6666666666667</ele><time>2026-04-04T10:03:15Z</time></trkpt><trkpt lat="40.88717734926544" lon="15.689046326635715"><ele>571.0</ele><time>2026-04-04T10:03:16Z</time></trkpt><trkpt lat="40.8873867044818" lon="15.688954087985248"><ele>572.3333333333334</ele><time>2026-04-04T10:03:17Z</time></trkpt><trkpt lat="40.887594266573224" lon="15.688861642104262"><ele>573.6666666666666</ele><time>2026-04-04T10:03:18Z</time></trkpt><trkpt lat="40.88780063036467" lon="15.688771110879541"><ele>575.0</ele><time>2026-04-04T10:03:19Z</time></trkpt><trkpt lat="40.888004801440914" lon="15.688675510238172"><ele>571.3333333333333</ele><time>2026-04-04T10:03:20Z</time></trkpt><trkpt lat="40.88820537261398" lon="15.688580509884844"><ele>567.6666666666666</ele><time>2026-04-04T10:03:21Z</time></trkpt><trkpt lat="40.888404140285296" lon="15.688480570376976"><ele>564.0</ele><time>2026-04-04T10:03:22Z</time></trkpt><trkpt lat="40.88859787285921" lon="15.68837743579898"><ele>562.6666666666666</ele><time>2026-04-04T10:03:23Z</time></trkpt><trkpt lat="40.88878912586649" lon="15.6882715077324"><ele>561.3333333333333</ele><time>2026-04-04T10:03:24Z</time></trkpt><trkpt lat="40.88897251816196" lon="15.688169540957926"><ele>560.0</ele><time>2026-04-04T10:03:25Z</time></trkpt><trkpt lat="40.88915707291057" lon="15.688066080791383"><ele>561.6666666666666</ele><time>2026-04-04T10:03:26Z</time></trkpt><trkpt lat="40.88934533231097" lon="15.687968202674776"><ele>563.3333333333334</ele><time>2026-04-04T10:03:27Z</time></trkpt><trkpt lat="40.88953362222089" lon="15.68786668384627"><ele>565.0</ele><time>2026-04-04T10:03:28Z</time></trkpt><trkpt lat="40.88972342103606" lon="15.687765156186503"><ele>568.0</ele><time>2026-04-04T10:03:29Z</time></trkpt><trkpt lat="40.889916025346835" lon="15.687662615805737"><ele>571.0</ele><time>2026-04-04T10:03:30Z</time></trkpt><trkpt lat="40.890108086444485" lon="15.6875567510229"><ele>574.0</ele><time>2026-04-04T10:03:31Z</time></trkpt><trkpt lat="40.89030623690072" lon="15.687450309598061"><ele>576.6666666666667</ele><time>2026-04-04T10:03:32Z</time></trkpt><trkpt lat="40.89050785041418" lon="15.687347915913909"><ele>579.3333333333334</ele><time>2026-04-04T10:03:33Z</time></trkpt><trkpt lat="40.89071132320944" lon="15.687238545479623"><ele>582.0</ele><time>2026-04-04T10:03:34Z</time></trkpt><trkpt lat="40.89091684878349" lon="15.687127302915714"><ele>582.6666666666666</ele><time>2026-04-04T10:03:35Z</time></trkpt><trkpt lat="40.89112454120818" lon="15.687019062992368"><ele>583.3333333333333</ele><time>2026-04-04T10:03:36Z</time></trkpt><trkpt lat="40.891334531734316" lon="15.68691280755228"><ele>584.0</ele><time>2026-04-04T10:03:37Z</time></trkpt><trkpt lat="40.8915408797041" lon="15.686804454309724"><ele>584.3333333333333</ele><time>2026-04-04T10:03:38Z</time></trkpt><trkpt lat="40.891746765503655" lon="15.686689827906495"><ele>584.6666666666666</ele><time>2026-04-04T10:03:39Z</time></trkpt><trkpt lat="40.89195411170673" lon="15.686582729125176"><ele>585.0</ele><time>2026-04-04T10:03:40Z</time></trkpt><trkpt lat="40.89216235355081" lon="15.686476719137497"><ele>585.0</ele><time>2026-04-04T10:03:41Z</time></trkpt><trkpt lat="40.892368660412416" lon="15.686368127834514"><ele>585.0</ele><time>2026-04-04T10:03:42Z</time></trkpt><trkpt lat="40.892578856019014" lon="15.686260176798918"><ele>585.0</ele><time>2026-04-04T10:03:43Z</time></trkpt><trkpt lat="40.89278321829725" lon="15.68614988675357"><ele>588.3333333333334</ele><time>2026-04-04T10:03:44Z</time></trkpt><trkpt lat="40.89298858990342" lon="15.686039309166224"><ele>591.6666666666667</ele><time>2026-04-04T10:03:45Z</time></trkpt><trkpt lat="40.893196126394145" lon="15.685932714762409"><ele>595.0</ele><time>2026-04-04T10:03:46Z</time></trkpt><trkpt lat="40.89340830529893" lon="15.685828763487995"><ele>596.0</ele><time>2026-04-04T10:03:47Z</time></trkpt><trkpt lat="40.89361644012415" lon="15.685729110415274"><ele>597.0</ele><time>2026-04-04T10:03:48Z</time></trkpt><trkpt lat="40.89383098302211" lon="15.685637804386264"><ele>598.0</ele><time>2026-04-04T10:03:49Z</time></trkpt><trkpt lat="40.894048541155456" lon="15.685554316172153"><ele>597.5</ele><time>2026-04-04T10:03:50Z</time></trkpt><trkpt lat="40.894270379207654" lon="15.685487932175699"><ele>597.0</ele><time>2026-04-04T10:03:51Z</time></trkpt><trkpt lat="40.89449355140853" lon="15.685437109439679"><ele>597.0</ele><time>2026-04-04T10:03:52Z</time></trkpt><trkpt lat="40.894719988548715" lon="15.685400640201157"><ele>597.0</ele><time>2026-04-04T10:03:53Z</time></trkpt><trkpt lat="40.8949471049488" lon="15.68537546255671"><ele>594.5</ele><time>2026-04-04T10:03:54Z</time></trkpt><trkpt lat="40.89517824987914" lon="15.68535637874365"><ele>592.0</ele><time>2026-04-04T10:03:55Z</time></trkpt><trkpt lat="40.895412741622245" lon="15.685352054077663"><ele>592.0</ele><time>2026-04-04T10:03:56Z</time></trkpt><trkpt lat="40.8956469189469" lon="15.685351542199415"><ele>592.0</ele><time>2026-04-04T10:03:57Z</time></trkpt><trkpt lat="40.89588645971472" lon="15.6853549086005"><ele>588.0</ele><time>2026-04-04T10:03:58Z</time></trkpt><trkpt lat="40.896129154583676" lon="15.685358386263564"><ele>584.0</ele><time>2026-04-04T10:03:59Z</time></trkpt><trkpt lat="40.89637369339202" lon="15.6853581654224"><ele>584.0</ele><time>2026-04-04T10:04:00Z</time></trkpt><trkpt lat="40.89661913087976" lon="15.685359997953121"><ele>584.0</ele><time>2026-04-04T10:04:01Z</time></trkpt><trkpt lat="40.89686818822915" lon="15.685360083997043"><ele>577.0</ele><time>2026-04-04T10:04:02Z</time></trkpt><trkpt lat="40.89711607187982" lon="15.685364033376727"><ele>570.0</ele><time>2026-04-04T10:04:03Z</time></trkpt><trkpt lat="40.89736494897857" lon="15.685371449014795"><ele>570.0</ele><time>2026-04-04T10:04:04Z</time></trkpt><trkpt lat="40.89761424939705" lon="15.685379702263845"><ele>570.0</ele><time>2026-04-04T10:04:05Z</time></trkpt><trkpt lat="40.89786571319408" lon="15.685383476571669"><ele>570.0</ele><time>2026-04-04T10:04:06Z</time></trkpt><trkpt lat="40.89811481212027" lon="15.685392739710977"><ele>570.0</ele><time>2026-04-04T10:04:07Z</time></trkpt><trkpt lat="40.89836304346817" lon="15.685396330638902"><ele>577.0</ele><time>2026-04-04T10:04:08Z</time></trkpt><trkpt lat="40.89861176298945" lon="15.685402284910918"><ele>584.0</ele><time>2026-04-04T10:04:09Z</time></trkpt><trkpt lat="40.898860302813745" lon="15.685403372768524"><ele>584.0</ele><time>2026-04-04T10:04:10Z</time></trkpt><trkpt lat="40.899106784063676" lon="15.685399754895082"><ele>584.0</ele><time>2026-04-04T10:04:11Z</time></trkpt><trkpt lat="40.89935246641434" lon="15.685400060637589"><ele>590.0</ele><time>2026-04-04T10:04:12Z</time></trkpt><trkpt lat="40.899594698788135" lon="15.68539937397719"><ele>596.0</ele><time>2026-04-04T10:04:13Z</time></trkpt><trkpt lat="40.899837497849255" lon="15.685393707038848"><ele>596.0</ele><time>2026-04-04T10:04:14Z</time></trkpt><trkpt lat="40.90007934659794" lon="15.685378580177307"><ele>596.0</ele><time>2026-04-04T10:04:15Z</time></trkpt><trkpt lat="40.900315268192024" lon="15.685351611633036"><ele>593.5</ele><time>2026-04-04T10:04:16Z</time></trkpt><trkpt lat="40.900545984438935" lon="15.685309806463676"><ele>591.0</ele><time>2026-04-04T10:04:17Z</time></trkpt><trkpt lat="40.900773624875086" lon="15.685257466405204"><ele>593.3333333333334</ele><time>2026-04-04T10:04:18Z</time></trkpt><trkpt lat="40.90099027737089" lon="15.68519324237372"><ele>595.6666666666667</ele><time>2026-04-04T10:04:19Z</time></trkpt><trkpt lat="40.90120433198962" lon="15.685116748509548"><ele>598.0</ele><time>2026-04-04T10:04:20Z</time></trkpt><trkpt lat="40.90141862762361" lon="15.685024798130657"><ele>598.0</ele><time>2026-04-04T10:04:21Z</time></trkpt><trkpt lat="40.901632005563535" lon="15.684923080251462"><ele>598.0</ele><time>2026-04-04T10:04:22Z</time></trkpt><trkpt lat="40.90184534228389" lon="15.684822766044295"><ele>600.5</ele><time>2026-04-04T10:04:23Z</time></trkpt><trkpt lat="40.902059978227044" lon="15.684723100874503"><ele>603.0</ele><time>2026-04-04T10:04:24Z</time></trkpt><trkpt lat="40.90227483804383" lon="15.684625306814647"><ele>603.0</ele><time>2026-04-04T10:04:25Z</time></trkpt><trkpt lat="40.90249076331553" lon="15.684522048027642"><ele>603.0</ele><time>2026-04-04T10:04:26Z</time></trkpt><trkpt lat="40.90270578189334" lon="15.684414618756284"><ele>603.5</ele><time>2026-04-04T10:04:27Z</time></trkpt><trkpt lat="40.902914932544284" lon="15.68429545049767"><ele>604.0</ele><time>2026-04-04T10:04:28Z</time></trkpt><trkpt lat="40.90311642725037" lon="15.684157632850146"><ele>604.0</ele><time>2026-04-04T10:04:29Z</time></trkpt><trkpt lat="40.90331226867033" lon="15.68399673825898"><ele>604.0</ele><time>2026-04-04T10:04:30Z</time></trkpt><trkpt lat="40.90350787664871" lon="15.683824952259993"><ele>606.5</ele><time>2026-04-04T10:04:31Z</time></trkpt><trkpt lat="40.90370205331286" lon="15.683643757109202"><ele>609.0</ele><time>2026-04-04T10:04:32Z</time></trkpt><trkpt lat="40.903888488048295" lon="15.68345599400917"><ele>603.5</ele><time>2026-04-04T10:04:33Z</time></trkpt><trkpt lat="40.904068336829745" lon="15.68325664466999"><ele>598.0</ele><time>2026-04-04T10:04:34Z</time></trkpt><trkpt lat="40.90424631764742" lon="15.683058289679384"><ele>599.5</ele><time>2026-04-04T10:04:35Z</time></trkpt><trkpt lat="40.904426186201604" lon="15.68286195801285"><ele>601.0</ele><time>2026-04-04T10:04:36Z</time></trkpt><trkpt lat="40.9046067508441" lon="15.682665643736152"><ele>601.0</ele><time>2026-04-04T10:04:37Z</time></trkpt><trkpt lat="40.90478476971042" lon="15.682469832941031"><ele>601.0</ele><time>2026-04-04T10:04:38Z</time></trkpt><trkpt lat="40.9049641647364" lon="15.682274694885587"><ele>606.5</ele><time>2026-04-04T10:04:39Z</time></trkpt><trkpt lat="40.90514484307543" lon="15.682081800440596"><ele>612.0</ele><time>2026-04-04T10:04:40Z</time></trkpt><trkpt lat="40.9053250944544" lon="15.68188736350357"><ele>612.5</ele><time>2026-04-04T10:04:41Z</time></trkpt><trkpt lat="40.9055074954435" lon="15.681692312476823"><ele>613.0</ele><time>2026-04-04T10:04:42Z</time></trkpt><trkpt lat="40.90568810377772" lon="15.68149837362837"><ele>613.0</ele><time>2026-04-04T10:04:43Z</time></trkpt><trkpt lat="40.905869845782874" lon="15.681309765563286"><ele>613.0</ele><time>2026-04-04T10:04:44Z</time></trkpt><trkpt lat="40.90605792073653" lon="15.681133664909614"><ele>613.0</ele><time>2026-04-04T10:04:45Z</time></trkpt><trkpt lat="40.90624855093477" lon="15.680971212733708"><ele>613.0</ele><time>2026-04-04T10:04:46Z</time></trkpt><trkpt lat="40.906447655258525" lon="15.68083030788879"><ele>613.0</ele><time>2026-04-04T10:04:47Z</time></trkpt><trkpt lat="40.906655084387296" lon="15.680716906985364"><ele>613.0</ele><time>2026-04-04T10:04:48Z</time></trkpt><trkpt lat="40.906868460327594" lon="15.68063045753907"><ele>613.0</ele><time>2026-04-04T10:04:49Z</time></trkpt><trkpt lat="40.90708290783305" lon="15.680562753993419"><ele>612.6666666666667</ele><time>2026-04-04T10:04:50Z</time></trkpt><trkpt lat="40.90729469402545" lon="15.680521738338474"><ele>612.3333333333334</ele><time>2026-04-04T10:04:51Z</time></trkpt><trkpt lat="40.907509544272635" lon="15.680502640042603"><ele>612.0</ele><time>2026-04-04T10:04:52Z</time></trkpt><trkpt lat="40.90772288663153" lon="15.68050586805524"><ele>611.6666666666666</ele><time>2026-04-04T10:04:53Z</time></trkpt><trkpt lat="40.90793710248175" lon="15.680536401473347"><ele>611.3333333333333</ele><time>2026-04-04T10:04:54Z</time></trkpt><trkpt lat="40.908151614871244" lon="15.68058181538631"><ele>611.0</ele><time>2026-04-04T10:04:55Z</time></trkpt><trkpt lat="40.90836416575516" lon="15.680654435106316"><ele>610.3333333333333</ele><time>2026-04-04T10:04:56Z</time></trkpt><trkpt lat="40.908572976577915" lon="15.680745946755033"><ele>609.6666666666666</ele><time>2026-04-04T10:04:57Z</time></trkpt><trkpt lat="40.90877799924916" lon="15.680854954197821"><ele>609.0</ele><time>2026-04-04T10:04:58Z</time></trkpt><trkpt lat="40.908976749088346" lon="15.68098742108125"><ele>612.3333333333334</ele><time>2026-04-04T10:04:59Z</time></trkpt><trkpt lat="40.90916569152327" lon="15.681139022319263"><ele>615.6666666666667</ele><time>2026-04-04T10:05:00Z</time></trkpt><trkpt lat="40.90935283693781" lon="15.681299993355973"><ele>619.0</ele><time>2026-04-04T10:05:01Z</time></trkpt><trkpt lat="40.90953438319397" lon="15.681469420642514"><ele>619.6666666666667</ele><time>2026-04-04T10:05:02Z</time></trkpt><trkpt lat="40.90971566147058" lon="15.68163757566143"><ele>620.3333333333334</ele><time>2026-04-04T10:05:03Z</time></trkpt><trkpt lat="40.90989665169509" lon="15.681802936227276"><ele>621.0</ele><time>2026-04-04T10:05:04Z</time></trkpt><trkpt lat="40.9100765063593" lon="15.68196983864317"><ele>624.3333333333334</ele><time>2026-04-04T10:05:05Z</time></trkpt><trkpt lat="40.91025612423417" lon="15.682138092715634"><ele>627.6666666666667</ele><time>2026-04-04T10:05:06Z</time></trkpt><trkpt lat="40.9104368143901" lon="15.68230593890333"><ele>631.0</ele><time>2026-04-04T10:05:07Z</time></trkpt><trkpt lat="40.91061876324468" lon="15.682471175579215"><ele>631.0</ele><time>2026-04-04T10:05:08Z</time></trkpt><trkpt lat="40.91080238561616" lon="15.682637108383194"><ele>631.0</ele><time>2026-04-04T10:05:09Z</time></trkpt><trkpt lat="40.91097588058374" lon="15.682791612540639"><ele>631.0</ele><time>2026-04-04T10:05:10Z</time></trkpt><trkpt lat="40.91113285406251" lon="15.682936911656299"><ele>632.3333333333334</ele><time>2026-04-04T10:05:11Z</time></trkpt><trkpt lat="40.91127871508421" lon="15.683070471213806"><ele>633.6666666666666</ele><time>2026-04-04T10:05:12Z</time></trkpt><trkpt lat="40.9114107559556" lon="15.68319828104142"><ele>635.0</ele><time>2026-04-04T10:05:13Z</time></trkpt><trkpt lat="40.91153098016305" lon="15.683318193453221"><ele>635.0</ele><time>2026-04-04T10:05:14Z</time></trkpt><trkpt lat="40.91163751731703" lon="15.683432757096208"><ele>635.0</ele><time>2026-04-04T10:05:15Z</time></trkpt><trkpt lat="40.9117357464818" lon="15.683528896794355"><ele>635.0</ele><time>2026-04-04T10:05:16Z</time></trkpt><trkpt lat="40.91182303738665" lon="15.683609056935737"><ele>635.0</ele><time>2026-04-04T10:05:17Z</time></trkpt><trkpt lat="40.911895379119436" lon="15.683681014064678"><ele>632.0</ele><time>2026-04-04T10:05:18Z</time></trkpt><trkpt lat="40.911945599200855" lon="15.683773403844866"><ele>629.0</ele><time>2026-04-04T10:05:19Z</time></trkpt><trkpt lat="40.911975383171544" lon="15.683882620957627"><ele>626.0</ele><time>2026-04-04T10:05:20Z</time></trkpt><trkpt lat="40.911959039949515" lon="15.684018239148717"><ele>623.0</ele><time>2026-04-04T10:05:21Z</time></trkpt><trkpt lat="40.91190213290871" lon="15.684153695039363"><ele>620.0</ele><time>2026-04-04T10:05:22Z</time></trkpt><trkpt lat="40.911777603150846" lon="15.684230761435886"><ele>622.2</ele><time>2026-04-04T10:05:23Z</time></trkpt><trkpt lat="40.91169747007342" lon="15.68432349480903"><ele>624.4</ele><time>2026-04-04T10:05:24Z</time></trkpt><trkpt lat="40.91164779080509" lon="15.684390415720653"><ele>626.6</ele><time>2026-04-04T10:05:25Z</time></trkpt><trkpt lat="40.91152207205654" lon="15.684354753946554"><ele>628.8</ele><time>2026-04-04T10:05:27Z</time></trkpt><trkpt lat="40.91145229112796" lon="15.68428861350913"><ele>631.0</ele><time>2026-04-04T10:05:28Z</time></trkpt><trkpt lat="40.91138237303509" lon="15.68421828101699"><ele>631.0</ele><time>2026-04-04T10:05:29Z</time></trkpt><trkpt lat="40.91132359913756" lon="15.684124719282828"><ele>631.0</ele><time>2026-04-04T10:05:30Z</time></trkpt><trkpt lat="40.911233912565585" lon="15.68408838128594"><ele>631.0</ele><time>2026-04-04T10:05:31Z</time></trkpt><trkpt lat="40.9111369089915" lon="15.684105358176495"><ele>631.0</ele><time>2026-04-04T10:05:32Z</time></trkpt><trkpt lat="40.911060111438296" lon="15.684200617333255"><ele>631.0</ele><time>2026-04-04T10:05:33Z</time></trkpt><trkpt lat="40.91104523393471" lon="15.684322560576662"><ele>631.0</ele><time>2026-04-04T10:05:34Z</time></trkpt><trkpt lat="40.91103655385429" lon="15.684427280001632"><ele>631.0</ele><time>2026-04-04T10:05:35Z</time></trkpt><trkpt lat="40.91105973698206" lon="15.684544141990827"><ele>631.0</ele><time>2026-04-04T10:05:36Z</time></trkpt><trkpt lat="40.91112177218707" lon="15.684679371916578"><ele>631.0</ele><time>2026-04-04T10:05:37Z</time></trkpt><trkpt lat="40.91121534013615" lon="15.684820276522073"><ele>631.0</ele><time>2026-04-04T10:05:38Z</time></trkpt><trkpt lat="40.91130254087419" lon="15.68494516546357"><ele>630.0</ele><time>2026-04-04T10:05:39Z</time></trkpt><trkpt lat="40.91138708011891" lon="15.68508323258123"><ele>629.0</ele><time>2026-04-04T10:05:40Z</time></trkpt><trkpt lat="40.91140244281213" lon="15.68528191618142"><ele>628.0</ele><time>2026-04-04T10:05:41Z</time></trkpt><trkpt lat="40.911409460588295" lon="15.685487893247467"><ele>627.0</ele><time>2026-04-04T10:05:42Z</time></trkpt><trkpt lat="40.91141275543976" lon="15.685711785438578"><ele>626.6666666666666</ele><time>2026-04-04T10:05:43Z</time></trkpt><trkpt lat="40.91141986704062" lon="15.685946479052479"><ele>626.3333333333333</ele><time>2026-04-04T10:05:44Z</time></trkpt><trkpt lat="40.91142406941142" lon="15.686188188188147"><ele>626.0</ele><time>2026-04-04T10:05:45Z</time></trkpt><trkpt lat="40.91141380224242" lon="15.686435658513355"><ele>626.3333333333333</ele><time>2026-04-04T10:05:46Z</time></trkpt><trkpt lat="40.91141801433833" lon="15.686685852904718"><ele>626.6666666666666</ele><time>2026-04-04T10:05:47Z</time></trkpt><trkpt lat="40.911422237469424" lon="15.686936684472585"><ele>627.0</ele><time>2026-04-04T10:05:48Z</time></trkpt><trkpt lat="40.9114264478103" lon="15.687186756401687"><ele>627.0</ele><time>2026-04-04T10:05:49Z</time></trkpt><trkpt lat="40.91146263507747" lon="15.687433803098472"><ele>627.0</ele><time>2026-04-04T10:05:50Z</time></trkpt><trkpt lat="40.911466797318255" lon="15.687679750461882"><ele>627.0</ele><time>2026-04-04T10:05:51Z</time></trkpt><trkpt lat="40.911465813696786" lon="15.687923358487227"><ele>627.6666666666666</ele><time>2026-04-04T10:05:52Z</time></trkpt><trkpt lat="40.911461649787974" lon="15.688164523096155"><ele>628.3333333333333</ele><time>2026-04-04T10:05:53Z</time></trkpt><trkpt lat="40.911441143078534" lon="15.688414275823623"><ele>629.0</ele><time>2026-04-04T10:05:54Z</time></trkpt><trkpt lat="40.91140105710119" lon="15.68866639018326"><ele>629.3333333333333</ele><time>2026-04-04T10:05:55Z</time></trkpt><trkpt lat="40.911336757953535" lon="15.688912045971737"><ele>629.6666666666666</ele><time>2026-04-04T10:05:56Z</time></trkpt><trkpt lat="40.91124248009993" lon="15.689142666643468"><ele>630.0</ele><time>2026-04-04T10:05:57Z</time></trkpt><trkpt lat="40.91112002557059" lon="15.689344600900206"><ele>628.0</ele><time>2026-04-04T10:05:58Z</time></trkpt><trkpt lat="40.91097565625649" lon="15.689519227730738"><ele>626.0</ele><time>2026-04-04T10:05:59Z</time></trkpt><trkpt lat="40.91081166347745" lon="15.689664562081447"><ele>624.0</ele><time>2026-04-04T10:06:00Z</time></trkpt><trkpt lat="40.91063007821102" lon="15.68977900233933"><ele>621.6666666666666</ele><time>2026-04-04T10:06:01Z</time></trkpt><trkpt lat="40.91043760669772" lon="15.689870690067885"><ele>619.3333333333333</ele><time>2026-04-04T10:06:02Z</time></trkpt><trkpt lat="40.91022410610867" lon="15.689945849820404"><ele>617.0</ele><time>2026-04-04T10:06:03Z</time></trkpt><trkpt lat="40.910001182019144" lon="15.690014884795373"><ele>615.6666666666666</ele><time>2026-04-04T10:06:04Z</time></trkpt><trkpt lat="40.90977999742635" lon="15.690075434974823"><ele>614.3333333333334</ele><time>2026-04-04T10:06:05Z</time></trkpt><trkpt lat="40.90956534796413" lon="15.690137653403289"><ele>613.0</ele><time>2026-04-04T10:06:06Z</time></trkpt><trkpt lat="40.90935628496876" lon="15.690204599667767"><ele>607.6666666666667</ele><time>2026-04-04T10:06:07Z</time></trkpt><trkpt lat="40.909153477794405" lon="15.690275774246892"><ele>602.3333333333334</ele><time>2026-04-04T10:06:08Z</time></trkpt><trkpt lat="40.908958613903174" lon="15.690364489868154"><ele>597.0</ele><time>2026-04-04T10:06:09Z</time></trkpt><trkpt lat="40.90877354879791" lon="15.690478478279324"><ele>597.0</ele><time>2026-04-04T10:06:10Z</time></trkpt><trkpt lat="40.9086028131972" lon="15.69062077034671"><ele>597.0</ele><time>2026-04-04T10:06:11Z</time></trkpt><trkpt lat="40.90840177136106" lon="15.690725429195219"><ele>597.0</ele><time>2026-04-04T10:06:12Z</time></trkpt><trkpt lat="40.90826891629933" lon="15.69094048823292"><ele>597.3333333333334</ele><time>2026-04-04T10:06:13Z</time></trkpt><trkpt lat="40.90816227451714" lon="15.69116154185657"><ele>597.6666666666667</ele><time>2026-04-04T10:06:14Z</time></trkpt><trkpt lat="40.90807964337248" lon="15.691406054964515"><ele>598.0</ele><time>2026-04-04T10:06:15Z</time></trkpt><trkpt lat="40.908018267795015" lon="15.6916570505343"><ele>598.0</ele><time>2026-04-04T10:06:16Z</time></trkpt><trkpt lat="40.90798147615422" lon="15.691917347953728"><ele>598.0</ele><time>2026-04-04T10:06:17Z</time></trkpt><trkpt lat="40.907949417919" lon="15.692185087254673"><ele>598.0</ele><time>2026-04-04T10:06:18Z</time></trkpt><trkpt lat="40.9079206060578" lon="15.692458714185223"><ele>597.6666666666667</ele><time>2026-04-04T10:06:19Z</time></trkpt><trkpt lat="40.90789008531293" lon="15.692739737951957"><ele>597.3333333333334</ele><time>2026-04-04T10:06:20Z</time></trkpt><trkpt lat="40.907861384379856" lon="15.692999522258454"><ele>597.0</ele><time>2026-04-04T10:06:21Z</time></trkpt><trkpt lat="40.90783745128903" lon="15.693252713452774"><ele>595.0</ele><time>2026-04-04T10:06:22Z</time></trkpt><trkpt lat="40.9078160839466" lon="15.693509284703234"><ele>593.0</ele><time>2026-04-04T10:06:23Z</time></trkpt><trkpt lat="40.9078048880065" lon="15.693760036382649"><ele>591.0</ele><time>2026-04-04T10:06:24Z</time></trkpt><trkpt lat="40.90781477179317" lon="15.694009995129065"><ele>590.0</ele><time>2026-04-04T10:06:25Z</time></trkpt><trkpt lat="40.90784609209037" lon="15.694259304917646"><ele>589.0</ele><time>2026-04-04T10:06:26Z</time></trkpt><trkpt lat="40.907904464707585" lon="15.694499464762208"><ele>588.0</ele><time>2026-04-04T10:06:27Z</time></trkpt><trkpt lat="40.90799051568473" lon="15.694725386791973"><ele>588.0</ele><time>2026-04-04T10:06:28Z</time></trkpt><trkpt lat="40.908109195021424" lon="15.694917757954201"><ele>588.0</ele><time>2026-04-04T10:06:29Z</time></trkpt><trkpt lat="40.90823332391699" lon="15.695097279429918"><ele>588.0</ele><time>2026-04-04T10:06:30Z</time></trkpt><trkpt lat="40.90837479100812" lon="15.695250305534213"><ele>590.3333333333334</ele><time>2026-04-04T10:06:31Z</time></trkpt><trkpt lat="40.908530568599765" lon="15.695381552000082"><ele>592.6666666666667</ele><time>2026-04-04T10:06:32Z</time></trkpt><trkpt lat="40.908703502695836" lon="15.695485476759803"><ele>595.0</ele><time>2026-04-04T10:06:33Z</time></trkpt><trkpt lat="40.908882102562295" lon="15.695567392110632"><ele>595.0</ele><time>2026-04-04T10:06:34Z</time></trkpt><trkpt lat="40.909074468051884" lon="15.695630019462902"><ele>595.0</ele><time>2026-04-04T10:06:35Z</time></trkpt><trkpt lat="40.9092800937302" lon="15.695689812737406"><ele>595.0</ele><time>2026-04-04T10:06:36Z</time></trkpt><trkpt lat="40.90949585636857" lon="15.695747142139433"><ele>588.6666666666667</ele><time>2026-04-04T10:06:37Z</time></trkpt><trkpt lat="40.90970988101909" lon="15.695809384261368"><ele>582.3333333333334</ele><time>2026-04-04T10:06:38Z</time></trkpt><trkpt lat="40.90991577751818" lon="15.695888259405166"><ele>576.0</ele><time>2026-04-04T10:06:39Z</time></trkpt><trkpt lat="40.91011558721094" lon="15.695977750761449"><ele>574.3333333333334</ele><time>2026-04-04T10:06:40Z</time></trkpt><trkpt lat="40.910305236457084" lon="15.696094960986112"><ele>572.6666666666667</ele><time>2026-04-04T10:06:41Z</time></trkpt><trkpt lat="40.910480143711" lon="15.696250213454261"><ele>571.0</ele><time>2026-04-04T10:06:42Z</time></trkpt><trkpt lat="40.91064850656876" lon="15.696427815811356"><ele>571.0</ele><time>2026-04-04T10:06:43Z</time></trkpt><trkpt lat="40.910809080688615" lon="15.696618168448099"><ele>571.0</ele><time>2026-04-04T10:06:44Z</time></trkpt><trkpt lat="40.910969117230984" lon="15.69681376122981"><ele>571.0</ele><time>2026-04-04T10:06:45Z</time></trkpt><trkpt lat="40.9111265233509" lon="15.697011816014358"><ele>567.6666666666667</ele><time>2026-04-04T10:06:46Z</time></trkpt><trkpt lat="40.91128733821807" lon="15.697195695010356"><ele>564.3333333333334</ele><time>2026-04-04T10:06:47Z</time></trkpt><trkpt lat="40.91146315758426" lon="15.697351319993354"><ele>561.0</ele><time>2026-04-04T10:06:48Z</time></trkpt><trkpt lat="40.911650317983636" lon="15.697483203416054"><ele>557.3333333333334</ele><time>2026-04-04T10:06:49Z</time></trkpt><trkpt lat="40.91184430753506" lon="15.697591280697793"><ele>553.6666666666667</ele><time>2026-04-04T10:06:50Z</time></trkpt><trkpt lat="40.91204930610145" lon="15.697655566935707"><ele>550.0</ele><time>2026-04-04T10:06:51Z</time></trkpt><trkpt lat="40.91226132920044" lon="15.697694408771078"><ele>550.0</ele><time>2026-04-04T10:06:52Z</time></trkpt><trkpt lat="40.91247221000833" lon="15.697715980205192"><ele>550.0</ele><time>2026-04-04T10:06:53Z</time></trkpt><trkpt lat="40.91268509671307" lon="15.697728107605087"><ele>550.0</ele><time>2026-04-04T10:06:54Z</time></trkpt><trkpt lat="40.912897993645906" lon="15.697746190933389"><ele>549.3333333333334</ele><time>2026-04-04T10:06:55Z</time></trkpt><trkpt lat="40.91310902184929" lon="15.697770424426151"><ele>548.6666666666666</ele><time>2026-04-04T10:06:56Z</time></trkpt><trkpt lat="40.91330767842891" lon="15.697781561637852"><ele>548.0</ele><time>2026-04-04T10:06:57Z</time></trkpt><trkpt lat="40.91349717348734" lon="15.697807141070582"><ele>548.0</ele><time>2026-04-04T10:06:58Z</time></trkpt><trkpt lat="40.91368036114157" lon="15.697832661515507"><ele>548.0</ele><time>2026-04-04T10:06:59Z</time></trkpt><trkpt lat="40.913856623070394" lon="15.697868039584272"><ele>548.0</ele><time>2026-04-04T10:07:00Z</time></trkpt><trkpt lat="40.914024988455914" lon="15.697909832590677"><ele>548.0</ele><time>2026-04-04T10:07:01Z</time></trkpt><trkpt lat="40.914185713479746" lon="15.697956739343962"><ele>548.0</ele><time>2026-04-04T10:07:02Z</time></trkpt><trkpt lat="40.914343522768085" lon="15.698016369472823"><ele>548.0</ele><time>2026-04-04T10:07:03Z</time></trkpt><trkpt lat="40.914495526590066" lon="15.698081067595982"><ele>544.3333333333333</ele><time>2026-04-04T10:07:04Z</time></trkpt><trkpt lat="40.91464276385644" lon="15.698146282032"><ele>540.6666666666666</ele><time>2026-04-04T10:07:05Z</time></trkpt><trkpt lat="40.91479168079002" lon="15.698216681057247"><ele>537.0</ele><time>2026-04-04T10:07:06Z</time></trkpt><trkpt lat="40.91494800578353" lon="15.698301957816026"><ele>536.0</ele><time>2026-04-04T10:07:07Z</time></trkpt><trkpt lat="40.91510879562204" lon="15.698397885116371"><ele>535.0</ele><time>2026-04-04T10:07:08Z</time></trkpt><trkpt lat="40.915267032904545" lon="15.69851011001253"><ele>534.0</ele><time>2026-04-04T10:07:09Z</time></trkpt><trkpt lat="40.91542358649013" lon="15.69863452243539"><ele>534.0</ele><time>2026-04-04T10:07:10Z</time></trkpt><trkpt lat="40.9155829557055" lon="15.698775935034691"><ele>534.0</ele><time>2026-04-04T10:07:11Z</time></trkpt><trkpt lat="40.9157481613596" lon="15.698930157500326"><ele>534.0</ele><time>2026-04-04T10:07:12Z</time></trkpt><trkpt lat="40.9159188697651" lon="15.69909312387024"><ele>529.6666666666666</ele><time>2026-04-04T10:07:13Z</time></trkpt><trkpt lat="40.916092540514725" lon="15.699263739787094"><ele>525.3333333333333</ele><time>2026-04-04T10:07:14Z</time></trkpt><trkpt lat="40.91626069927031" lon="15.699432715810852"><ele>521.0</ele><time>2026-04-04T10:07:15Z</time></trkpt><trkpt lat="40.91642347245557" lon="15.69959278062064"><ele>521.0</ele><time>2026-04-04T10:07:16Z</time></trkpt><trkpt lat="40.91658816823336" lon="15.699745255693887"><ele>521.0</ele><time>2026-04-04T10:07:17Z</time></trkpt><trkpt lat="40.916757269833646" lon="15.699904636064591"><ele>521.0</ele><time>2026-04-04T10:07:18Z</time></trkpt><trkpt lat="40.91692932821214" lon="15.700070652780061"><ele>520.0</ele><time>2026-04-04T10:07:19Z</time></trkpt><trkpt lat="40.91710256221981" lon="15.700239542494907"><ele>519.0</ele><time>2026-04-04T10:07:20Z</time></trkpt><trkpt lat="40.917264138409024" lon="15.700398790505524"><ele>518.0</ele><time>2026-04-04T10:07:21Z</time></trkpt><trkpt lat="40.917420988543775" lon="15.700556429247648"><ele>510.66666666666663</ele><time>2026-04-04T10:07:22Z</time></trkpt><trkpt lat="40.917572108974625" lon="15.700738305161858"><ele>503.33333333333337</ele><time>2026-04-04T10:07:23Z</time></trkpt><trkpt lat="40.91770605195701" lon="15.700949136752127"><ele>496.0</ele><time>2026-04-04T10:07:24Z</time></trkpt><trkpt lat="40.91782409626296" lon="15.701183447990767"><ele>495.6666666666667</ele><time>2026-04-04T10:07:25Z</time></trkpt><trkpt lat="40.917916118333835" lon="15.701438808116995"><ele>495.33333333333337</ele><time>2026-04-04T10:07:26Z</time></trkpt><trkpt lat="40.91798110970476" lon="15.70170994793044"><ele>495.0</ele><time>2026-04-04T10:07:27Z</time></trkpt><trkpt lat="40.91802990927143" lon="15.701979378341562"><ele>494.0</ele><time>2026-04-04T10:07:28Z</time></trkpt><trkpt lat="40.91806402699409" lon="15.702261816249063"><ele>493.0</ele><time>2026-04-04T10:07:29Z</time></trkpt><trkpt lat="40.9180620425009" lon="15.702557515740137"><ele>492.0</ele><time>2026-04-04T10:07:30Z</time></trkpt><trkpt lat="40.91805517050915" lon="15.70284232656451"><ele>492.0</ele><time>2026-04-04T10:07:31Z</time></trkpt><trkpt lat="40.91804457811147" lon="15.703132284323154"><ele>492.0</ele><time>2026-04-04T10:07:32Z</time></trkpt><trkpt lat="40.918034056853394" lon="15.703420294707245"><ele>492.0</ele><time>2026-04-04T10:07:33Z</time></trkpt><trkpt lat="40.918022666603434" lon="15.703712200623677"><ele>492.0</ele><time>2026-04-04T10:07:34Z</time></trkpt><trkpt lat="40.918010842638516" lon="15.704001770832045"><ele>492.0</ele><time>2026-04-04T10:07:35Z</time></trkpt><trkpt lat="40.91799714795522" lon="15.704288093410259"><ele>492.0</ele><time>2026-04-04T10:07:36Z</time></trkpt><trkpt lat="40.91797543150011" lon="15.704570083766741"><ele>491.0</ele><time>2026-04-04T10:07:37Z</time></trkpt><trkpt lat="40.917936515521525" lon="15.704854614957428"><ele>490.0</ele><time>2026-04-04T10:07:38Z</time></trkpt><trkpt lat="40.91788920238789" lon="15.705135824412556"><ele>489.0</ele><time>2026-04-04T10:07:39Z</time></trkpt><trkpt lat="40.91782740548846" lon="15.70541897109429"><ele>483.0</ele><time>2026-04-04T10:07:40Z</time></trkpt><trkpt lat="40.91774615563997" lon="15.705698487475486"><ele>477.0</ele><time>2026-04-04T10:07:41Z</time></trkpt><trkpt lat="40.91765738302951" lon="15.705973980882762"><ele>480.33333333333337</ele><time>2026-04-04T10:07:42Z</time></trkpt><trkpt lat="40.91755923211476" lon="15.706247251098063"><ele>483.6666666666667</ele><time>2026-04-04T10:07:43Z</time></trkpt><trkpt lat="40.917458606069395" lon="15.706505633283323"><ele>487.0</ele><time>2026-04-04T10:07:44Z</time></trkpt><trkpt lat="40.917365195056" lon="15.706755422706891"><ele>484.33333333333337</ele><time>2026-04-04T10:07:45Z</time></trkpt><trkpt lat="40.917277385694725" lon="15.707007516492837"><ele>481.66666666666663</ele><time>2026-04-04T10:07:46Z</time></trkpt><trkpt lat="40.91721189582337" lon="15.707264400005329"><ele>479.0</ele><time>2026-04-04T10:07:47Z</time></trkpt><trkpt lat="40.91717699309806" lon="15.707535906741079"><ele>477.66666666666663</ele><time>2026-04-04T10:07:48Z</time></trkpt><trkpt lat="40.91716604242877" lon="15.707813664977982"><ele>476.33333333333337</ele><time>2026-04-04T10:07:49Z</time></trkpt><trkpt lat="40.917187154414925" lon="15.708110124214278"><ele>475.0</ele><time>2026-04-04T10:07:50Z</time></trkpt><trkpt lat="40.91723788418037" lon="15.708406428244459"><ele>472.0</ele><time>2026-04-04T10:07:51Z</time></trkpt><trkpt lat="40.91730595624017" lon="15.7087014519389"><ele>469.0</ele><time>2026-04-04T10:07:52Z</time></trkpt><trkpt lat="40.91737671812461" lon="15.709003409467156"><ele>469.0</ele><time>2026-04-04T10:07:53Z</time></trkpt><trkpt lat="40.91744850841198" lon="15.709310686449456"><ele>469.0</ele><time>2026-04-04T10:07:54Z</time></trkpt><trkpt lat="40.917522096942974" lon="15.709625660274096"><ele>467.0</ele><time>2026-04-04T10:07:55Z</time></trkpt><trkpt lat="40.91759575284179" lon="15.709940922459731"><ele>465.0</ele><time>2026-04-04T10:07:56Z</time></trkpt><trkpt lat="40.91766935041233" lon="15.710253778812278"><ele>460.5</ele><time>2026-04-04T10:07:57Z</time></trkpt><trkpt lat="40.91774052294415" lon="15.710554191307954"><ele>456.0</ele><time>2026-04-04T10:07:58Z</time></trkpt><trkpt lat="40.91782588592167" lon="15.710842460437418"><ele>451.5</ele><time>2026-04-04T10:07:59Z</time></trkpt><trkpt lat="40.91789465933408" lon="15.711131409170866"><ele>447.0</ele><time>2026-04-04T10:08:00Z</time></trkpt><trkpt lat="40.91796394549905" lon="15.711408885835569"><ele>447.0</ele><time>2026-04-04T10:08:01Z</time></trkpt><trkpt lat="40.91801691379966" lon="15.71166028626342"><ele>447.0</ele><time>2026-04-04T10:08:02Z</time></trkpt><trkpt lat="40.918062476607716" lon="15.711904318231216"><ele>447.0</ele><time>2026-04-04T10:08:03Z</time></trkpt><trkpt lat="40.91809756598527" lon="15.712147248451414"><ele>445.33333333333337</ele><time>2026-04-04T10:08:04Z</time></trkpt><trkpt lat="40.91811133517683" lon="15.7123857176875"><ele>443.6666666666667</ele><time>2026-04-04T10:08:05Z</time></trkpt><trkpt lat="40.91810047584106" lon="15.71262715011857"><ele>442.0</ele><time>2026-04-04T10:08:06Z</time></trkpt><trkpt lat="40.918081546140726" lon="15.71286764426839"><ele>440.6666666666667</ele><time>2026-04-04T10:08:07Z</time></trkpt><trkpt lat="40.91803841609596" lon="15.713096679011793"><ele>439.33333333333337</ele><time>2026-04-04T10:08:08Z</time></trkpt><trkpt lat="40.91797204863685" lon="15.713327235026203"><ele>438.0</ele><time>2026-04-04T10:08:09Z</time></trkpt><trkpt lat="40.917878718043916" lon="15.713546999376629"><ele>438.0</ele><time>2026-04-04T10:08:10Z</time></trkpt><trkpt lat="40.91776994270539" lon="15.713753790308532"><ele>438.0</ele><time>2026-04-04T10:08:11Z</time></trkpt><trkpt lat="40.91763973739215" lon="15.713946770408615"><ele>438.0</ele><time>2026-04-04T10:08:12Z</time></trkpt><trkpt lat="40.91749106791704" lon="15.714121091344758"><ele>438.0</ele><time>2026-04-04T10:08:13Z</time></trkpt><trkpt lat="40.91732961009243" lon="15.714275266745734"><ele>438.0</ele><time>2026-04-04T10:08:14Z</time></trkpt><trkpt lat="40.91715173738086" lon="15.714406322404662"><ele>438.0</ele><time>2026-04-04T10:08:15Z</time></trkpt><trkpt lat="40.916955195210754" lon="15.7145237920888"><ele>430.0</ele><time>2026-04-04T10:08:16Z</time></trkpt><trkpt lat="40.91674436113582" lon="15.714636728490742"><ele>422.0</ele><time>2026-04-04T10:08:17Z</time></trkpt><trkpt lat="40.916526088647224" lon="15.714740545733228"><ele>422.0</ele><time>2026-04-04T10:08:18Z</time></trkpt><trkpt lat="40.916300903321755" lon="15.714837579895711"><ele>422.0</ele><time>2026-04-04T10:08:19Z</time></trkpt><trkpt lat="40.91607522214387" lon="15.714925574367113"><ele>419.5</ele><time>2026-04-04T10:08:20Z</time></trkpt><trkpt lat="40.915846214079174" lon="15.714980971009263"><ele>417.0</ele><time>2026-04-04T10:08:21Z</time></trkpt><trkpt lat="40.91560459746648" lon="15.715001720841533"><ele>417.0</ele><time>2026-04-04T10:08:22Z</time></trkpt><trkpt lat="40.91535376331569" lon="15.714984029403652"><ele>417.0</ele><time>2026-04-04T10:08:23Z</time></trkpt><trkpt lat="40.91509743767745" lon="15.714925977493898"><ele>417.0</ele><time>2026-04-04T10:08:24Z</time></trkpt><trkpt lat="40.91483476192443" lon="15.71486482988854"><ele>417.0</ele><time>2026-04-04T10:08:25Z</time></trkpt><trkpt lat="40.9145716016639" lon="15.714800111500203"><ele>417.0</ele><time>2026-04-04T10:08:26Z</time></trkpt><trkpt lat="40.91430234005905" lon="15.714739885890626"><ele>417.0</ele><time>2026-04-04T10:08:27Z</time></trkpt><trkpt lat="40.91403129052391" lon="15.714682182947488"><ele>416.5</ele><time>2026-04-04T10:08:28Z</time></trkpt><trkpt lat="40.91375762769303" lon="15.714625604592"><ele>416.0</ele><time>2026-04-04T10:08:29Z</time></trkpt><trkpt lat="40.913484187709386" lon="15.714568067223102"><ele>415.5</ele><time>2026-04-04T10:08:30Z</time></trkpt><trkpt lat="40.91321245976445" lon="15.714503766985564"><ele>415.0</ele><time>2026-04-04T10:08:31Z</time></trkpt><trkpt lat="40.91294060783062" lon="15.71443631467827"><ele>419.5</ele><time>2026-04-04T10:08:32Z</time></trkpt><trkpt lat="40.91267001334695" lon="15.714364999128252"><ele>424.0</ele><time>2026-04-04T10:08:33Z</time></trkpt><trkpt lat="40.91239952985189" lon="15.714297081550713"><ele>424.0</ele><time>2026-04-04T10:08:34Z</time></trkpt><trkpt lat="40.91212791422611" lon="15.714239880692908"><ele>424.0</ele><time>2026-04-04T10:08:35Z</time></trkpt><trkpt lat="40.911853787721626" lon="15.714198656312053"><ele>426.0</ele><time>2026-04-04T10:08:36Z</time></trkpt><trkpt lat="40.91157559532784" lon="15.714182954835824"><ele>428.0</ele><time>2026-04-04T10:08:37Z</time></trkpt><trkpt lat="40.91129504349753" lon="15.714193805960806"><ele>428.0</ele><time>2026-04-04T10:08:38Z</time></trkpt><trkpt lat="40.911017863035404" lon="15.71422304646719"><ele>428.0</ele><time>2026-04-04T10:08:39Z</time></trkpt><trkpt lat="40.910741451455685" lon="15.714262395229113"><ele>430.5</ele><time>2026-04-04T10:08:40Z</time></trkpt><trkpt lat="40.910466756700686" lon="15.714307156738665"><ele>433.0</ele><time>2026-04-04T10:08:41Z</time></trkpt><trkpt lat="40.91019445794546" lon="15.71435996068217"><ele>427.5</ele><time>2026-04-04T10:08:42Z</time></trkpt><trkpt lat="40.90992701743358" lon="15.714433360085708"><ele>422.0</ele><time>2026-04-04T10:08:43Z</time></trkpt><trkpt lat="40.909679136551205" lon="15.714537060843764"><ele>422.0</ele><time>2026-04-04T10:08:44Z</time></trkpt><trkpt lat="40.909449364264105" lon="15.714671179138529"><ele>422.0</ele><time>2026-04-04T10:08:45Z</time></trkpt><trkpt lat="40.909239899008114" lon="15.714828988175395"><ele>429.0</ele><time>2026-04-04T10:08:46Z</time></trkpt><trkpt lat="40.90903801258403" lon="15.715014258380744"><ele>436.0</ele><time>2026-04-04T10:08:47Z</time></trkpt><trkpt lat="40.90884078873908" lon="15.715205875534595"><ele>430.5</ele><time>2026-04-04T10:08:48Z</time></trkpt><trkpt lat="40.90864470945502" lon="15.71541140321047"><ele>425.0</ele><time>2026-04-04T10:08:49Z</time></trkpt><trkpt lat="40.90844720261512" lon="15.71561889931424"><ele>431.0</ele><time>2026-04-04T10:08:50Z</time></trkpt><trkpt lat="40.908248215025196" lon="15.715830494334199"><ele>437.0</ele><time>2026-04-04T10:08:51Z</time></trkpt><trkpt lat="40.90804610851283" lon="15.716044697072535"><ele>434.5</ele><time>2026-04-04T10:08:52Z</time></trkpt><trkpt lat="40.90783731598176" lon="15.716263319791297"><ele>432.0</ele><time>2026-04-04T10:08:53Z</time></trkpt><trkpt lat="40.90762969522362" lon="15.71648079042474"><ele>433.0</ele><time>2026-04-04T10:08:54Z</time></trkpt><trkpt lat="40.907431073342984" lon="15.716698015390659"><ele>434.0</ele><time>2026-04-04T10:08:55Z</time></trkpt><trkpt lat="40.90724139818343" lon="15.716923207650643"><ele>432.0</ele><time>2026-04-04T10:08:56Z</time></trkpt><trkpt lat="40.90706523589947" lon="15.717163325049189"><ele>430.0</ele><time>2026-04-04T10:08:57Z</time></trkpt><trkpt lat="40.90690405890153" lon="15.717426403072896"><ele>430.0</ele><time>2026-04-04T10:08:58Z</time></trkpt><trkpt lat="40.90675744067853" lon="15.717711611051918"><ele>430.0</ele><time>2026-04-04T10:08:59Z</time></trkpt><trkpt lat="40.90662473064884" lon="15.718012587651318"><ele>431.5</ele><time>2026-04-04T10:09:00Z</time></trkpt><trkpt lat="40.90650677949087" lon="15.718330334559413"><ele>433.0</ele><time>2026-04-04T10:09:01Z</time></trkpt><trkpt lat="40.90640685690159" lon="15.718661464247832"><ele>433.0</ele><time>2026-04-04T10:09:02Z</time></trkpt><trkpt lat="40.9063228983208" lon="15.718998982293083"><ele>433.0</ele><time>2026-04-04T10:09:03Z</time></trkpt><trkpt lat="40.90625795985797" lon="15.719341363158307"><ele>436.5</ele><time>2026-04-04T10:09:04Z</time></trkpt><trkpt lat="40.90620515573916" lon="15.719685862172868"><ele>440.0</ele><time>2026-04-04T10:09:05Z</time></trkpt><trkpt lat="40.90613390156413" lon="15.720021141122656"><ele>446.0</ele><time>2026-04-04T10:09:06Z</time></trkpt><trkpt lat="40.90608416516657" lon="15.720360928633363"><ele>452.0</ele><time>2026-04-04T10:09:07Z</time></trkpt><trkpt lat="40.90603408364114" lon="15.72070088662108"><ele>452.0</ele><time>2026-04-04T10:09:08Z</time></trkpt><trkpt lat="40.905982596116345" lon="15.721036296733823"><ele>452.0</ele><time>2026-04-04T10:09:09Z</time></trkpt><trkpt lat="40.905928010945416" lon="15.721366143124296"><ele>448.5</ele><time>2026-04-04T10:09:10Z</time></trkpt><trkpt lat="40.90587602971288" lon="15.721697312898652"><ele>445.0</ele><time>2026-04-04T10:09:11Z</time></trkpt><trkpt lat="40.905829150928085" lon="15.722020389365026"><ele>452.5</ele><time>2026-04-04T10:09:12Z</time></trkpt><trkpt lat="40.905783813851535" lon="15.722335223839615"><ele>460.0</ele><time>2026-04-04T10:09:13Z</time></trkpt><trkpt lat="40.90573748350577" lon="15.72264672201982"><ele>464.5</ele><time>2026-04-04T10:09:14Z</time></trkpt><trkpt lat="40.90569539885453" lon="15.722956258204922"><ele>469.0</ele><time>2026-04-04T10:09:15Z</time></trkpt><trkpt lat="40.9056605049788" lon="15.723261106245609"><ele>473.0</ele><time>2026-04-04T10:09:16Z</time></trkpt><trkpt lat="40.90563483096617" lon="15.723568689624654"><ele>477.0</ele><time>2026-04-04T10:09:17Z</time></trkpt><trkpt lat="40.90562394855799" lon="15.72387262291927"><ele>477.0</ele><time>2026-04-04T10:09:18Z</time></trkpt><trkpt lat="40.90562284238152" lon="15.724168525638088"><ele>477.0</ele><time>2026-04-04T10:09:19Z</time></trkpt><trkpt lat="40.905628201075075" lon="15.72446133877388"><ele>477.0</ele><time>2026-04-04T10:09:20Z</time></trkpt><trkpt lat="40.90564762591912" lon="15.724751260437628"><ele>479.33333333333337</ele><time>2026-04-04T10:09:21Z</time></trkpt><trkpt lat="40.90567078778353" lon="15.725041714992072"><ele>481.6666666666667</ele><time>2026-04-04T10:09:22Z</time></trkpt><trkpt lat="40.905697379839054" lon="15.725331044604902"><ele>484.0</ele><time>2026-04-04T10:09:23Z</time></trkpt><trkpt lat="40.905725884568064" lon="15.725622702915308"><ele>485.5</ele><time>2026-04-04T10:09:24Z</time></trkpt><trkpt lat="40.90576741824875" lon="15.72591902378909"><ele>487.0</ele><time>2026-04-04T10:09:25Z</time></trkpt><trkpt lat="40.90582825352516" lon="15.726209525997888"><ele>492.5</ele><time>2026-04-04T10:09:26Z</time></trkpt><trkpt lat="40.905920179473476" lon="15.72649360133201"><ele>498.0</ele><time>2026-04-04T10:09:27Z</time></trkpt><trkpt lat="40.906031549880105" lon="15.72674976973215"><ele>494.33333333333337</ele><time>2026-04-04T10:09:28Z</time></trkpt><trkpt lat="40.90615731413538" lon="15.726970502980217"><ele>490.6666666666667</ele><time>2026-04-04T10:09:29Z</time></trkpt><trkpt lat="40.906308969199245" lon="15.727147308872217"><ele>487.0</ele><time>2026-04-04T10:09:30Z</time></trkpt><trkpt lat="40.90644987130306" lon="15.727324359047037"><ele>487.0</ele><time>2026-04-04T10:09:31Z</time></trkpt><trkpt lat="40.90660374886556" lon="15.727470717865895"><ele>487.0</ele><time>2026-04-04T10:09:32Z</time></trkpt><trkpt lat="40.90677098109516" lon="15.727604143069481"><ele>487.0</ele><time>2026-04-04T10:09:33Z</time></trkpt><trkpt lat="40.906948693931774" lon="15.727713847167667"><ele>486.33333333333337</ele><time>2026-04-04T10:09:34Z</time></trkpt><trkpt lat="40.907129874788595" lon="15.7278009281359"><ele>485.66666666666663</ele><time>2026-04-04T10:09:35Z</time></trkpt><trkpt lat="40.90730300827166" lon="15.727875167564418"><ele>485.0</ele><time>2026-04-04T10:09:36Z</time></trkpt><trkpt lat="40.90747122665156" lon="15.72794943669169"><ele>490.66666666666663</ele><time>2026-04-04T10:09:37Z</time></trkpt><trkpt lat="40.907624803200186" lon="15.728031927423446"><ele>496.33333333333337</ele><time>2026-04-04T10:09:38Z</time></trkpt><trkpt lat="40.90776734522435" lon="15.72811696078103"><ele>502.0</ele><time>2026-04-04T10:09:39Z</time></trkpt><trkpt lat="40.90789932088421" lon="15.728188632837318"><ele>502.0</ele><time>2026-04-04T10:09:40Z</time></trkpt><trkpt lat="40.908018011931816" lon="15.728252464542352"><ele>502.0</ele><time>2026-04-04T10:09:41Z</time></trkpt><trkpt lat="40.90812799247975" lon="15.728302300112473"><ele>502.0</ele><time>2026-04-04T10:09:42Z</time></trkpt><trkpt lat="40.90822461692263" lon="15.72835313989678"><ele>502.0</ele><time>2026-04-04T10:09:43Z</time></trkpt><trkpt lat="40.90831593798621" lon="15.728411774467943"><ele>502.0</ele><time>2026-04-04T10:09:44Z</time></trkpt><trkpt lat="40.90839912178656" lon="15.728482576377754"><ele>502.00000000000006</ele><time>2026-04-04T10:09:45Z</time></trkpt><trkpt lat="40.90847595905004" lon="15.72856788232733"><ele>502.00000000000006</ele><time>2026-04-04T10:09:46Z</time></trkpt><trkpt lat="40.90854997697293" lon="15.728659605137544"><ele>502.0</ele><time>2026-04-04T10:09:47Z</time></trkpt><trkpt lat="40.90861774943969" lon="15.728762304912209"><ele>502.0</ele><time>2026-04-04T10:09:48Z</time></trkpt><trkpt lat="40.90868861096022" lon="15.728895499499293"><ele>503.25</ele><time>2026-04-04T10:09:49Z</time></trkpt><trkpt lat="40.90875326871867" lon="15.729061678027987"><ele>504.5</ele><time>2026-04-04T10:09:50Z</time></trkpt><trkpt lat="40.90880548036135" lon="15.729207245997033"><ele>505.75</ele><time>2026-04-04T10:09:51Z</time></trkpt><trkpt lat="40.9088534237566" lon="15.729338498797473"><ele>507.0</ele><time>2026-04-04T10:09:52Z</time></trkpt><trkpt lat="40.908905481146334" lon="15.72945804513261"><ele>505.5</ele><time>2026-04-04T10:09:53Z</time></trkpt><trkpt lat="40.90896830235105" lon="15.729558180151667"><ele>504.0</ele><time>2026-04-04T10:09:54Z</time></trkpt><trkpt lat="40.909055338723476" lon="15.729642944093655"><ele>502.5</ele><time>2026-04-04T10:09:55Z</time></trkpt><trkpt lat="40.90913243734392" lon="15.729728459950982"><ele>501.0</ele><time>2026-04-04T10:09:56Z</time></trkpt><trkpt lat="40.90927592233648" lon="15.729712925806"><ele>501.0</ele><time>2026-04-04T10:09:57Z</time></trkpt><trkpt lat="40.90939484363201" lon="15.729705949255646"><ele>501.0</ele><time>2026-04-04T10:09:58Z</time></trkpt><trkpt lat="40.90951466110634" lon="15.729679851526564"><ele>501.0</ele><time>2026-04-04T10:09:59Z</time></trkpt><trkpt lat="40.909635485081985" lon="15.729657656551737"><ele>501.0</ele><time>2026-04-04T10:10:00Z</time></trkpt><trkpt lat="40.909755770038565" lon="15.729637601722706"><ele>501.0</ele><time>2026-04-04T10:10:01Z</time></trkpt><trkpt lat="40.9098683223845" lon="15.72960962864137"><ele>501.0</ele><time>2026-04-04T10:10:02Z</time></trkpt><trkpt lat="40.90996513550768" lon="15.729564155880249"><ele>501.0</ele><time>2026-04-04T10:10:03Z</time></trkpt><trkpt lat="40.91003856394004" lon="15.729505297529236"><ele>501.0</ele><time>2026-04-04T10:10:04Z</time></trkpt><trkpt lat="40.91009441935638" lon="15.729428913127364"><ele>501.0</ele><time>2026-04-04T10:10:05Z</time></trkpt><trkpt lat="40.91013005710793" lon="15.729322527748025"><ele>503.8</ele><time>2026-04-04T10:10:06Z</time></trkpt><trkpt lat="40.91014907140949" lon="15.729197215815827"><ele>506.6</ele><time>2026-04-04T10:10:07Z</time></trkpt><trkpt lat="40.910134234931995" lon="15.729077194455684"><ele>509.4</ele><time>2026-04-04T10:10:08Z</time></trkpt><trkpt lat="40.91008689398242" lon="15.728981625893555"><ele>512.2</ele><time>2026-04-04T10:10:09Z</time></trkpt><trkpt lat="40.91000846588796" lon="15.728913111400091"><ele>515.0</ele><time>2026-04-04T10:10:10Z</time></trkpt><trkpt lat="40.90993223835076" lon="15.728858099180759"><ele>515.0</ele><time>2026-04-04T10:10:11Z</time></trkpt><trkpt lat="40.90984871904587" lon="15.728834817029773"><ele>515.0</ele><time>2026-04-04T10:10:12Z</time></trkpt><trkpt lat="40.90979179802272" lon="15.72878770401316"><ele>515.0</ele><time>2026-04-04T10:10:13Z</time></trkpt><trkpt lat="40.90970044886002" lon="15.728699476944914"><ele>515.0</ele><time>2026-04-04T10:10:15Z</time></trkpt><trkpt lat="40.909631325052175" lon="15.728680859292012"><ele>515.0</ele><time>2026-04-04T10:10:18Z</time></trkpt><trkpt lat="40.90953461837464" lon="15.728607231592823"><ele>515.0</ele><time>2026-04-04T10:11:14Z</time></trkpt><trkpt lat="40.909464425538715" lon="15.728576982931951"><ele>514.8</ele><time>2026-04-04T10:11:15Z</time></trkpt><trkpt lat="40.9093851873107" lon="15.728540932796793"><ele>514.6</ele><time>2026-04-04T10:11:16Z</time></trkpt><trkpt lat="40.9092930894901" lon="15.72849296291325"><ele>514.4</ele><time>2026-04-04T10:11:17Z</time></trkpt><trkpt lat="40.9091921715208" lon="15.728441478986346"><ele>514.2</ele><time>2026-04-04T10:11:18Z</time></trkpt><trkpt lat="40.909078742777176" lon="15.728392531675398"><ele>514.0</ele><time>2026-04-04T10:11:19Z</time></trkpt><trkpt lat="40.90895841212643" lon="15.728338759688297"><ele>514.0</ele><time>2026-04-04T10:11:20Z</time></trkpt><trkpt lat="40.908828956315034" lon="15.728288298534943"><ele>514.0</ele><time>2026-04-04T10:11:21Z</time></trkpt><trkpt lat="40.908694651148416" lon="15.728229728318478"><ele>514.0</ele><time>2026-04-04T10:11:22Z</time></trkpt><trkpt lat="40.90855082311167" lon="15.72815123784116"><ele>514.0</ele><time>2026-04-04T10:11:23Z</time></trkpt><trkpt lat="40.90841772536784" lon="15.728089032779568"><ele>513.5</ele><time>2026-04-04T10:11:24Z</time></trkpt><trkpt lat="40.90829818078929" lon="15.728033615092661"><ele>513.0</ele><time>2026-04-04T10:11:25Z</time></trkpt><trkpt lat="40.90819563828328" lon="15.727926163703952"><ele>512.5</ele><time>2026-04-04T10:11:26Z</time></trkpt><trkpt lat="40.90810161445756" lon="15.727789235188023"><ele>512.0</ele><time>2026-04-04T10:11:27Z</time></trkpt><trkpt lat="40.90801177275401" lon="15.727633676688551"><ele>512.0</ele><time>2026-04-04T10:11:28Z</time></trkpt><trkpt lat="40.907916382720785" lon="15.727468683452123"><ele>512.0</ele><time>2026-04-04T10:11:29Z</time></trkpt><trkpt lat="40.90782095300809" lon="15.727295841131259"><ele>512.0</ele><time>2026-04-04T10:11:30Z</time></trkpt><trkpt lat="40.9077201475747" lon="15.727130254379823"><ele>512.0</ele><time>2026-04-04T10:11:31Z</time></trkpt><trkpt lat="40.90760841509191" lon="15.72697847379165"><ele>512.0</ele><time>2026-04-04T10:11:32Z</time></trkpt><trkpt lat="40.907475292937725" lon="15.726863303940435"><ele>512.0</ele><time>2026-04-04T10:11:33Z</time></trkpt><trkpt lat="40.907363712431504" lon="15.726733898591739"><ele>511.8</ele><time>2026-04-04T10:11:34Z</time></trkpt><trkpt lat="40.90725362196758" lon="15.726636888113084"><ele>511.6</ele><time>2026-04-04T10:11:35Z</time></trkpt><trkpt lat="40.907153120762" lon="15.72654889645077"><ele>511.40000000000003</ele><time>2026-04-04T10:11:36Z</time></trkpt><trkpt lat="40.907070942429925" lon="15.72647895397497"><ele>511.20000000000005</ele><time>2026-04-04T10:11:37Z</time></trkpt><trkpt lat="40.907018341347424" lon="15.726381302939425"><ele>511.0</ele><time>2026-04-04T10:11:38Z</time></trkpt><trkpt lat="40.90698242566975" lon="15.72630500295626"><ele>511.0</ele><time>2026-04-04T10:11:39Z</time></trkpt><trkpt lat="40.90701371706405" lon="15.726193603393806"><ele>511.0</ele><time>2026-04-04T10:11:40Z</time></trkpt><trkpt lat="40.907026275283975" lon="15.726065754225713"><ele>511.0</ele><time>2026-04-04T10:11:42Z</time></trkpt><trkpt lat="40.90708668728099" lon="15.726000548801657"><ele>521.0</ele><time>2026-04-04T10:11:44Z</time></trkpt></trkseg></trk></gpx>